<?xml version="1.0" encoding="UTF-8" standalone="no" ?>
<gpx xmlns="http://www.topografix.com/GPX/1/1" xmlns:xsi="http://www.w3.org/2001/XMLSchema-instance" xsi:schemaLocation="http://www.topografix.com/GPX/1/1 http://www.topografix.com/GPX/1/1/gpx.xsd" version="1.1" creator="VisuGPX - https://www.visugpx.com">
  <metadata>
    <name>traces-juin-sept</name>
  </metadata>
  <trk>
    <name><![CDATA[Tracé actuel: 01 SEP 2019 08:32]]></name>
    <trkseg>
      <trkpt lat="48.86273" lon="2.91155">
        <ele>89</ele>
        <time>2019-09-01T06:32:33Z</time>
      </trkpt>
      <trkpt lat="48.86275" lon="2.91157">
        <ele>89</ele>
        <time>2019-09-01T06:32:34Z</time>
      </trkpt>
      <trkpt lat="48.86294" lon="2.91171">
        <ele>92</ele>
        <time>2019-09-01T06:32:49Z</time>
      </trkpt>
      <trkpt lat="48.86304" lon="2.91176">
        <ele>93</ele>
        <time>2019-09-01T06:32:56Z</time>
      </trkpt>
      <trkpt lat="48.86321" lon="2.91186">
        <ele>94</ele>
        <time>2019-09-01T06:33:07Z</time>
      </trkpt>
      <trkpt lat="48.86339" lon="2.91195">
        <ele>99</ele>
        <time>2019-09-01T06:33:20Z</time>
      </trkpt>
      <trkpt lat="48.86356" lon="2.91207">
        <ele>100</ele>
        <time>2019-09-01T06:33:31Z</time>
      </trkpt>
      <trkpt lat="48.86372" lon="2.91222">
        <ele>101</ele>
        <time>2019-09-01T06:33:45Z</time>
      </trkpt>
      <trkpt lat="48.86378" lon="2.91219">
        <ele>101</ele>
        <time>2019-09-01T06:33:50Z</time>
      </trkpt>
      <trkpt lat="48.86381" lon="2.91211">
        <ele>101</ele>
        <time>2019-09-01T06:33:54Z</time>
      </trkpt>
      <trkpt lat="48.86388" lon="2.91152">
        <ele>99</ele>
        <time>2019-09-01T06:34:09Z</time>
      </trkpt>
      <trkpt lat="48.86402" lon="2.91084">
        <ele>99</ele>
        <time>2019-09-01T06:34:21Z</time>
      </trkpt>
      <trkpt lat="48.8642" lon="2.91025">
        <ele>102</ele>
        <time>2019-09-01T06:34:33Z</time>
      </trkpt>
      <trkpt lat="48.86446" lon="2.91019">
        <ele>103</ele>
        <time>2019-09-01T06:34:45Z</time>
      </trkpt>
      <trkpt lat="48.86471" lon="2.91019">
        <ele>105</ele>
        <time>2019-09-01T06:34:56Z</time>
      </trkpt>
      <trkpt lat="48.86501" lon="2.91038">
        <ele>109</ele>
        <time>2019-09-01T06:35:09Z</time>
      </trkpt>
      <trkpt lat="48.86535" lon="2.91041">
        <ele>110</ele>
        <time>2019-09-01T06:35:21Z</time>
      </trkpt>
      <trkpt lat="48.86574" lon="2.91054">
        <ele>111</ele>
        <time>2019-09-01T06:35:35Z</time>
      </trkpt>
      <trkpt lat="48.86611" lon="2.91064">
        <ele>116</ele>
        <time>2019-09-01T06:35:50Z</time>
      </trkpt>
      <trkpt lat="48.8664" lon="2.91065">
        <ele>118</ele>
        <time>2019-09-01T06:36:02Z</time>
      </trkpt>
      <trkpt lat="48.86673" lon="2.91053">
        <ele>122</ele>
        <time>2019-09-01T06:36:16Z</time>
      </trkpt>
      <trkpt lat="48.86702" lon="2.91033">
        <ele>123</ele>
        <time>2019-09-01T06:36:29Z</time>
      </trkpt>
      <trkpt lat="48.86709" lon="2.91034">
        <ele>123</ele>
        <time>2019-09-01T06:36:33Z</time>
      </trkpt>
      <trkpt lat="48.86711" lon="2.91026">
        <ele>123</ele>
        <time>2019-09-01T06:36:37Z</time>
      </trkpt>
      <trkpt lat="48.86711" lon="2.90983">
        <ele>122</ele>
        <time>2019-09-01T06:36:50Z</time>
      </trkpt>
      <trkpt lat="48.86713" lon="2.9093">
        <ele>122</ele>
        <time>2019-09-01T06:37:00Z</time>
      </trkpt>
      <trkpt lat="48.86709" lon="2.90867">
        <ele>120</ele>
        <time>2019-09-01T06:37:10Z</time>
      </trkpt>
      <trkpt lat="48.86682" lon="2.90773">
        <ele>117</ele>
        <time>2019-09-01T06:37:24Z</time>
      </trkpt>
      <trkpt lat="48.8665" lon="2.90695">
        <ele>110</ele>
        <time>2019-09-01T06:37:32Z</time>
      </trkpt>
      <trkpt lat="48.86617" lon="2.90646">
        <ele>108</ele>
        <time>2019-09-01T06:37:38Z</time>
      </trkpt>
      <trkpt lat="48.86615" lon="2.90636">
        <ele>108</ele>
        <time>2019-09-01T06:37:39Z</time>
      </trkpt>
      <trkpt lat="48.86614" lon="2.90625">
        <ele>108</ele>
        <time>2019-09-01T06:37:40Z</time>
      </trkpt>
      <trkpt lat="48.86615" lon="2.90614">
        <ele>108</ele>
        <time>2019-09-01T06:37:41Z</time>
      </trkpt>
      <trkpt lat="48.86616" lon="2.90604">
        <ele>108</ele>
        <time>2019-09-01T06:37:42Z</time>
      </trkpt>
      <trkpt lat="48.86622" lon="2.90536">
        <ele>107</ele>
        <time>2019-09-01T06:37:50Z</time>
      </trkpt>
      <trkpt lat="48.86624" lon="2.90516">
        <ele>107</ele>
        <time>2019-09-01T06:37:53Z</time>
      </trkpt>
      <trkpt lat="48.86625" lon="2.90509">
        <ele>107</ele>
        <time>2019-09-01T06:37:54Z</time>
      </trkpt>
      <trkpt lat="48.86627" lon="2.90472">
        <ele>107</ele>
        <time>2019-09-01T06:38:01Z</time>
      </trkpt>
      <trkpt lat="48.86616" lon="2.90435">
        <ele>107</ele>
        <time>2019-09-01T06:38:13Z</time>
      </trkpt>
      <trkpt lat="48.86609" lon="2.90404">
        <ele>107</ele>
        <time>2019-09-01T06:38:22Z</time>
      </trkpt>
      <trkpt lat="48.86606" lon="2.90344">
        <ele>107</ele>
        <time>2019-09-01T06:38:33Z</time>
      </trkpt>
      <trkpt lat="48.86606" lon="2.90332">
        <ele>107</ele>
        <time>2019-09-01T06:38:35Z</time>
      </trkpt>
      <trkpt lat="48.86606" lon="2.90298">
        <ele>107</ele>
        <time>2019-09-01T06:38:40Z</time>
      </trkpt>
      <trkpt lat="48.86606" lon="2.90283">
        <ele>107</ele>
        <time>2019-09-01T06:38:42Z</time>
      </trkpt>
      <trkpt lat="48.86597" lon="2.90215">
        <ele>106</ele>
        <time>2019-09-01T06:38:53Z</time>
      </trkpt>
      <trkpt lat="48.86585" lon="2.90208">
        <ele>106</ele>
        <time>2019-09-01T06:38:56Z</time>
      </trkpt>
      <trkpt lat="48.86567" lon="2.90205">
        <ele>102</ele>
        <time>2019-09-01T06:39:00Z</time>
      </trkpt>
      <trkpt lat="48.86549" lon="2.90205">
        <ele>102</ele>
        <time>2019-09-01T06:39:03Z</time>
      </trkpt>
      <trkpt lat="48.86528" lon="2.90187">
        <ele>101</ele>
        <time>2019-09-01T06:39:08Z</time>
      </trkpt>
      <trkpt lat="48.86529" lon="2.90179">
        <ele>101</ele>
        <time>2019-09-01T06:39:09Z</time>
      </trkpt>
      <trkpt lat="48.86529" lon="2.90173">
        <ele>101</ele>
        <time>2019-09-01T06:39:10Z</time>
      </trkpt>
      <trkpt lat="48.86531" lon="2.90118">
        <ele>102</ele>
        <time>2019-09-01T06:39:19Z</time>
      </trkpt>
      <trkpt lat="48.86531" lon="2.90098">
        <ele>102</ele>
        <time>2019-09-01T06:39:22Z</time>
      </trkpt>
      <trkpt lat="48.86532" lon="2.90091">
        <ele>102</ele>
        <time>2019-09-01T06:39:23Z</time>
      </trkpt>
      <trkpt lat="48.86533" lon="2.90059">
        <ele>103</ele>
        <time>2019-09-01T06:39:28Z</time>
      </trkpt>
      <trkpt lat="48.86534" lon="2.90044">
        <ele>103</ele>
        <time>2019-09-01T06:39:30Z</time>
      </trkpt>
      <trkpt lat="48.86534" lon="2.90037">
        <ele>103</ele>
        <time>2019-09-01T06:39:31Z</time>
      </trkpt>
      <trkpt lat="48.86533" lon="2.89989">
        <ele>104</ele>
        <time>2019-09-01T06:39:39Z</time>
      </trkpt>
      <trkpt lat="48.86529" lon="2.89924">
        <ele>104</ele>
        <time>2019-09-01T06:39:50Z</time>
      </trkpt>
      <trkpt lat="48.86523" lon="2.89876">
        <ele>105</ele>
        <time>2019-09-01T06:39:57Z</time>
      </trkpt>
      <trkpt lat="48.86518" lon="2.89855">
        <ele>104</ele>
        <time>2019-09-01T06:40:00Z</time>
      </trkpt>
      <trkpt lat="48.86517" lon="2.89848">
        <ele>104</ele>
        <time>2019-09-01T06:40:01Z</time>
      </trkpt>
      <trkpt lat="48.86515" lon="2.89833">
        <ele>103</ele>
        <time>2019-09-01T06:40:03Z</time>
      </trkpt>
      <trkpt lat="48.86515" lon="2.89825">
        <ele>103</ele>
        <time>2019-09-01T06:40:04Z</time>
      </trkpt>
      <trkpt lat="48.86513" lon="2.89776">
        <ele>104</ele>
        <time>2019-09-01T06:40:11Z</time>
      </trkpt>
      <trkpt lat="48.86513" lon="2.89768">
        <ele>104</ele>
        <time>2019-09-01T06:40:12Z</time>
      </trkpt>
      <trkpt lat="48.86517" lon="2.89736">
        <ele>104</ele>
        <time>2019-09-01T06:40:16Z</time>
      </trkpt>
      <trkpt lat="48.86519" lon="2.89715">
        <ele>104</ele>
        <time>2019-09-01T06:40:19Z</time>
      </trkpt>
      <trkpt lat="48.86523" lon="2.89675">
        <ele>104</ele>
        <time>2019-09-01T06:40:25Z</time>
      </trkpt>
      <trkpt lat="48.86524" lon="2.89584">
        <ele>102</ele>
        <time>2019-09-01T06:40:37Z</time>
      </trkpt>
      <trkpt lat="48.86523" lon="2.89569">
        <ele>102</ele>
        <time>2019-09-01T06:40:39Z</time>
      </trkpt>
      <trkpt lat="48.86525" lon="2.89493">
        <ele>101</ele>
        <time>2019-09-01T06:40:49Z</time>
      </trkpt>
      <trkpt lat="48.86525" lon="2.89457">
        <ele>101</ele>
        <time>2019-09-01T06:40:53Z</time>
      </trkpt>
      <trkpt lat="48.86529" lon="2.89421">
        <ele>101</ele>
        <time>2019-09-01T06:40:57Z</time>
      </trkpt>
      <trkpt lat="48.86534" lon="2.89303">
        <ele>100</ele>
        <time>2019-09-01T06:41:10Z</time>
      </trkpt>
      <trkpt lat="48.86547" lon="2.89202">
        <ele>101</ele>
        <time>2019-09-01T06:41:26Z</time>
      </trkpt>
      <trkpt lat="48.86559" lon="2.89122">
        <ele>100</ele>
        <time>2019-09-01T06:41:38Z</time>
      </trkpt>
      <trkpt lat="48.86569" lon="2.89075">
        <ele>100</ele>
        <time>2019-09-01T06:41:45Z</time>
      </trkpt>
      <trkpt lat="48.86583" lon="2.88963">
        <ele>100</ele>
        <time>2019-09-01T06:42:01Z</time>
      </trkpt>
      <trkpt lat="48.86597" lon="2.88888">
        <ele>103</ele>
        <time>2019-09-01T06:42:14Z</time>
      </trkpt>
      <trkpt lat="48.86601" lon="2.88867">
        <ele>103</ele>
        <time>2019-09-01T06:42:18Z</time>
      </trkpt>
      <trkpt lat="48.86614" lon="2.88856">
        <ele>103</ele>
        <time>2019-09-01T06:42:23Z</time>
      </trkpt>
      <trkpt lat="48.86664" lon="2.88886">
        <ele>104</ele>
        <time>2019-09-01T06:42:38Z</time>
      </trkpt>
      <trkpt lat="48.86691" lon="2.88898">
        <ele>106</ele>
        <time>2019-09-01T06:42:47Z</time>
      </trkpt>
      <trkpt lat="48.86739" lon="2.88929">
        <ele>107</ele>
        <time>2019-09-01T06:43:01Z</time>
      </trkpt>
      <trkpt lat="48.86787" lon="2.88955">
        <ele>109</ele>
        <time>2019-09-01T06:43:15Z</time>
      </trkpt>
      <trkpt lat="48.8684" lon="2.88972">
        <ele>110</ele>
        <time>2019-09-01T06:43:30Z</time>
      </trkpt>
      <trkpt lat="48.86879" lon="2.88995">
        <ele>109</ele>
        <time>2019-09-01T06:43:41Z</time>
      </trkpt>
      <trkpt lat="48.86892" lon="2.89009">
        <ele>110</ele>
        <time>2019-09-01T06:43:45Z</time>
      </trkpt>
      <trkpt lat="48.8694" lon="2.89061">
        <ele>110</ele>
        <time>2019-09-01T06:44:00Z</time>
      </trkpt>
      <trkpt lat="48.8698" lon="2.89119">
        <ele>110</ele>
        <time>2019-09-01T06:44:14Z</time>
      </trkpt>
      <trkpt lat="48.87002" lon="2.89176">
        <ele>109</ele>
        <time>2019-09-01T06:44:26Z</time>
      </trkpt>
      <trkpt lat="48.87016" lon="2.89245">
        <ele>110</ele>
        <time>2019-09-01T06:44:38Z</time>
      </trkpt>
      <trkpt lat="48.87025" lon="2.89279">
        <ele>110</ele>
        <time>2019-09-01T06:44:45Z</time>
      </trkpt>
      <trkpt lat="48.87081" lon="2.89269">
        <ele>108</ele>
        <time>2019-09-01T06:44:55Z</time>
      </trkpt>
      <trkpt lat="48.87196" lon="2.89234">
        <ele>99</ele>
        <time>2019-09-01T06:45:12Z</time>
      </trkpt>
      <trkpt lat="48.87285" lon="2.89206">
        <ele>97</ele>
        <time>2019-09-01T06:45:27Z</time>
      </trkpt>
      <trkpt lat="48.87355" lon="2.8918">
        <ele>97</ele>
        <time>2019-09-01T06:45:40Z</time>
      </trkpt>
      <trkpt lat="48.87429" lon="2.89156">
        <ele>96</ele>
        <time>2019-09-01T06:45:54Z</time>
      </trkpt>
      <trkpt lat="48.87496" lon="2.89148">
        <ele>96</ele>
        <time>2019-09-01T06:46:08Z</time>
      </trkpt>
      <trkpt lat="48.87525" lon="2.89145">
        <ele>95</ele>
        <time>2019-09-01T06:46:14Z</time>
      </trkpt>
      <trkpt lat="48.87583" lon="2.89139">
        <ele>94</ele>
        <time>2019-09-01T06:46:26Z</time>
      </trkpt>
      <trkpt lat="48.87592" lon="2.89137">
        <ele>94</ele>
        <time>2019-09-01T06:46:28Z</time>
      </trkpt>
      <trkpt lat="48.87654" lon="2.89133">
        <ele>94</ele>
        <time>2019-09-01T06:46:41Z</time>
      </trkpt>
      <trkpt lat="48.87684" lon="2.89132">
        <ele>93</ele>
        <time>2019-09-01T06:46:48Z</time>
      </trkpt>
      <trkpt lat="48.87693" lon="2.89131">
        <ele>93</ele>
        <time>2019-09-01T06:46:50Z</time>
      </trkpt>
      <trkpt lat="48.87709" lon="2.89136">
        <ele>92</ele>
        <time>2019-09-01T06:46:54Z</time>
      </trkpt>
      <trkpt lat="48.87726" lon="2.89145">
        <ele>92</ele>
        <time>2019-09-01T06:46:58Z</time>
      </trkpt>
      <trkpt lat="48.87779" lon="2.89126">
        <ele>91</ele>
        <time>2019-09-01T06:47:11Z</time>
      </trkpt>
      <trkpt lat="48.87783" lon="2.89123">
        <ele>91</ele>
        <time>2019-09-01T06:47:12Z</time>
      </trkpt>
      <trkpt lat="48.8779" lon="2.89116">
        <ele>90</ele>
        <time>2019-09-01T06:47:14Z</time>
      </trkpt>
      <trkpt lat="48.87805" lon="2.89107">
        <ele>90</ele>
        <time>2019-09-01T06:47:18Z</time>
      </trkpt>
      <trkpt lat="48.87815" lon="2.89127">
        <ele>90</ele>
        <time>2019-09-01T06:47:24Z</time>
      </trkpt>
      <trkpt lat="48.8782" lon="2.89153">
        <ele>91</ele>
        <time>2019-09-01T06:47:29Z</time>
      </trkpt>
      <trkpt lat="48.87833" lon="2.89237">
        <ele>92</ele>
        <time>2019-09-01T06:47:45Z</time>
      </trkpt>
      <trkpt lat="48.87841" lon="2.89317">
        <ele>93</ele>
        <time>2019-09-01T06:47:59Z</time>
      </trkpt>
      <trkpt lat="48.87846" lon="2.89383">
        <ele>95</ele>
        <time>2019-09-01T06:48:11Z</time>
      </trkpt>
      <trkpt lat="48.87848" lon="2.89407">
        <ele>95</ele>
        <time>2019-09-01T06:48:15Z</time>
      </trkpt>
      <trkpt lat="48.87858" lon="2.89488">
        <ele>97</ele>
        <time>2019-09-01T06:48:29Z</time>
      </trkpt>
      <trkpt lat="48.87859" lon="2.89501">
        <ele>97</ele>
        <time>2019-09-01T06:48:31Z</time>
      </trkpt>
      <trkpt lat="48.8786" lon="2.89532">
        <ele>97</ele>
        <time>2019-09-01T06:48:36Z</time>
      </trkpt>
      <trkpt lat="48.87858" lon="2.89565">
        <ele>97</ele>
        <time>2019-09-01T06:48:41Z</time>
      </trkpt>
      <trkpt lat="48.87849" lon="2.89625">
        <ele>98</ele>
        <time>2019-09-01T06:48:50Z</time>
      </trkpt>
      <trkpt lat="48.87867" lon="2.89619">
        <ele>98</ele>
        <time>2019-09-01T06:48:55Z</time>
      </trkpt>
      <trkpt lat="48.87873" lon="2.89611">
        <ele>98</ele>
        <time>2019-09-01T06:48:59Z</time>
      </trkpt>
      <trkpt lat="48.87886" lon="2.89638">
        <ele>98</ele>
        <time>2019-09-01T06:49:12Z</time>
      </trkpt>
      <trkpt lat="48.87915" lon="2.89645">
        <ele>98</ele>
        <time>2019-09-01T06:49:20Z</time>
      </trkpt>
      <trkpt lat="48.87973" lon="2.89709">
        <ele>94</ele>
        <time>2019-09-01T06:49:29Z</time>
      </trkpt>
      <trkpt lat="48.87988" lon="2.89743">
        <ele>92</ele>
        <time>2019-09-01T06:49:33Z</time>
      </trkpt>
      <trkpt lat="48.87997" lon="2.89791">
        <ele>92</ele>
        <time>2019-09-01T06:49:39Z</time>
      </trkpt>
      <trkpt lat="48.88003" lon="2.89819">
        <ele>89</ele>
        <time>2019-09-01T06:49:43Z</time>
      </trkpt>
      <trkpt lat="48.88014" lon="2.8983">
        <ele>88</ele>
        <time>2019-09-01T06:49:47Z</time>
      </trkpt>
      <trkpt lat="48.88043" lon="2.89827">
        <ele>86</ele>
        <time>2019-09-01T06:49:52Z</time>
      </trkpt>
      <trkpt lat="48.88071" lon="2.89827">
        <ele>84</ele>
        <time>2019-09-01T06:49:57Z</time>
      </trkpt>
      <trkpt lat="48.88125" lon="2.89854">
        <ele>82</ele>
        <time>2019-09-01T06:50:11Z</time>
      </trkpt>
      <trkpt lat="48.88157" lon="2.89875">
        <ele>82</ele>
        <time>2019-09-01T06:50:24Z</time>
      </trkpt>
      <trkpt lat="48.88164" lon="2.89876">
        <ele>82</ele>
        <time>2019-09-01T06:50:28Z</time>
      </trkpt>
      <trkpt lat="48.88197" lon="2.89898">
        <ele>85</ele>
        <time>2019-09-01T06:50:43Z</time>
      </trkpt>
      <trkpt lat="48.88217" lon="2.8991">
        <ele>86</ele>
        <time>2019-09-01T06:50:53Z</time>
      </trkpt>
      <trkpt lat="48.88219" lon="2.89927">
        <ele>87</ele>
        <time>2019-09-01T06:50:58Z</time>
      </trkpt>
      <trkpt lat="48.88214" lon="2.90002">
        <ele>88</ele>
        <time>2019-09-01T06:51:16Z</time>
      </trkpt>
      <trkpt lat="48.88211" lon="2.90068">
        <ele>89</ele>
        <time>2019-09-01T06:51:30Z</time>
      </trkpt>
      <trkpt lat="48.88205" lon="2.90135">
        <ele>89</ele>
        <time>2019-09-01T06:51:42Z</time>
      </trkpt>
      <trkpt lat="48.882" lon="2.90163">
        <ele>89</ele>
        <time>2019-09-01T06:51:46Z</time>
      </trkpt>
      <trkpt lat="48.88211" lon="2.90195">
        <ele>90</ele>
        <time>2019-09-01T06:51:53Z</time>
      </trkpt>
      <trkpt lat="48.88247" lon="2.90216">
        <ele>91</ele>
        <time>2019-09-01T06:52:06Z</time>
      </trkpt>
      <trkpt lat="48.88282" lon="2.90242">
        <ele>95</ele>
        <time>2019-09-01T06:52:20Z</time>
      </trkpt>
      <trkpt lat="48.88319" lon="2.90264">
        <ele>97</ele>
        <time>2019-09-01T06:52:33Z</time>
      </trkpt>
      <trkpt lat="48.88357" lon="2.90294">
        <ele>98</ele>
        <time>2019-09-01T06:52:47Z</time>
      </trkpt>
      <trkpt lat="48.88396" lon="2.9032">
        <ele>99</ele>
        <time>2019-09-01T06:53:02Z</time>
      </trkpt>
      <trkpt lat="48.88432" lon="2.90346">
        <ele>101</ele>
        <time>2019-09-01T06:53:16Z</time>
      </trkpt>
      <trkpt lat="48.88467" lon="2.90371">
        <ele>101</ele>
        <time>2019-09-01T06:53:29Z</time>
      </trkpt>
      <trkpt lat="48.88503" lon="2.90395">
        <ele>103</ele>
        <time>2019-09-01T06:53:42Z</time>
      </trkpt>
      <trkpt lat="48.88543" lon="2.90423">
        <ele>104</ele>
        <time>2019-09-01T06:53:57Z</time>
      </trkpt>
      <trkpt lat="48.88587" lon="2.90455">
        <ele>106</ele>
        <time>2019-09-01T06:54:13Z</time>
      </trkpt>
      <trkpt lat="48.88625" lon="2.90481">
        <ele>106</ele>
        <time>2019-09-01T06:54:27Z</time>
      </trkpt>
      <trkpt lat="48.88662" lon="2.90507">
        <ele>108</ele>
        <time>2019-09-01T06:54:41Z</time>
      </trkpt>
      <trkpt lat="48.88696" lon="2.90532">
        <ele>109</ele>
        <time>2019-09-01T06:54:54Z</time>
      </trkpt>
      <trkpt lat="48.88727" lon="2.90555">
        <ele>110</ele>
        <time>2019-09-01T06:55:06Z</time>
      </trkpt>
      <trkpt lat="48.88764" lon="2.90579">
        <ele>114</ele>
        <time>2019-09-01T06:55:19Z</time>
      </trkpt>
      <trkpt lat="48.88801" lon="2.90609">
        <ele>118</ele>
        <time>2019-09-01T06:55:32Z</time>
      </trkpt>
      <trkpt lat="48.88815" lon="2.90648">
        <ele>119</ele>
        <time>2019-09-01T06:55:43Z</time>
      </trkpt>
      <trkpt lat="48.88811" lon="2.90715">
        <ele>119</ele>
        <time>2019-09-01T06:55:57Z</time>
      </trkpt>
      <trkpt lat="48.88803" lon="2.90805">
        <ele>119</ele>
        <time>2019-09-01T06:56:12Z</time>
      </trkpt>
      <trkpt lat="48.88799" lon="2.90884">
        <ele>120</ele>
        <time>2019-09-01T06:56:25Z</time>
      </trkpt>
      <trkpt lat="48.88799" lon="2.90894">
        <ele>120</ele>
        <time>2019-09-01T06:56:27Z</time>
      </trkpt>
      <trkpt lat="48.88809" lon="2.90901">
        <ele>120</ele>
        <time>2019-09-01T06:56:30Z</time>
      </trkpt>
      <trkpt lat="48.88827" lon="2.90898">
        <ele>121</ele>
        <time>2019-09-01T06:56:34Z</time>
      </trkpt>
      <trkpt lat="48.88878" lon="2.90885">
        <ele>124</ele>
        <time>2019-09-01T06:56:48Z</time>
      </trkpt>
      <trkpt lat="48.8892" lon="2.90872">
        <ele>126</ele>
        <time>2019-09-01T06:56:59Z</time>
      </trkpt>
      <trkpt lat="48.8894" lon="2.90867">
        <ele>126</ele>
        <time>2019-09-01T06:57:05Z</time>
      </trkpt>
      <trkpt lat="48.88949" lon="2.90893">
        <ele>127</ele>
        <time>2019-09-01T06:57:10Z</time>
      </trkpt>
      <trkpt lat="48.88951" lon="2.90969">
        <ele>130</ele>
        <time>2019-09-01T06:57:24Z</time>
      </trkpt>
      <trkpt lat="48.88952" lon="2.91032">
        <ele>132</ele>
        <time>2019-09-01T06:57:36Z</time>
      </trkpt>
      <trkpt lat="48.8896" lon="2.91098">
        <ele>131</ele>
        <time>2019-09-01T06:57:49Z</time>
      </trkpt>
      <trkpt lat="48.88963" lon="2.91167">
        <ele>130</ele>
        <time>2019-09-01T06:58:02Z</time>
      </trkpt>
      <trkpt lat="48.88942" lon="2.91268">
        <ele>129</ele>
        <time>2019-09-01T06:58:18Z</time>
      </trkpt>
      <trkpt lat="48.88939" lon="2.91279">
        <ele>129</ele>
        <time>2019-09-01T06:58:20Z</time>
      </trkpt>
      <trkpt lat="48.8891" lon="2.91391">
        <ele>125</ele>
        <time>2019-09-01T06:58:36Z</time>
      </trkpt>
      <trkpt lat="48.88883" lon="2.91506">
        <ele>125</ele>
        <time>2019-09-01T06:58:50Z</time>
      </trkpt>
      <trkpt lat="48.88873" lon="2.91545">
        <ele>126</ele>
        <time>2019-09-01T06:58:55Z</time>
      </trkpt>
      <trkpt lat="48.88858" lon="2.91573">
        <ele>126</ele>
        <time>2019-09-01T06:59:00Z</time>
      </trkpt>
      <trkpt lat="48.88848" lon="2.91585">
        <ele>127</ele>
        <time>2019-09-01T06:59:03Z</time>
      </trkpt>
      <trkpt lat="48.88801" lon="2.9163">
        <ele>125</ele>
        <time>2019-09-01T06:59:14Z</time>
      </trkpt>
      <trkpt lat="48.88747" lon="2.91679">
        <ele>121</ele>
        <time>2019-09-01T06:59:28Z</time>
      </trkpt>
      <trkpt lat="48.88721" lon="2.91708">
        <ele>121</ele>
        <time>2019-09-01T06:59:39Z</time>
      </trkpt>
      <trkpt lat="48.88724" lon="2.91746">
        <ele>121</ele>
        <time>2019-09-01T06:59:51Z</time>
      </trkpt>
      <trkpt lat="48.88748" lon="2.91809">
        <ele>123</ele>
        <time>2019-09-01T07:00:06Z</time>
      </trkpt>
      <trkpt lat="48.8877" lon="2.9188">
        <ele>127</ele>
        <time>2019-09-01T07:00:21Z</time>
      </trkpt>
      <trkpt lat="48.88801" lon="2.91949">
        <ele>130</ele>
        <time>2019-09-01T07:00:37Z</time>
      </trkpt>
      <trkpt lat="48.88822" lon="2.92014">
        <ele>133</ele>
        <time>2019-09-01T07:00:54Z</time>
      </trkpt>
      <trkpt lat="48.88819" lon="2.92022">
        <ele>133</ele>
        <time>2019-09-01T07:00:58Z</time>
      </trkpt>
      <trkpt lat="48.88775" lon="2.92058">
        <ele>135</ele>
        <time>2019-09-01T07:01:12Z</time>
      </trkpt>
      <trkpt lat="48.88741" lon="2.92096">
        <ele>138</ele>
        <time>2019-09-01T07:01:23Z</time>
      </trkpt>
      <trkpt lat="48.88716" lon="2.92086">
        <ele>138</ele>
        <time>2019-09-01T07:01:30Z</time>
      </trkpt>
      <trkpt lat="48.88667" lon="2.92013">
        <ele>135</ele>
        <time>2019-09-01T07:01:44Z</time>
      </trkpt>
      <trkpt lat="48.88633" lon="2.91977">
        <ele>132</ele>
        <time>2019-09-01T07:01:53Z</time>
      </trkpt>
      <trkpt lat="48.88615" lon="2.91952">
        <ele>131</ele>
        <time>2019-09-01T07:01:57Z</time>
      </trkpt>
      <trkpt lat="48.88568" lon="2.91878">
        <ele>126</ele>
        <time>2019-09-01T07:02:06Z</time>
      </trkpt>
      <trkpt lat="48.88556" lon="2.91867">
        <ele>126</ele>
        <time>2019-09-01T07:02:08Z</time>
      </trkpt>
      <trkpt lat="48.88505" lon="2.91838">
        <ele>125</ele>
        <time>2019-09-01T07:02:17Z</time>
      </trkpt>
      <trkpt lat="48.88495" lon="2.91831">
        <ele>125</ele>
        <time>2019-09-01T07:02:19Z</time>
      </trkpt>
      <trkpt lat="48.88485" lon="2.91823">
        <ele>125</ele>
        <time>2019-09-01T07:02:21Z</time>
      </trkpt>
      <trkpt lat="48.88472" lon="2.9181">
        <ele>125</ele>
        <time>2019-09-01T07:02:24Z</time>
      </trkpt>
      <trkpt lat="48.88456" lon="2.91793">
        <ele>125</ele>
        <time>2019-09-01T07:02:28Z</time>
      </trkpt>
      <trkpt lat="48.88407" lon="2.91731">
        <ele>123</ele>
        <time>2019-09-01T07:02:44Z</time>
      </trkpt>
      <trkpt lat="48.88387" lon="2.91732">
        <ele>123</ele>
        <time>2019-09-01T07:02:52Z</time>
      </trkpt>
      <trkpt lat="48.88348" lon="2.9181">
        <ele>124</ele>
        <time>2019-09-01T07:03:09Z</time>
      </trkpt>
      <trkpt lat="48.88327" lon="2.91867">
        <ele>125</ele>
        <time>2019-09-01T07:03:19Z</time>
      </trkpt>
      <trkpt lat="48.88294" lon="2.91895">
        <ele>125</ele>
        <time>2019-09-01T07:03:29Z</time>
      </trkpt>
      <trkpt lat="48.88267" lon="2.91836">
        <ele>124</ele>
        <time>2019-09-01T07:03:38Z</time>
      </trkpt>
      <trkpt lat="48.88247" lon="2.91809">
        <ele>121</ele>
        <time>2019-09-01T07:03:44Z</time>
      </trkpt>
      <trkpt lat="48.88202" lon="2.9179">
        <ele>119</ele>
        <time>2019-09-01T07:03:50Z</time>
      </trkpt>
      <trkpt lat="48.88127" lon="2.91698">
        <ele>113</ele>
        <time>2019-09-01T07:04:02Z</time>
      </trkpt>
      <trkpt lat="48.88104" lon="2.91673">
        <ele>111</ele>
        <time>2019-09-01T07:04:07Z</time>
      </trkpt>
      <trkpt lat="48.8807" lon="2.91633">
        <ele>109</ele>
        <time>2019-09-01T07:04:15Z</time>
      </trkpt>
      <trkpt lat="48.88057" lon="2.91631">
        <ele>109</ele>
        <time>2019-09-01T07:04:19Z</time>
      </trkpt>
      <trkpt lat="48.88021" lon="2.91704">
        <ele>108</ele>
        <time>2019-09-01T07:04:31Z</time>
      </trkpt>
      <trkpt lat="48.87962" lon="2.91828">
        <ele>104</ele>
        <time>2019-09-01T07:04:46Z</time>
      </trkpt>
      <trkpt lat="48.87925" lon="2.91905">
        <ele>105</ele>
        <time>2019-09-01T07:04:59Z</time>
      </trkpt>
      <trkpt lat="48.87876" lon="2.9195">
        <ele>106</ele>
        <time>2019-09-01T07:05:13Z</time>
      </trkpt>
      <trkpt lat="48.87828" lon="2.91994">
        <ele>108</ele>
        <time>2019-09-01T07:05:28Z</time>
      </trkpt>
      <trkpt lat="48.87823" lon="2.92002">
        <ele>108</ele>
        <time>2019-09-01T07:05:30Z</time>
      </trkpt>
      <trkpt lat="48.87816" lon="2.92052">
        <ele>108</ele>
        <time>2019-09-01T07:05:38Z</time>
      </trkpt>
      <trkpt lat="48.87844" lon="2.92164">
        <ele>109</ele>
        <time>2019-09-01T07:05:56Z</time>
      </trkpt>
      <trkpt lat="48.87859" lon="2.9227">
        <ele>113</ele>
        <time>2019-09-01T07:06:12Z</time>
      </trkpt>
      <trkpt lat="48.87863" lon="2.92368">
        <ele>114</ele>
        <time>2019-09-01T07:06:27Z</time>
      </trkpt>
      <trkpt lat="48.8786" lon="2.92411">
        <ele>114</ele>
        <time>2019-09-01T07:06:36Z</time>
      </trkpt>
      <trkpt lat="48.87807" lon="2.9244">
        <ele>117</ele>
        <time>2019-09-01T07:06:51Z</time>
      </trkpt>
      <trkpt lat="48.87768" lon="2.92469">
        <ele>119</ele>
        <time>2019-09-01T07:07:06Z</time>
      </trkpt>
      <trkpt lat="48.87725" lon="2.92497">
        <ele>124</ele>
        <time>2019-09-01T07:07:21Z</time>
      </trkpt>
      <trkpt lat="48.87697" lon="2.92525">
        <ele>128</ele>
        <time>2019-09-01T07:07:34Z</time>
      </trkpt>
      <trkpt lat="48.87679" lon="2.92542">
        <ele>128</ele>
        <time>2019-09-01T07:07:42Z</time>
      </trkpt>
      <trkpt lat="48.87648" lon="2.92567">
        <ele>132</ele>
        <time>2019-09-01T07:07:59Z</time>
      </trkpt>
      <trkpt lat="48.87616" lon="2.92586">
        <ele>133</ele>
        <time>2019-09-01T07:08:13Z</time>
      </trkpt>
      <trkpt lat="48.87581" lon="2.92604">
        <ele>135</ele>
        <time>2019-09-01T07:08:28Z</time>
      </trkpt>
      <trkpt lat="48.87547" lon="2.92629">
        <ele>135</ele>
        <time>2019-09-01T07:08:41Z</time>
      </trkpt>
      <trkpt lat="48.87513" lon="2.92651">
        <ele>136</ele>
        <time>2019-09-01T07:08:56Z</time>
      </trkpt>
      <trkpt lat="48.87489" lon="2.92668">
        <ele>137</ele>
        <time>2019-09-01T07:09:08Z</time>
      </trkpt>
      <trkpt lat="48.87499" lon="2.92714">
        <ele>138</ele>
        <time>2019-09-01T07:09:21Z</time>
      </trkpt>
      <trkpt lat="48.87517" lon="2.92765">
        <ele>138</ele>
        <time>2019-09-01T07:09:35Z</time>
      </trkpt>
      <trkpt lat="48.87537" lon="2.92821">
        <ele>138</ele>
        <time>2019-09-01T07:09:48Z</time>
      </trkpt>
      <trkpt lat="48.87563" lon="2.92896">
        <ele>139</ele>
        <time>2019-09-01T07:10:05Z</time>
      </trkpt>
      <trkpt lat="48.87584" lon="2.92961">
        <ele>139</ele>
        <time>2019-09-01T07:10:19Z</time>
      </trkpt>
      <trkpt lat="48.87609" lon="2.93019">
        <ele>141</ele>
        <time>2019-09-01T07:10:34Z</time>
      </trkpt>
      <trkpt lat="48.87636" lon="2.93055">
        <ele>141</ele>
        <time>2019-09-01T07:10:45Z</time>
      </trkpt>
      <trkpt lat="48.8766" lon="2.93101">
        <ele>142</ele>
        <time>2019-09-01T07:10:55Z</time>
      </trkpt>
      <trkpt lat="48.87689" lon="2.93177">
        <ele>142</ele>
        <time>2019-09-01T07:11:09Z</time>
      </trkpt>
      <trkpt lat="48.87716" lon="2.93256">
        <ele>144</ele>
        <time>2019-09-01T07:11:24Z</time>
      </trkpt>
      <trkpt lat="48.87739" lon="2.93334">
        <ele>146</ele>
        <time>2019-09-01T07:11:38Z</time>
      </trkpt>
      <trkpt lat="48.87742" lon="2.93374">
        <ele>146</ele>
        <time>2019-09-01T07:11:45Z</time>
      </trkpt>
      <trkpt lat="48.87763" lon="2.93429">
        <ele>146</ele>
        <time>2019-09-01T07:11:58Z</time>
      </trkpt>
      <trkpt lat="48.87743" lon="2.93495">
        <ele>147</ele>
        <time>2019-09-01T07:12:12Z</time>
      </trkpt>
      <trkpt lat="48.87704" lon="2.93578">
        <ele>149</ele>
        <time>2019-09-01T07:12:28Z</time>
      </trkpt>
      <trkpt lat="48.87692" lon="2.93599">
        <ele>150</ele>
        <time>2019-09-01T07:12:32Z</time>
      </trkpt>
      <trkpt lat="48.8764" lon="2.93684">
        <ele>149</ele>
        <time>2019-09-01T07:12:49Z</time>
      </trkpt>
      <trkpt lat="48.87632" lon="2.93699">
        <ele>149</ele>
        <time>2019-09-01T07:12:52Z</time>
      </trkpt>
      <trkpt lat="48.87617" lon="2.9372">
        <ele>149</ele>
        <time>2019-09-01T07:12:57Z</time>
      </trkpt>
      <trkpt lat="48.87601" lon="2.93708">
        <ele>149</ele>
        <time>2019-09-01T07:13:02Z</time>
      </trkpt>
      <trkpt lat="48.87553" lon="2.93626">
        <ele>149</ele>
        <time>2019-09-01T07:13:18Z</time>
      </trkpt>
      <trkpt lat="48.87517" lon="2.9356">
        <ele>149</ele>
        <time>2019-09-01T07:13:30Z</time>
      </trkpt>
      <trkpt lat="48.87476" lon="2.93494">
        <ele>147</ele>
        <time>2019-09-01T07:13:42Z</time>
      </trkpt>
      <trkpt lat="48.87463" lon="2.93472">
        <ele>147</ele>
        <time>2019-09-01T07:13:46Z</time>
      </trkpt>
      <trkpt lat="48.87426" lon="2.93409">
        <ele>145</ele>
        <time>2019-09-01T07:13:57Z</time>
      </trkpt>
      <trkpt lat="48.87397" lon="2.93367">
        <ele>144</ele>
        <time>2019-09-01T07:14:05Z</time>
      </trkpt>
      <trkpt lat="48.87364" lon="2.93324">
        <ele>145</ele>
        <time>2019-09-01T07:14:13Z</time>
      </trkpt>
      <trkpt lat="48.87342" lon="2.93299">
        <ele>145</ele>
        <time>2019-09-01T07:14:18Z</time>
      </trkpt>
      <trkpt lat="48.87324" lon="2.9328">
        <ele>144</ele>
        <time>2019-09-01T07:14:22Z</time>
      </trkpt>
      <trkpt lat="48.87293" lon="2.93248">
        <ele>144</ele>
        <time>2019-09-01T07:14:29Z</time>
      </trkpt>
      <trkpt lat="48.87271" lon="2.93223">
        <ele>144</ele>
        <time>2019-09-01T07:14:34Z</time>
      </trkpt>
      <trkpt lat="48.87238" lon="2.9318">
        <ele>143</ele>
        <time>2019-09-01T07:14:42Z</time>
      </trkpt>
      <trkpt lat="48.87187" lon="2.93119">
        <ele>143</ele>
        <time>2019-09-01T07:14:54Z</time>
      </trkpt>
      <trkpt lat="48.8715" lon="2.93072">
        <ele>142</ele>
        <time>2019-09-01T07:15:03Z</time>
      </trkpt>
      <trkpt lat="48.87107" lon="2.92993">
        <ele>141</ele>
        <time>2019-09-01T07:15:16Z</time>
      </trkpt>
      <trkpt lat="48.8708" lon="2.92928">
        <ele>141</ele>
        <time>2019-09-01T07:15:26Z</time>
      </trkpt>
      <trkpt lat="48.87069" lon="2.929">
        <ele>140</ele>
        <time>2019-09-01T07:15:30Z</time>
      </trkpt>
      <trkpt lat="48.87058" lon="2.92866">
        <ele>140</ele>
        <time>2019-09-01T07:15:35Z</time>
      </trkpt>
      <trkpt lat="48.87047" lon="2.92828">
        <ele>139</ele>
        <time>2019-09-01T07:15:40Z</time>
      </trkpt>
      <trkpt lat="48.87041" lon="2.92769">
        <ele>139</ele>
        <time>2019-09-01T07:15:48Z</time>
      </trkpt>
      <trkpt lat="48.8704" lon="2.92743">
        <ele>138</ele>
        <time>2019-09-01T07:15:53Z</time>
      </trkpt>
      <trkpt lat="48.87036" lon="2.92738">
        <ele>138</ele>
        <time>2019-09-01T07:15:56Z</time>
      </trkpt>
      <trkpt lat="48.8703" lon="2.92744">
        <ele>138</ele>
        <time>2019-09-01T07:16:01Z</time>
      </trkpt>
      <trkpt lat="48.87023" lon="2.92812">
        <ele>139</ele>
        <time>2019-09-01T07:16:13Z</time>
      </trkpt>
      <trkpt lat="48.87013" lon="2.92872">
        <ele>140</ele>
        <time>2019-09-01T07:16:23Z</time>
      </trkpt>
      <trkpt lat="48.87013" lon="2.92888">
        <ele>140</ele>
        <time>2019-09-01T07:16:33Z</time>
      </trkpt>
      <trkpt lat="48.87002" lon="2.92968">
        <ele>140</ele>
        <time>2019-09-01T07:16:45Z</time>
      </trkpt>
      <trkpt lat="48.86985" lon="2.93083">
        <ele>140</ele>
        <time>2019-09-01T07:17:00Z</time>
      </trkpt>
      <trkpt lat="48.86967" lon="2.93188">
        <ele>138</ele>
        <time>2019-09-01T07:17:13Z</time>
      </trkpt>
      <trkpt lat="48.86966" lon="2.93194">
        <ele>138</ele>
        <time>2019-09-01T07:17:14Z</time>
      </trkpt>
      <trkpt lat="48.86961" lon="2.93214">
        <ele>138</ele>
        <time>2019-09-01T07:17:17Z</time>
      </trkpt>
      <trkpt lat="48.86931" lon="2.93321">
        <ele>137</ele>
        <time>2019-09-01T07:17:30Z</time>
      </trkpt>
      <trkpt lat="48.86892" lon="2.93427">
        <ele>135</ele>
        <time>2019-09-01T07:17:43Z</time>
      </trkpt>
      <trkpt lat="48.86845" lon="2.93562">
        <ele>132</ele>
        <time>2019-09-01T07:17:59Z</time>
      </trkpt>
      <trkpt lat="48.86817" lon="2.93641">
        <ele>128</ele>
        <time>2019-09-01T07:18:08Z</time>
      </trkpt>
      <trkpt lat="48.86777" lon="2.93798">
        <ele>123</ele>
        <time>2019-09-01T07:18:22Z</time>
      </trkpt>
      <trkpt lat="48.86751" lon="2.93995">
        <ele>115</ele>
        <time>2019-09-01T07:18:38Z</time>
      </trkpt>
      <trkpt lat="48.86726" lon="2.94104">
        <ele>110</ele>
        <time>2019-09-01T07:18:49Z</time>
      </trkpt>
      <trkpt lat="48.86706" lon="2.94131">
        <ele>110</ele>
        <time>2019-09-01T07:18:53Z</time>
      </trkpt>
      <trkpt lat="48.86695" lon="2.94143">
        <ele>109</ele>
        <time>2019-09-01T07:18:55Z</time>
      </trkpt>
      <trkpt lat="48.86666" lon="2.94166">
        <ele>108</ele>
        <time>2019-09-01T07:19:00Z</time>
      </trkpt>
      <trkpt lat="48.86622" lon="2.9418">
        <ele>105</ele>
        <time>2019-09-01T07:19:04Z</time>
      </trkpt>
      <trkpt lat="48.86587" lon="2.94198">
        <ele>104</ele>
        <time>2019-09-01T07:19:09Z</time>
      </trkpt>
      <trkpt lat="48.8655" lon="2.94233">
        <ele>104</ele>
        <time>2019-09-01T07:19:17Z</time>
      </trkpt>
      <trkpt lat="48.86529" lon="2.94273">
        <ele>104</ele>
        <time>2019-09-01T07:19:24Z</time>
      </trkpt>
      <trkpt lat="48.86524" lon="2.94283">
        <ele>104</ele>
        <time>2019-09-01T07:19:26Z</time>
      </trkpt>
      <trkpt lat="48.86512" lon="2.94306">
        <ele>104</ele>
        <time>2019-09-01T07:19:30Z</time>
      </trkpt>
      <trkpt lat="48.86485" lon="2.94371">
        <ele>106</ele>
        <time>2019-09-01T07:19:43Z</time>
      </trkpt>
      <trkpt lat="48.86452" lon="2.94387">
        <ele>107</ele>
        <time>2019-09-01T07:19:54Z</time>
      </trkpt>
      <trkpt lat="48.86402" lon="2.94379">
        <ele>110</ele>
        <time>2019-09-01T07:20:07Z</time>
      </trkpt>
      <trkpt lat="48.86344" lon="2.94363">
        <ele>111</ele>
        <time>2019-09-01T07:20:23Z</time>
      </trkpt>
      <trkpt lat="48.86286" lon="2.9436">
        <ele>114</ele>
        <time>2019-09-01T07:20:40Z</time>
      </trkpt>
      <trkpt lat="48.8624" lon="2.94374">
        <ele>117</ele>
        <time>2019-09-01T07:20:53Z</time>
      </trkpt>
      <trkpt lat="48.86198" lon="2.94414">
        <ele>119</ele>
        <time>2019-09-01T07:21:07Z</time>
      </trkpt>
      <trkpt lat="48.86157" lon="2.94451">
        <ele>122</ele>
        <time>2019-09-01T07:21:20Z</time>
      </trkpt>
      <trkpt lat="48.86116" lon="2.94487">
        <ele>122</ele>
        <time>2019-09-01T07:21:33Z</time>
      </trkpt>
      <trkpt lat="48.86099" lon="2.94504">
        <ele>124</ele>
        <time>2019-09-01T07:21:38Z</time>
      </trkpt>
      <trkpt lat="48.86073" lon="2.94529">
        <ele>123</ele>
        <time>2019-09-01T07:21:45Z</time>
      </trkpt>
      <trkpt lat="48.86027" lon="2.94576">
        <ele>123</ele>
        <time>2019-09-01T07:21:57Z</time>
      </trkpt>
      <trkpt lat="48.86018" lon="2.94584">
        <ele>124</ele>
        <time>2019-09-01T07:21:59Z</time>
      </trkpt>
      <trkpt lat="48.85996" lon="2.946">
        <ele>123</ele>
        <time>2019-09-01T07:22:04Z</time>
      </trkpt>
      <trkpt lat="48.85947" lon="2.94645">
        <ele>124</ele>
        <time>2019-09-01T07:22:17Z</time>
      </trkpt>
      <trkpt lat="48.85939" lon="2.94655">
        <ele>124</ele>
        <time>2019-09-01T07:22:19Z</time>
      </trkpt>
      <trkpt lat="48.85908" lon="2.94692">
        <ele>124</ele>
        <time>2019-09-01T07:22:27Z</time>
      </trkpt>
      <trkpt lat="48.8588" lon="2.94721">
        <ele>123</ele>
        <time>2019-09-01T07:22:35Z</time>
      </trkpt>
      <trkpt lat="48.85875" lon="2.94689">
        <ele>123</ele>
        <time>2019-09-01T07:22:40Z</time>
      </trkpt>
      <trkpt lat="48.85879" lon="2.94657">
        <ele>122</ele>
        <time>2019-09-01T07:22:44Z</time>
      </trkpt>
      <trkpt lat="48.8588" lon="2.94629">
        <ele>122</ele>
        <time>2019-09-01T07:22:48Z</time>
      </trkpt>
      <trkpt lat="48.85883" lon="2.94598">
        <ele>121</ele>
        <time>2019-09-01T07:22:52Z</time>
      </trkpt>
      <trkpt lat="48.85882" lon="2.94583">
        <ele>120</ele>
        <time>2019-09-01T07:22:54Z</time>
      </trkpt>
      <trkpt lat="48.85901" lon="2.94473">
        <ele>118</ele>
        <time>2019-09-01T07:23:09Z</time>
      </trkpt>
      <trkpt lat="48.85923" lon="2.94398">
        <ele>118</ele>
        <time>2019-09-01T07:23:22Z</time>
      </trkpt>
      <trkpt lat="48.85929" lon="2.94387">
        <ele>118</ele>
        <time>2019-09-01T07:23:24Z</time>
      </trkpt>
      <trkpt lat="48.85947" lon="2.94361">
        <ele>118</ele>
        <time>2019-09-01T07:23:29Z</time>
      </trkpt>
      <trkpt lat="48.85963" lon="2.9435">
        <ele>118</ele>
        <time>2019-09-01T07:23:34Z</time>
      </trkpt>
      <trkpt lat="48.85966" lon="2.94347">
        <ele>118</ele>
        <time>2019-09-01T07:23:36Z</time>
      </trkpt>
      <trkpt lat="48.8597" lon="2.94343">
        <ele>118</ele>
        <time>2019-09-01T07:23:47Z</time>
      </trkpt>
      <trkpt lat="48.85969" lon="2.94344">
        <ele>118</ele>
        <time>2019-09-01T07:23:49Z</time>
      </trkpt>
      <trkpt lat="48.85966" lon="2.94342">
        <ele>118</ele>
        <time>2019-09-01T07:23:52Z</time>
      </trkpt>
      <trkpt lat="48.85963" lon="2.94338">
        <ele>118</ele>
        <time>2019-09-01T07:23:55Z</time>
      </trkpt>
      <trkpt lat="48.85965" lon="2.94332">
        <ele>116</ele>
        <time>2019-09-01T07:24:07Z</time>
      </trkpt>
      <trkpt lat="48.85966" lon="2.94331">
        <ele>116</ele>
        <time>2019-09-01T07:24:24Z</time>
      </trkpt>
      <trkpt lat="48.85967" lon="2.94332">
        <ele>116</ele>
        <time>2019-09-01T07:24:48Z</time>
      </trkpt>
      <trkpt lat="48.85967" lon="2.94334">
        <ele>118</ele>
        <time>2019-09-01T07:25:11Z</time>
      </trkpt>
      <trkpt lat="48.85967" lon="2.94334">
        <ele>118</ele>
        <time>2019-09-01T07:25:33Z</time>
      </trkpt>
      <trkpt lat="48.85967" lon="2.94333">
        <ele>118</ele>
        <time>2019-09-01T07:25:54Z</time>
      </trkpt>
      <trkpt lat="48.85967" lon="2.94334">
        <ele>118</ele>
        <time>2019-09-01T07:26:13Z</time>
      </trkpt>
      <trkpt lat="48.85965" lon="2.94337">
        <ele>118</ele>
        <time>2019-09-01T07:26:32Z</time>
      </trkpt>
      <trkpt lat="48.8597" lon="2.94343">
        <ele>118</ele>
        <time>2019-09-01T07:26:39Z</time>
      </trkpt>
      <trkpt lat="48.85963" lon="2.9434">
        <ele>118</ele>
        <time>2019-09-01T07:26:48Z</time>
      </trkpt>
      <trkpt lat="48.85941" lon="2.94326">
        <ele>117</ele>
        <time>2019-09-01T07:26:58Z</time>
      </trkpt>
      <trkpt lat="48.85911" lon="2.94325">
        <ele>117</ele>
        <time>2019-09-01T07:27:06Z</time>
      </trkpt>
      <trkpt lat="48.85847" lon="2.94295">
        <ele>114</ele>
        <time>2019-09-01T07:27:20Z</time>
      </trkpt>
      <trkpt lat="48.85776" lon="2.94253">
        <ele>108</ele>
        <time>2019-09-01T07:27:33Z</time>
      </trkpt>
      <trkpt lat="48.85696" lon="2.94185">
        <ele>100</ele>
        <time>2019-09-01T07:27:45Z</time>
      </trkpt>
      <trkpt lat="48.85643" lon="2.94135">
        <ele>93</ele>
        <time>2019-09-01T07:27:53Z</time>
      </trkpt>
      <trkpt lat="48.85638" lon="2.94099">
        <ele>93</ele>
        <time>2019-09-01T07:27:59Z</time>
      </trkpt>
      <trkpt lat="48.85647" lon="2.94081">
        <ele>93</ele>
        <time>2019-09-01T07:28:03Z</time>
      </trkpt>
      <trkpt lat="48.85657" lon="2.94072">
        <ele>93</ele>
        <time>2019-09-01T07:28:05Z</time>
      </trkpt>
      <trkpt lat="48.85674" lon="2.94052">
        <ele>95</ele>
        <time>2019-09-01T07:28:09Z</time>
      </trkpt>
      <trkpt lat="48.85692" lon="2.94032">
        <ele>95</ele>
        <time>2019-09-01T07:28:13Z</time>
      </trkpt>
      <trkpt lat="48.85714" lon="2.94006">
        <ele>95</ele>
        <time>2019-09-01T07:28:18Z</time>
      </trkpt>
      <trkpt lat="48.85731" lon="2.93988">
        <ele>93</ele>
        <time>2019-09-01T07:28:22Z</time>
      </trkpt>
      <trkpt lat="48.85779" lon="2.93935">
        <ele>93</ele>
        <time>2019-09-01T07:28:35Z</time>
      </trkpt>
      <trkpt lat="48.85839" lon="2.93921">
        <ele>94</ele>
        <time>2019-09-01T07:28:51Z</time>
      </trkpt>
      <trkpt lat="48.8588" lon="2.93916">
        <ele>91</ele>
        <time>2019-09-01T07:29:02Z</time>
      </trkpt>
      <trkpt lat="48.85894" lon="2.93934">
        <ele>96</ele>
        <time>2019-09-01T07:29:07Z</time>
      </trkpt>
      <trkpt lat="48.85898" lon="2.93948">
        <ele>96</ele>
        <time>2019-09-01T07:29:10Z</time>
      </trkpt>
      <trkpt lat="48.85911" lon="2.93958">
        <ele>97</ele>
        <time>2019-09-01T07:29:14Z</time>
      </trkpt>
      <trkpt lat="48.85918" lon="2.93953">
        <ele>97</ele>
        <time>2019-09-01T07:29:18Z</time>
      </trkpt>
      <trkpt lat="48.85922" lon="2.93927">
        <ele>95</ele>
        <time>2019-09-01T07:29:23Z</time>
      </trkpt>
      <trkpt lat="48.85924" lon="2.93898">
        <ele>93</ele>
        <time>2019-09-01T07:29:27Z</time>
      </trkpt>
      <trkpt lat="48.85919" lon="2.93869">
        <ele>91</ele>
        <time>2019-09-01T07:29:32Z</time>
      </trkpt>
      <trkpt lat="48.85916" lon="2.93844">
        <ele>89</ele>
        <time>2019-09-01T07:29:37Z</time>
      </trkpt>
      <trkpt lat="48.85905" lon="2.93803">
        <ele>85</ele>
        <time>2019-09-01T07:29:46Z</time>
      </trkpt>
      <trkpt lat="48.85903" lon="2.93773">
        <ele>84</ele>
        <time>2019-09-01T07:29:52Z</time>
      </trkpt>
      <trkpt lat="48.85902" lon="2.9376">
        <ele>83</ele>
        <time>2019-09-01T07:29:54Z</time>
      </trkpt>
      <trkpt lat="48.85925" lon="2.93645">
        <ele>77</ele>
        <time>2019-09-01T07:30:06Z</time>
      </trkpt>
      <trkpt lat="48.85937" lon="2.93584">
        <ele>74</ele>
        <time>2019-09-01T07:30:12Z</time>
      </trkpt>
      <trkpt lat="48.85913" lon="2.93526">
        <ele>74</ele>
        <time>2019-09-01T07:30:20Z</time>
      </trkpt>
      <trkpt lat="48.85889" lon="2.93499">
        <ele>77</ele>
        <time>2019-09-01T07:30:30Z</time>
      </trkpt>
      <trkpt lat="48.85886" lon="2.93499">
        <ele>77</ele>
        <time>2019-09-01T07:30:31Z</time>
      </trkpt>
      <trkpt lat="48.85839" lon="2.93541">
        <ele>77</ele>
        <time>2019-09-01T07:30:48Z</time>
      </trkpt>
      <trkpt lat="48.85808" lon="2.93589">
        <ele>79</ele>
        <time>2019-09-01T07:31:00Z</time>
      </trkpt>
      <trkpt lat="48.85778" lon="2.9359">
        <ele>81</ele>
        <time>2019-09-01T07:31:10Z</time>
      </trkpt>
      <trkpt lat="48.85761" lon="2.9358">
        <ele>84</ele>
        <time>2019-09-01T07:31:22Z</time>
      </trkpt>
      <trkpt lat="48.8574" lon="2.93566">
        <ele>87</ele>
        <time>2019-09-01T07:31:36Z</time>
      </trkpt>
      <trkpt lat="48.8572" lon="2.93553">
        <ele>89</ele>
        <time>2019-09-01T07:31:52Z</time>
      </trkpt>
      <trkpt lat="48.85697" lon="2.93534">
        <ele>90</ele>
        <time>2019-09-01T07:32:06Z</time>
      </trkpt>
      <trkpt lat="48.85675" lon="2.93515">
        <ele>92</ele>
        <time>2019-09-01T07:32:20Z</time>
      </trkpt>
      <trkpt lat="48.85654" lon="2.93502">
        <ele>96</ele>
        <time>2019-09-01T07:32:32Z</time>
      </trkpt>
      <trkpt lat="48.85624" lon="2.93493">
        <ele>99</ele>
        <time>2019-09-01T07:32:45Z</time>
      </trkpt>
      <trkpt lat="48.85593" lon="2.93495">
        <ele>100</ele>
        <time>2019-09-01T07:32:59Z</time>
      </trkpt>
      <trkpt lat="48.85584" lon="2.93537">
        <ele>98</ele>
        <time>2019-09-01T07:33:10Z</time>
      </trkpt>
      <trkpt lat="48.85577" lon="2.93571">
        <ele>102</ele>
        <time>2019-09-01T07:33:23Z</time>
      </trkpt>
      <trkpt lat="48.85575" lon="2.93572">
        <ele>102</ele>
        <time>2019-09-01T07:33:25Z</time>
      </trkpt>
      <trkpt lat="48.85569" lon="2.93571">
        <ele>102</ele>
        <time>2019-09-01T07:33:28Z</time>
      </trkpt>
      <trkpt lat="48.85501" lon="2.93533">
        <ele>106</ele>
        <time>2019-09-01T07:33:46Z</time>
      </trkpt>
      <trkpt lat="48.85467" lon="2.93521">
        <ele>110</ele>
        <time>2019-09-01T07:34:00Z</time>
      </trkpt>
      <trkpt lat="48.85433" lon="2.93512">
        <ele>112</ele>
        <time>2019-09-01T07:34:13Z</time>
      </trkpt>
      <trkpt lat="48.85408" lon="2.93502">
        <ele>114</ele>
        <time>2019-09-01T07:34:25Z</time>
      </trkpt>
      <trkpt lat="48.85406" lon="2.93501">
        <ele>115</ele>
        <time>2019-09-01T07:34:26Z</time>
      </trkpt>
      <trkpt lat="48.85399" lon="2.93486">
        <ele>116</ele>
        <time>2019-09-01T07:34:31Z</time>
      </trkpt>
      <trkpt lat="48.85395" lon="2.9344">
        <ele>116</ele>
        <time>2019-09-01T07:34:42Z</time>
      </trkpt>
      <trkpt lat="48.85381" lon="2.93432">
        <ele>117</ele>
        <time>2019-09-01T07:34:47Z</time>
      </trkpt>
      <trkpt lat="48.85344" lon="2.93463">
        <ele>118</ele>
        <time>2019-09-01T07:35:01Z</time>
      </trkpt>
      <trkpt lat="48.85307" lon="2.93459">
        <ele>121</ele>
        <time>2019-09-01T07:35:12Z</time>
      </trkpt>
      <trkpt lat="48.85277" lon="2.9345">
        <ele>121</ele>
        <time>2019-09-01T07:35:22Z</time>
      </trkpt>
      <trkpt lat="48.85244" lon="2.93453">
        <ele>121</ele>
        <time>2019-09-01T07:35:32Z</time>
      </trkpt>
      <trkpt lat="48.85202" lon="2.93464">
        <ele>122</ele>
        <time>2019-09-01T07:35:43Z</time>
      </trkpt>
      <trkpt lat="48.8515" lon="2.93477">
        <ele>123</ele>
        <time>2019-09-01T07:35:56Z</time>
      </trkpt>
      <trkpt lat="48.85105" lon="2.9349">
        <ele>124</ele>
        <time>2019-09-01T07:36:08Z</time>
      </trkpt>
      <trkpt lat="48.85083" lon="2.93493">
        <ele>125</ele>
        <time>2019-09-01T07:36:14Z</time>
      </trkpt>
      <trkpt lat="48.85051" lon="2.93511">
        <ele>127</ele>
        <time>2019-09-01T07:36:23Z</time>
      </trkpt>
      <trkpt lat="48.85048" lon="2.93516">
        <ele>127</ele>
        <time>2019-09-01T07:36:24Z</time>
      </trkpt>
      <trkpt lat="48.85045" lon="2.93521">
        <ele>128</ele>
        <time>2019-09-01T07:36:25Z</time>
      </trkpt>
      <trkpt lat="48.85042" lon="2.93525">
        <ele>128</ele>
        <time>2019-09-01T07:36:26Z</time>
      </trkpt>
      <trkpt lat="48.85039" lon="2.9353">
        <ele>128</ele>
        <time>2019-09-01T07:36:27Z</time>
      </trkpt>
      <trkpt lat="48.85037" lon="2.93536">
        <ele>128</ele>
        <time>2019-09-01T07:36:28Z</time>
      </trkpt>
      <trkpt lat="48.85035" lon="2.93541">
        <ele>128</ele>
        <time>2019-09-01T07:36:29Z</time>
      </trkpt>
      <trkpt lat="48.85034" lon="2.93547">
        <ele>128</ele>
        <time>2019-09-01T07:36:30Z</time>
      </trkpt>
      <trkpt lat="48.85032" lon="2.93553">
        <ele>128</ele>
        <time>2019-09-01T07:36:31Z</time>
      </trkpt>
      <trkpt lat="48.85025" lon="2.93574">
        <ele>128</ele>
        <time>2019-09-01T07:36:35Z</time>
      </trkpt>
      <trkpt lat="48.84995" lon="2.93605">
        <ele>129</ele>
        <time>2019-09-01T07:36:46Z</time>
      </trkpt>
      <trkpt lat="48.84972" lon="2.93608">
        <ele>129</ele>
        <time>2019-09-01T07:36:52Z</time>
      </trkpt>
      <trkpt lat="48.84949" lon="2.93584">
        <ele>129</ele>
        <time>2019-09-01T07:37:00Z</time>
      </trkpt>
      <trkpt lat="48.84911" lon="2.93559">
        <ele>130</ele>
        <time>2019-09-01T07:37:14Z</time>
      </trkpt>
      <trkpt lat="48.8486" lon="2.93559">
        <ele>130</ele>
        <time>2019-09-01T07:37:25Z</time>
      </trkpt>
      <trkpt lat="48.84833" lon="2.93559">
        <ele>131</ele>
        <time>2019-09-01T07:37:30Z</time>
      </trkpt>
      <trkpt lat="48.84773" lon="2.93568">
        <ele>132</ele>
        <time>2019-09-01T07:37:44Z</time>
      </trkpt>
      <trkpt lat="48.8473" lon="2.93571">
        <ele>133</ele>
        <time>2019-09-01T07:37:52Z</time>
      </trkpt>
      <trkpt lat="48.84706" lon="2.93563">
        <ele>133</ele>
        <time>2019-09-01T07:37:57Z</time>
      </trkpt>
      <trkpt lat="48.84633" lon="2.93522">
        <ele>131</ele>
        <time>2019-09-01T07:38:13Z</time>
      </trkpt>
      <trkpt lat="48.84561" lon="2.93478">
        <ele>130</ele>
        <time>2019-09-01T07:38:28Z</time>
      </trkpt>
      <trkpt lat="48.84543" lon="2.93469">
        <ele>130</ele>
        <time>2019-09-01T07:38:32Z</time>
      </trkpt>
      <trkpt lat="48.84523" lon="2.93448">
        <ele>130</ele>
        <time>2019-09-01T07:38:37Z</time>
      </trkpt>
      <trkpt lat="48.84469" lon="2.93337">
        <ele>129</ele>
        <time>2019-09-01T07:38:53Z</time>
      </trkpt>
      <trkpt lat="48.84411" lon="2.93281">
        <ele>127</ele>
        <time>2019-09-01T07:39:06Z</time>
      </trkpt>
      <trkpt lat="48.84329" lon="2.93199">
        <ele>126</ele>
        <time>2019-09-01T07:39:20Z</time>
      </trkpt>
      <trkpt lat="48.84324" lon="2.93194">
        <ele>126</ele>
        <time>2019-09-01T07:39:21Z</time>
      </trkpt>
      <trkpt lat="48.84245" lon="2.93133">
        <ele>126</ele>
        <time>2019-09-01T07:39:38Z</time>
      </trkpt>
      <trkpt lat="48.84177" lon="2.93072">
        <ele>124</ele>
        <time>2019-09-01T07:39:53Z</time>
      </trkpt>
      <trkpt lat="48.84138" lon="2.9304">
        <ele>126</ele>
        <time>2019-09-01T07:40:02Z</time>
      </trkpt>
      <trkpt lat="48.84122" lon="2.93026">
        <ele>126</ele>
        <time>2019-09-01T07:40:06Z</time>
      </trkpt>
      <trkpt lat="48.84105" lon="2.93015">
        <ele>126</ele>
        <time>2019-09-01T07:40:10Z</time>
      </trkpt>
      <trkpt lat="48.84092" lon="2.93007">
        <ele>126</ele>
        <time>2019-09-01T07:40:13Z</time>
      </trkpt>
      <trkpt lat="48.8402" lon="2.92956">
        <ele>126</ele>
        <time>2019-09-01T07:40:28Z</time>
      </trkpt>
      <trkpt lat="48.8396" lon="2.92896">
        <ele>125</ele>
        <time>2019-09-01T07:40:43Z</time>
      </trkpt>
      <trkpt lat="48.83951" lon="2.9289">
        <ele>125</ele>
        <time>2019-09-01T07:40:45Z</time>
      </trkpt>
      <trkpt lat="48.83942" lon="2.92832">
        <ele>121</ele>
        <time>2019-09-01T07:40:52Z</time>
      </trkpt>
      <trkpt lat="48.83952" lon="2.92783">
        <ele>120</ele>
        <time>2019-09-01T07:40:57Z</time>
      </trkpt>
      <trkpt lat="48.83969" lon="2.92623">
        <ele>113</ele>
        <time>2019-09-01T07:41:11Z</time>
      </trkpt>
      <trkpt lat="48.83996" lon="2.92514">
        <ele>107</ele>
        <time>2019-09-01T07:41:22Z</time>
      </trkpt>
      <trkpt lat="48.84036" lon="2.92362">
        <ele>96</ele>
        <time>2019-09-01T07:41:36Z</time>
      </trkpt>
      <trkpt lat="48.84047" lon="2.92311">
        <ele>93</ele>
        <time>2019-09-01T07:41:41Z</time>
      </trkpt>
      <trkpt lat="48.84059" lon="2.92263">
        <ele>92</ele>
        <time>2019-09-01T07:41:46Z</time>
      </trkpt>
      <trkpt lat="48.84062" lon="2.92233">
        <ele>90</ele>
        <time>2019-09-01T07:41:49Z</time>
      </trkpt>
      <trkpt lat="48.84078" lon="2.92208">
        <ele>89</ele>
        <time>2019-09-01T07:41:57Z</time>
      </trkpt>
      <trkpt lat="48.8408" lon="2.92211">
        <ele>89</ele>
        <time>2019-09-01T07:41:58Z</time>
      </trkpt>
      <trkpt lat="48.84114" lon="2.92251">
        <ele>88</ele>
        <time>2019-09-01T07:42:06Z</time>
      </trkpt>
      <trkpt lat="48.84137" lon="2.92287">
        <ele>88</ele>
        <time>2019-09-01T07:42:12Z</time>
      </trkpt>
      <trkpt lat="48.84149" lon="2.92313">
        <ele>89</ele>
        <time>2019-09-01T07:42:16Z</time>
      </trkpt>
      <trkpt lat="48.8418" lon="2.92396">
        <ele>90</ele>
        <time>2019-09-01T07:42:32Z</time>
      </trkpt>
      <trkpt lat="48.84187" lon="2.92412">
        <ele>91</ele>
        <time>2019-09-01T07:42:37Z</time>
      </trkpt>
      <trkpt lat="48.84196" lon="2.92405">
        <ele>90</ele>
        <time>2019-09-01T07:42:41Z</time>
      </trkpt>
      <trkpt lat="48.84231" lon="2.92366">
        <ele>87</ele>
        <time>2019-09-01T07:42:49Z</time>
      </trkpt>
      <trkpt lat="48.84254" lon="2.92333">
        <ele>79</ele>
        <time>2019-09-01T07:42:54Z</time>
      </trkpt>
      <trkpt lat="48.84324" lon="2.92277">
        <ele>69</ele>
        <time>2019-09-01T07:43:06Z</time>
      </trkpt>
      <trkpt lat="48.84353" lon="2.9228">
        <ele>62</ele>
        <time>2019-09-01T07:43:10Z</time>
      </trkpt>
      <trkpt lat="48.84377" lon="2.9225">
        <ele>59</ele>
        <time>2019-09-01T07:43:19Z</time>
      </trkpt>
      <trkpt lat="48.84376" lon="2.92221">
        <ele>59</ele>
        <time>2019-09-01T07:43:23Z</time>
      </trkpt>
      <trkpt lat="48.84373" lon="2.922">
        <ele>59</ele>
        <time>2019-09-01T07:43:26Z</time>
      </trkpt>
      <trkpt lat="48.84362" lon="2.92112">
        <ele>58</ele>
        <time>2019-09-01T07:43:37Z</time>
      </trkpt>
      <trkpt lat="48.8436" lon="2.92094">
        <ele>58</ele>
        <time>2019-09-01T07:43:39Z</time>
      </trkpt>
      <trkpt lat="48.84357" lon="2.9206">
        <ele>57</ele>
        <time>2019-09-01T07:43:43Z</time>
      </trkpt>
      <trkpt lat="48.84353" lon="2.91941">
        <ele>56</ele>
        <time>2019-09-01T07:43:56Z</time>
      </trkpt>
      <trkpt lat="48.84353" lon="2.91932">
        <ele>56</ele>
        <time>2019-09-01T07:43:57Z</time>
      </trkpt>
      <trkpt lat="48.84357" lon="2.91848">
        <ele>56</ele>
        <time>2019-09-01T07:44:07Z</time>
      </trkpt>
      <trkpt lat="48.84359" lon="2.9178">
        <ele>55</ele>
        <time>2019-09-01T07:44:16Z</time>
      </trkpt>
      <trkpt lat="48.84361" lon="2.917">
        <ele>54</ele>
        <time>2019-09-01T07:44:26Z</time>
      </trkpt>
      <trkpt lat="48.84362" lon="2.91627">
        <ele>54</ele>
        <time>2019-09-01T07:44:36Z</time>
      </trkpt>
      <trkpt lat="48.84345" lon="2.91601">
        <ele>54</ele>
        <time>2019-09-01T07:44:42Z</time>
      </trkpt>
      <trkpt lat="48.84315" lon="2.91582">
        <ele>56</ele>
        <time>2019-09-01T07:44:49Z</time>
      </trkpt>
      <trkpt lat="48.84299" lon="2.91574">
        <ele>56</ele>
        <time>2019-09-01T07:44:53Z</time>
      </trkpt>
      <trkpt lat="48.84283" lon="2.91554">
        <ele>56</ele>
        <time>2019-09-01T07:44:59Z</time>
      </trkpt>
      <trkpt lat="48.84279" lon="2.91525">
        <ele>56</ele>
        <time>2019-09-01T07:45:03Z</time>
      </trkpt>
      <trkpt lat="48.84279" lon="2.91512">
        <ele>56</ele>
        <time>2019-09-01T07:45:05Z</time>
      </trkpt>
      <trkpt lat="48.84283" lon="2.91464">
        <ele>56</ele>
        <time>2019-09-01T07:45:12Z</time>
      </trkpt>
      <trkpt lat="48.84287" lon="2.91441">
        <ele>55</ele>
        <time>2019-09-01T07:45:16Z</time>
      </trkpt>
      <trkpt lat="48.84309" lon="2.91401">
        <ele>55</ele>
        <time>2019-09-01T07:45:27Z</time>
      </trkpt>
      <trkpt lat="48.84313" lon="2.914">
        <ele>55</ele>
        <time>2019-09-01T07:45:28Z</time>
      </trkpt>
      <trkpt lat="48.84365" lon="2.91414">
        <ele>54</ele>
        <time>2019-09-01T07:45:37Z</time>
      </trkpt>
      <trkpt lat="48.84382" lon="2.91406">
        <ele>54</ele>
        <time>2019-09-01T07:45:41Z</time>
      </trkpt>
      <trkpt lat="48.84403" lon="2.91381">
        <ele>54</ele>
        <time>2019-09-01T07:45:54Z</time>
      </trkpt>
      <trkpt lat="48.84434" lon="2.91381">
        <ele>52</ele>
        <time>2019-09-01T07:46:01Z</time>
      </trkpt>
      <trkpt lat="48.84448" lon="2.91349">
        <ele>52</ele>
        <time>2019-09-01T07:46:08Z</time>
      </trkpt>
      <trkpt lat="48.8444" lon="2.91294">
        <ele>53</ele>
        <time>2019-09-01T07:46:18Z</time>
      </trkpt>
      <trkpt lat="48.84432" lon="2.9129">
        <ele>53</ele>
        <time>2019-09-01T07:46:22Z</time>
      </trkpt>
      <trkpt lat="48.84396" lon="2.91301">
        <ele>55</ele>
        <time>2019-09-01T07:46:31Z</time>
      </trkpt>
      <trkpt lat="48.8438" lon="2.91308">
        <ele>55</ele>
        <time>2019-09-01T07:46:35Z</time>
      </trkpt>
      <trkpt lat="48.84371" lon="2.91309">
        <ele>55</ele>
        <time>2019-09-01T07:46:40Z</time>
      </trkpt>
      <trkpt lat="48.84329" lon="2.91317">
        <ele>56</ele>
        <time>2019-09-01T07:46:53Z</time>
      </trkpt>
      <trkpt lat="48.84287" lon="2.91316">
        <ele>57</ele>
        <time>2019-09-01T07:47:03Z</time>
      </trkpt>
      <trkpt lat="48.84262" lon="2.9132">
        <ele>57</ele>
        <time>2019-09-01T07:47:14Z</time>
      </trkpt>
      <trkpt lat="48.84261" lon="2.9132">
        <ele>57</ele>
        <time>2019-09-01T07:47:15Z</time>
      </trkpt>
      <trkpt lat="48.84267" lon="2.9127">
        <ele>57</ele>
        <time>2019-09-01T07:47:28Z</time>
      </trkpt>
      <trkpt lat="48.84276" lon="2.91192">
        <ele>54</ele>
        <time>2019-09-01T07:47:41Z</time>
      </trkpt>
      <trkpt lat="48.84259" lon="2.9117">
        <ele>53</ele>
        <time>2019-09-01T07:47:52Z</time>
      </trkpt>
      <trkpt lat="48.84221" lon="2.91145">
        <ele>53</ele>
        <time>2019-09-01T07:48:04Z</time>
      </trkpt>
      <trkpt lat="48.84208" lon="2.91139">
        <ele>53</ele>
        <time>2019-09-01T07:48:09Z</time>
      </trkpt>
      <trkpt lat="48.84196" lon="2.91164">
        <ele>53</ele>
        <time>2019-09-01T07:48:21Z</time>
      </trkpt>
      <trkpt lat="48.84197" lon="2.91206">
        <ele>56</ele>
        <time>2019-09-01T07:48:34Z</time>
      </trkpt>
      <trkpt lat="48.842" lon="2.91272">
        <ele>58</ele>
        <time>2019-09-01T07:48:46Z</time>
      </trkpt>
      <trkpt lat="48.84199" lon="2.91279">
        <ele>58</ele>
        <time>2019-09-01T07:48:47Z</time>
      </trkpt>
      <trkpt lat="48.84192" lon="2.91322">
        <ele>59</ele>
        <time>2019-09-01T07:48:54Z</time>
      </trkpt>
      <trkpt lat="48.84176" lon="2.91378">
        <ele>59</ele>
        <time>2019-09-01T07:49:06Z</time>
      </trkpt>
      <trkpt lat="48.84167" lon="2.91384">
        <ele>62</ele>
        <time>2019-09-01T07:49:09Z</time>
      </trkpt>
      <trkpt lat="48.84105" lon="2.9135">
        <ele>64</ele>
        <time>2019-09-01T07:49:23Z</time>
      </trkpt>
      <trkpt lat="48.84053" lon="2.91304">
        <ele>67</ele>
        <time>2019-09-01T07:49:37Z</time>
      </trkpt>
      <trkpt lat="48.8403" lon="2.91285">
        <ele>67</ele>
        <time>2019-09-01T07:49:48Z</time>
      </trkpt>
      <trkpt lat="48.84001" lon="2.91266">
        <ele>68</ele>
        <time>2019-09-01T07:50:02Z</time>
      </trkpt>
      <trkpt lat="48.83975" lon="2.91271">
        <ele>74</ele>
        <time>2019-09-01T07:50:15Z</time>
      </trkpt>
      <trkpt lat="48.83951" lon="2.9127">
        <ele>75</ele>
        <time>2019-09-01T07:50:27Z</time>
      </trkpt>
      <trkpt lat="48.83928" lon="2.91263">
        <ele>77</ele>
        <time>2019-09-01T07:50:42Z</time>
      </trkpt>
      <trkpt lat="48.8392" lon="2.9126">
        <ele>77</ele>
        <time>2019-09-01T07:50:48Z</time>
      </trkpt>
      <trkpt lat="48.83905" lon="2.91265">
        <ele>81</ele>
        <time>2019-09-01T07:50:58Z</time>
      </trkpt>
      <trkpt lat="48.83887" lon="2.91277">
        <ele>83</ele>
        <time>2019-09-01T07:51:10Z</time>
      </trkpt>
      <trkpt lat="48.83869" lon="2.91283">
        <ele>84</ele>
        <time>2019-09-01T07:51:22Z</time>
      </trkpt>
      <trkpt lat="48.83849" lon="2.91288">
        <ele>84</ele>
        <time>2019-09-01T07:51:33Z</time>
      </trkpt>
      <trkpt lat="48.83841" lon="2.91291">
        <ele>85</ele>
        <time>2019-09-01T07:51:38Z</time>
      </trkpt>
      <trkpt lat="48.83816" lon="2.9129">
        <ele>89</ele>
        <time>2019-09-01T07:51:52Z</time>
      </trkpt>
      <trkpt lat="48.83796" lon="2.91287">
        <ele>89</ele>
        <time>2019-09-01T07:52:02Z</time>
      </trkpt>
      <trkpt lat="48.83783" lon="2.91273">
        <ele>89</ele>
        <time>2019-09-01T07:52:08Z</time>
      </trkpt>
      <trkpt lat="48.83773" lon="2.9126">
        <ele>89</ele>
        <time>2019-09-01T07:52:12Z</time>
      </trkpt>
      <trkpt lat="48.83749" lon="2.91236">
        <ele>90</ele>
        <time>2019-09-01T07:52:19Z</time>
      </trkpt>
      <trkpt lat="48.83714" lon="2.912">
        <ele>90</ele>
        <time>2019-09-01T07:52:29Z</time>
      </trkpt>
      <trkpt lat="48.83711" lon="2.91196">
        <ele>90</ele>
        <time>2019-09-01T07:52:30Z</time>
      </trkpt>
      <trkpt lat="48.83699" lon="2.91182">
        <ele>90</ele>
        <time>2019-09-01T07:52:34Z</time>
      </trkpt>
      <trkpt lat="48.83679" lon="2.9116">
        <ele>89</ele>
        <time>2019-09-01T07:52:40Z</time>
      </trkpt>
      <trkpt lat="48.83665" lon="2.91149">
        <ele>90</ele>
        <time>2019-09-01T07:52:43Z</time>
      </trkpt>
      <trkpt lat="48.83649" lon="2.9113">
        <ele>90</ele>
        <time>2019-09-01T07:52:47Z</time>
      </trkpt>
      <trkpt lat="48.83632" lon="2.91111">
        <ele>89</ele>
        <time>2019-09-01T07:52:51Z</time>
      </trkpt>
      <trkpt lat="48.83594" lon="2.91079">
        <ele>87</ele>
        <time>2019-09-01T07:52:59Z</time>
      </trkpt>
      <trkpt lat="48.83548" lon="2.91061">
        <ele>87</ele>
        <time>2019-09-01T07:53:11Z</time>
      </trkpt>
      <trkpt lat="48.83508" lon="2.91048">
        <ele>88</ele>
        <time>2019-09-01T07:53:22Z</time>
      </trkpt>
      <trkpt lat="48.83486" lon="2.91045">
        <ele>89</ele>
        <time>2019-09-01T07:53:27Z</time>
      </trkpt>
      <trkpt lat="48.83463" lon="2.91041">
        <ele>89</ele>
        <time>2019-09-01T07:53:32Z</time>
      </trkpt>
      <trkpt lat="48.83429" lon="2.91035">
        <ele>89</ele>
        <time>2019-09-01T07:53:39Z</time>
      </trkpt>
      <trkpt lat="48.83406" lon="2.91037">
        <ele>89</ele>
        <time>2019-09-01T07:53:43Z</time>
      </trkpt>
      <trkpt lat="48.83387" lon="2.91039">
        <ele>89</ele>
        <time>2019-09-01T07:53:46Z</time>
      </trkpt>
      <trkpt lat="48.83327" lon="2.91033">
        <ele>85</ele>
        <time>2019-09-01T07:53:56Z</time>
      </trkpt>
      <trkpt lat="48.8331" lon="2.91036">
        <ele>85</ele>
        <time>2019-09-01T07:53:59Z</time>
      </trkpt>
      <trkpt lat="48.83253" lon="2.91055">
        <ele>85</ele>
        <time>2019-09-01T07:54:08Z</time>
      </trkpt>
      <trkpt lat="48.83175" lon="2.91063">
        <ele>83</ele>
        <time>2019-09-01T07:54:20Z</time>
      </trkpt>
      <trkpt lat="48.83095" lon="2.9105">
        <ele>79</ele>
        <time>2019-09-01T07:54:31Z</time>
      </trkpt>
      <trkpt lat="48.83077" lon="2.91044">
        <ele>77</ele>
        <time>2019-09-01T07:54:34Z</time>
      </trkpt>
      <trkpt lat="48.8307" lon="2.91024">
        <ele>75</ele>
        <time>2019-09-01T07:54:37Z</time>
      </trkpt>
      <trkpt lat="48.83071" lon="2.90997">
        <ele>70</ele>
        <time>2019-09-01T07:54:41Z</time>
      </trkpt>
      <trkpt lat="48.83085" lon="2.90946">
        <ele>68</ele>
        <time>2019-09-01T07:54:49Z</time>
      </trkpt>
      <trkpt lat="48.83108" lon="2.90922">
        <ele>67</ele>
        <time>2019-09-01T07:54:53Z</time>
      </trkpt>
      <trkpt lat="48.83115" lon="2.90906">
        <ele>63</ele>
        <time>2019-09-01T07:54:56Z</time>
      </trkpt>
      <trkpt lat="48.83084" lon="2.909">
        <ele>63</ele>
        <time>2019-09-01T07:55:02Z</time>
      </trkpt>
      <trkpt lat="48.83078" lon="2.90903">
        <ele>62</ele>
        <time>2019-09-01T07:55:03Z</time>
      </trkpt>
      <trkpt lat="48.83034" lon="2.90928">
        <ele>65</ele>
        <time>2019-09-01T07:55:09Z</time>
      </trkpt>
      <trkpt lat="48.83018" lon="2.90943">
        <ele>65</ele>
        <time>2019-09-01T07:55:15Z</time>
      </trkpt>
      <trkpt lat="48.83018" lon="2.90949">
        <ele>66</ele>
        <time>2019-09-01T07:55:18Z</time>
      </trkpt>
      <trkpt lat="48.83002" lon="2.90995">
        <ele>69</ele>
        <time>2019-09-01T07:55:35Z</time>
      </trkpt>
      <trkpt lat="48.82979" lon="2.91005">
        <ele>72</ele>
        <time>2019-09-01T07:55:41Z</time>
      </trkpt>
      <trkpt lat="48.82913" lon="2.91023">
        <ele>69</ele>
        <time>2019-09-01T07:55:55Z</time>
      </trkpt>
      <trkpt lat="48.82825" lon="2.91046">
        <ele>67</ele>
        <time>2019-09-01T07:56:11Z</time>
      </trkpt>
      <trkpt lat="48.82805" lon="2.91051">
        <ele>67</ele>
        <time>2019-09-01T07:56:14Z</time>
      </trkpt>
      <trkpt lat="48.8273" lon="2.9108">
        <ele>65</ele>
        <time>2019-09-01T07:56:26Z</time>
      </trkpt>
      <trkpt lat="48.8264" lon="2.91113">
        <ele>65</ele>
        <time>2019-09-01T07:56:41Z</time>
      </trkpt>
      <trkpt lat="48.82544" lon="2.91149">
        <ele>61</ele>
        <time>2019-09-01T07:56:56Z</time>
      </trkpt>
      <trkpt lat="48.82505" lon="2.91166">
        <ele>61</ele>
        <time>2019-09-01T07:57:02Z</time>
      </trkpt>
      <trkpt lat="48.82465" lon="2.9121">
        <ele>59</ele>
        <time>2019-09-01T07:57:10Z</time>
      </trkpt>
      <trkpt lat="48.82449" lon="2.91297">
        <ele>58</ele>
        <time>2019-09-01T07:57:21Z</time>
      </trkpt>
      <trkpt lat="48.82448" lon="2.9136">
        <ele>58</ele>
        <time>2019-09-01T07:57:28Z</time>
      </trkpt>
      <trkpt lat="48.82507" lon="2.91559">
        <ele>64</ele>
        <time>2019-09-01T07:57:42Z</time>
      </trkpt>
      <trkpt lat="48.82506" lon="2.91588">
        <ele>58</ele>
        <time>2019-09-01T07:57:45Z</time>
      </trkpt>
      <trkpt lat="48.82518" lon="2.91649">
        <ele>61</ele>
        <time>2019-09-01T07:57:52Z</time>
      </trkpt>
      <trkpt lat="48.82547" lon="2.91719">
        <ele>61</ele>
        <time>2019-09-01T07:58:01Z</time>
      </trkpt>
      <trkpt lat="48.82557" lon="2.91813">
        <ele>60</ele>
        <time>2019-09-01T07:58:11Z</time>
      </trkpt>
      <trkpt lat="48.8256" lon="2.91847">
        <ele>59</ele>
        <time>2019-09-01T07:58:15Z</time>
      </trkpt>
      <trkpt lat="48.82564" lon="2.91881">
        <ele>59</ele>
        <time>2019-09-01T07:58:19Z</time>
      </trkpt>
      <trkpt lat="48.82574" lon="2.91909">
        <ele>60</ele>
        <time>2019-09-01T07:58:24Z</time>
      </trkpt>
      <trkpt lat="48.82583" lon="2.91926">
        <ele>60</ele>
        <time>2019-09-01T07:58:28Z</time>
      </trkpt>
      <trkpt lat="48.82585" lon="2.91978">
        <ele>65</ele>
        <time>2019-09-01T07:58:35Z</time>
      </trkpt>
      <trkpt lat="48.82585" lon="2.92057">
        <ele>64</ele>
        <time>2019-09-01T07:58:44Z</time>
      </trkpt>
      <trkpt lat="48.82581" lon="2.92079">
        <ele>59</ele>
        <time>2019-09-01T07:58:47Z</time>
      </trkpt>
      <trkpt lat="48.82558" lon="2.92178">
        <ele>57</ele>
        <time>2019-09-01T07:59:02Z</time>
      </trkpt>
      <trkpt lat="48.82553" lon="2.92296">
        <ele>57</ele>
        <time>2019-09-01T07:59:19Z</time>
      </trkpt>
      <trkpt lat="48.82555" lon="2.92404">
        <ele>58</ele>
        <time>2019-09-01T07:59:34Z</time>
      </trkpt>
      <trkpt lat="48.82551" lon="2.92497">
        <ele>58</ele>
        <time>2019-09-01T07:59:46Z</time>
      </trkpt>
      <trkpt lat="48.82545" lon="2.9254">
        <ele>57</ele>
        <time>2019-09-01T07:59:52Z</time>
      </trkpt>
      <trkpt lat="48.82523" lon="2.92631">
        <ele>57</ele>
        <time>2019-09-01T08:00:07Z</time>
      </trkpt>
      <trkpt lat="48.82522" lon="2.92637">
        <ele>57</ele>
        <time>2019-09-01T08:00:08Z</time>
      </trkpt>
      <trkpt lat="48.8251" lon="2.92727">
        <ele>56</ele>
        <time>2019-09-01T08:00:20Z</time>
      </trkpt>
      <trkpt lat="48.82485" lon="2.92796">
        <ele>54</ele>
        <time>2019-09-01T08:00:30Z</time>
      </trkpt>
      <trkpt lat="48.82467" lon="2.92851">
        <ele>54</ele>
        <time>2019-09-01T08:00:38Z</time>
      </trkpt>
      <trkpt lat="48.82421" lon="2.92942">
        <ele>53</ele>
        <time>2019-09-01T08:00:53Z</time>
      </trkpt>
      <trkpt lat="48.82386" lon="2.93013">
        <ele>53</ele>
        <time>2019-09-01T08:01:05Z</time>
      </trkpt>
      <trkpt lat="48.82355" lon="2.9309">
        <ele>54</ele>
        <time>2019-09-01T08:01:18Z</time>
      </trkpt>
      <trkpt lat="48.82307" lon="2.93183">
        <ele>57</ele>
        <time>2019-09-01T08:01:33Z</time>
      </trkpt>
      <trkpt lat="48.82276" lon="2.93245">
        <ele>58</ele>
        <time>2019-09-01T08:01:45Z</time>
      </trkpt>
      <trkpt lat="48.82258" lon="2.93301">
        <ele>62</ele>
        <time>2019-09-01T08:01:57Z</time>
      </trkpt>
      <trkpt lat="48.82256" lon="2.93314">
        <ele>63</ele>
        <time>2019-09-01T08:02:02Z</time>
      </trkpt>
      <trkpt lat="48.82266" lon="2.93316">
        <ele>62</ele>
        <time>2019-09-01T08:02:09Z</time>
      </trkpt>
      <trkpt lat="48.82296" lon="2.93306">
        <ele>61</ele>
        <time>2019-09-01T08:02:24Z</time>
      </trkpt>
      <trkpt lat="48.8232" lon="2.93318">
        <ele>61</ele>
        <time>2019-09-01T08:02:39Z</time>
      </trkpt>
      <trkpt lat="48.82362" lon="2.93315">
        <ele>61</ele>
        <time>2019-09-01T08:02:54Z</time>
      </trkpt>
      <trkpt lat="48.82398" lon="2.93314">
        <ele>62</ele>
        <time>2019-09-01T08:03:09Z</time>
      </trkpt>
      <trkpt lat="48.82425" lon="2.93346">
        <ele>67</ele>
        <time>2019-09-01T08:03:26Z</time>
      </trkpt>
      <trkpt lat="48.82453" lon="2.93381">
        <ele>70</ele>
        <time>2019-09-01T08:03:42Z</time>
      </trkpt>
      <trkpt lat="48.82467" lon="2.93401">
        <ele>72</ele>
        <time>2019-09-01T08:03:53Z</time>
      </trkpt>
      <trkpt lat="48.82479" lon="2.93416">
        <ele>73</ele>
        <time>2019-09-01T08:04:04Z</time>
      </trkpt>
      <trkpt lat="48.82517" lon="2.93416">
        <ele>78</ele>
        <time>2019-09-01T08:04:20Z</time>
      </trkpt>
      <trkpt lat="48.82548" lon="2.93391">
        <ele>80</ele>
        <time>2019-09-01T08:04:30Z</time>
      </trkpt>
      <trkpt lat="48.82572" lon="2.93347">
        <ele>80</ele>
        <time>2019-09-01T08:04:41Z</time>
      </trkpt>
      <trkpt lat="48.82594" lon="2.93283">
        <ele>79</ele>
        <time>2019-09-01T08:04:52Z</time>
      </trkpt>
      <trkpt lat="48.82601" lon="2.9326">
        <ele>78</ele>
        <time>2019-09-01T08:05:00Z</time>
      </trkpt>
      <trkpt lat="48.82621" lon="2.93204">
        <ele>77</ele>
        <time>2019-09-01T08:05:10Z</time>
      </trkpt>
      <trkpt lat="48.82639" lon="2.93142">
        <ele>75</ele>
        <time>2019-09-01T08:05:24Z</time>
      </trkpt>
      <trkpt lat="48.82646" lon="2.93066">
        <ele>74</ele>
        <time>2019-09-01T08:05:35Z</time>
      </trkpt>
      <trkpt lat="48.82655" lon="2.93011">
        <ele>75</ele>
        <time>2019-09-01T08:05:46Z</time>
      </trkpt>
      <trkpt lat="48.82671" lon="2.92949">
        <ele>80</ele>
        <time>2019-09-01T08:05:57Z</time>
      </trkpt>
      <trkpt lat="48.82689" lon="2.92893">
        <ele>80</ele>
        <time>2019-09-01T08:06:11Z</time>
      </trkpt>
      <trkpt lat="48.82699" lon="2.92837">
        <ele>80</ele>
        <time>2019-09-01T08:06:22Z</time>
      </trkpt>
      <trkpt lat="48.82701" lon="2.92826">
        <ele>79</ele>
        <time>2019-09-01T08:06:27Z</time>
      </trkpt>
      <trkpt lat="48.82705" lon="2.92829">
        <ele>79</ele>
        <time>2019-09-01T08:06:40Z</time>
      </trkpt>
      <trkpt lat="48.82704" lon="2.92829">
        <ele>79</ele>
        <time>2019-09-01T08:07:06Z</time>
      </trkpt>
      <trkpt lat="48.82704" lon="2.92829">
        <ele>79</ele>
        <time>2019-09-01T08:07:22Z</time>
      </trkpt>
      <trkpt lat="48.82704" lon="2.92829">
        <ele>79</ele>
        <time>2019-09-01T08:07:23Z</time>
      </trkpt>
      <trkpt lat="48.82704" lon="2.92824">
        <ele>79</ele>
        <time>2019-09-01T08:07:35Z</time>
      </trkpt>
      <trkpt lat="48.82704" lon="2.92825">
        <ele>79</ele>
        <time>2019-09-01T08:07:57Z</time>
      </trkpt>
      <trkpt lat="48.82704" lon="2.92824">
        <ele>79</ele>
        <time>2019-09-01T08:08:16Z</time>
      </trkpt>
      <trkpt lat="48.82724" lon="2.92811">
        <ele>81</ele>
        <time>2019-09-01T08:08:29Z</time>
      </trkpt>
      <trkpt lat="48.82744" lon="2.92785">
        <ele>81</ele>
        <time>2019-09-01T08:08:40Z</time>
      </trkpt>
      <trkpt lat="48.8277" lon="2.9278">
        <ele>89</ele>
        <time>2019-09-01T08:08:54Z</time>
      </trkpt>
      <trkpt lat="48.82771" lon="2.92777">
        <ele>89</ele>
        <time>2019-09-01T08:08:56Z</time>
      </trkpt>
      <trkpt lat="48.82775" lon="2.92773">
        <ele>89</ele>
        <time>2019-09-01T08:09:00Z</time>
      </trkpt>
      <trkpt lat="48.82797" lon="2.92772">
        <ele>91</ele>
        <time>2019-09-01T08:09:13Z</time>
      </trkpt>
      <trkpt lat="48.82819" lon="2.92773">
        <ele>92</ele>
        <time>2019-09-01T08:09:27Z</time>
      </trkpt>
      <trkpt lat="48.82841" lon="2.92761">
        <ele>97</ele>
        <time>2019-09-01T08:09:43Z</time>
      </trkpt>
      <trkpt lat="48.82859" lon="2.92748">
        <ele>98</ele>
        <time>2019-09-01T08:09:59Z</time>
      </trkpt>
      <trkpt lat="48.82892" lon="2.92741">
        <ele>100</ele>
        <time>2019-09-01T08:10:15Z</time>
      </trkpt>
      <trkpt lat="48.82921" lon="2.92734">
        <ele>104</ele>
        <time>2019-09-01T08:10:32Z</time>
      </trkpt>
      <trkpt lat="48.82949" lon="2.92726">
        <ele>106</ele>
        <time>2019-09-01T08:10:48Z</time>
      </trkpt>
      <trkpt lat="48.82987" lon="2.92731">
        <ele>108</ele>
        <time>2019-09-01T08:11:04Z</time>
      </trkpt>
      <trkpt lat="48.83011" lon="2.92727">
        <ele>111</ele>
        <time>2019-09-01T08:11:17Z</time>
      </trkpt>
      <trkpt lat="48.83018" lon="2.92725">
        <ele>112</ele>
        <time>2019-09-01T08:11:22Z</time>
      </trkpt>
      <trkpt lat="48.83025" lon="2.92743">
        <ele>112</ele>
        <time>2019-09-01T08:11:29Z</time>
      </trkpt>
      <trkpt lat="48.83041" lon="2.92804">
        <ele>113</ele>
        <time>2019-09-01T08:11:44Z</time>
      </trkpt>
      <trkpt lat="48.83052" lon="2.92878">
        <ele>114</ele>
        <time>2019-09-01T08:11:59Z</time>
      </trkpt>
      <trkpt lat="48.83057" lon="2.92897">
        <ele>115</ele>
        <time>2019-09-01T08:12:03Z</time>
      </trkpt>
      <trkpt lat="48.83067" lon="2.92907">
        <ele>116</ele>
        <time>2019-09-01T08:12:08Z</time>
      </trkpt>
      <trkpt lat="48.83109" lon="2.92915">
        <ele>119</ele>
        <time>2019-09-01T08:12:25Z</time>
      </trkpt>
      <trkpt lat="48.83136" lon="2.92919">
        <ele>120</ele>
        <time>2019-09-01T08:12:38Z</time>
      </trkpt>
      <trkpt lat="48.83136" lon="2.92961">
        <ele>120</ele>
        <time>2019-09-01T08:12:47Z</time>
      </trkpt>
      <trkpt lat="48.83117" lon="2.93011">
        <ele>120</ele>
        <time>2019-09-01T08:12:58Z</time>
      </trkpt>
      <trkpt lat="48.83115" lon="2.93017">
        <ele>120</ele>
        <time>2019-09-01T08:12:59Z</time>
      </trkpt>
      <trkpt lat="48.83114" lon="2.93046">
        <ele>120</ele>
        <time>2019-09-01T08:13:04Z</time>
      </trkpt>
      <trkpt lat="48.83108" lon="2.93096">
        <ele>121</ele>
        <time>2019-09-01T08:13:14Z</time>
      </trkpt>
      <trkpt lat="48.83105" lon="2.93107">
        <ele>121</ele>
        <time>2019-09-01T08:13:16Z</time>
      </trkpt>
      <trkpt lat="48.83101" lon="2.9313">
        <ele>121</ele>
        <time>2019-09-01T08:13:20Z</time>
      </trkpt>
      <trkpt lat="48.83094" lon="2.93205">
        <ele>122</ele>
        <time>2019-09-01T08:13:34Z</time>
      </trkpt>
      <trkpt lat="48.83091" lon="2.9323">
        <ele>122</ele>
        <time>2019-09-01T08:13:39Z</time>
      </trkpt>
      <trkpt lat="48.83087" lon="2.93275">
        <ele>123</ele>
        <time>2019-09-01T08:13:48Z</time>
      </trkpt>
      <trkpt lat="48.83087" lon="2.93292">
        <ele>124</ele>
        <time>2019-09-01T08:13:51Z</time>
      </trkpt>
      <trkpt lat="48.8309" lon="2.93305">
        <ele>124</ele>
        <time>2019-09-01T08:13:53Z</time>
      </trkpt>
      <trkpt lat="48.83093" lon="2.93318">
        <ele>124</ele>
        <time>2019-09-01T08:13:55Z</time>
      </trkpt>
      <trkpt lat="48.8311" lon="2.93399">
        <ele>125</ele>
        <time>2019-09-01T08:14:10Z</time>
      </trkpt>
      <trkpt lat="48.83064" lon="2.93386">
        <ele>121</ele>
        <time>2019-09-01T08:14:19Z</time>
      </trkpt>
      <trkpt lat="48.83044" lon="2.93376">
        <ele>120</ele>
        <time>2019-09-01T08:14:24Z</time>
      </trkpt>
      <trkpt lat="48.83038" lon="2.93378">
        <ele>120</ele>
        <time>2019-09-01T08:14:26Z</time>
      </trkpt>
      <trkpt lat="48.8302" lon="2.93419">
        <ele>120</ele>
        <time>2019-09-01T08:14:36Z</time>
      </trkpt>
      <trkpt lat="48.83014" lon="2.93443">
        <ele>121</ele>
        <time>2019-09-01T08:14:40Z</time>
      </trkpt>
      <trkpt lat="48.82995" lon="2.93457">
        <ele>116</ele>
        <time>2019-09-01T08:14:47Z</time>
      </trkpt>
      <trkpt lat="48.82976" lon="2.93456">
        <ele>115</ele>
        <time>2019-09-01T08:14:51Z</time>
      </trkpt>
      <trkpt lat="48.82919" lon="2.9348">
        <ele>112</ele>
        <time>2019-09-01T08:15:02Z</time>
      </trkpt>
      <trkpt lat="48.82909" lon="2.93484">
        <ele>108</ele>
        <time>2019-09-01T08:15:04Z</time>
      </trkpt>
      <trkpt lat="48.82879" lon="2.93474">
        <ele>106</ele>
        <time>2019-09-01T08:15:09Z</time>
      </trkpt>
      <trkpt lat="48.82835" lon="2.93477">
        <ele>104</ele>
        <time>2019-09-01T08:15:16Z</time>
      </trkpt>
      <trkpt lat="48.82791" lon="2.935">
        <ele>100</ele>
        <time>2019-09-01T08:15:23Z</time>
      </trkpt>
      <trkpt lat="48.8276" lon="2.93575">
        <ele>100</ele>
        <time>2019-09-01T08:15:34Z</time>
      </trkpt>
      <trkpt lat="48.82735" lon="2.93594">
        <ele>99</ele>
        <time>2019-09-01T08:15:39Z</time>
      </trkpt>
      <trkpt lat="48.82722" lon="2.93603">
        <ele>99</ele>
        <time>2019-09-01T08:15:42Z</time>
      </trkpt>
      <trkpt lat="48.82696" lon="2.9362">
        <ele>98</ele>
        <time>2019-09-01T08:15:47Z</time>
      </trkpt>
      <trkpt lat="48.82638" lon="2.93619">
        <ele>96</ele>
        <time>2019-09-01T08:15:56Z</time>
      </trkpt>
      <trkpt lat="48.82573" lon="2.93572">
        <ele>90</ele>
        <time>2019-09-01T08:16:07Z</time>
      </trkpt>
      <trkpt lat="48.82518" lon="2.9357">
        <ele>89</ele>
        <time>2019-09-01T08:16:21Z</time>
      </trkpt>
      <trkpt lat="48.82507" lon="2.93647">
        <ele>95</ele>
        <time>2019-09-01T08:16:36Z</time>
      </trkpt>
      <trkpt lat="48.82487" lon="2.93704">
        <ele>97</ele>
        <time>2019-09-01T08:16:48Z</time>
      </trkpt>
      <trkpt lat="48.82476" lon="2.9375">
        <ele>98</ele>
        <time>2019-09-01T08:16:58Z</time>
      </trkpt>
      <trkpt lat="48.82443" lon="2.93728">
        <ele>97</ele>
        <time>2019-09-01T08:17:08Z</time>
      </trkpt>
      <trkpt lat="48.82401" lon="2.93692">
        <ele>93</ele>
        <time>2019-09-01T08:17:19Z</time>
      </trkpt>
      <trkpt lat="48.82399" lon="2.93691">
        <ele>93</ele>
        <time>2019-09-01T08:17:20Z</time>
      </trkpt>
      <trkpt lat="48.82386" lon="2.93698">
        <ele>92</ele>
        <time>2019-09-01T08:17:26Z</time>
      </trkpt>
      <trkpt lat="48.82387" lon="2.93714">
        <ele>93</ele>
        <time>2019-09-01T08:17:30Z</time>
      </trkpt>
      <trkpt lat="48.82389" lon="2.93732">
        <ele>93</ele>
        <time>2019-09-01T08:17:33Z</time>
      </trkpt>
      <trkpt lat="48.82374" lon="2.93764">
        <ele>95</ele>
        <time>2019-09-01T08:17:41Z</time>
      </trkpt>
      <trkpt lat="48.82348" lon="2.93754">
        <ele>92</ele>
        <time>2019-09-01T08:17:49Z</time>
      </trkpt>
      <trkpt lat="48.82314" lon="2.93775">
        <ele>90</ele>
        <time>2019-09-01T08:17:59Z</time>
      </trkpt>
      <trkpt lat="48.82281" lon="2.93796">
        <ele>90</ele>
        <time>2019-09-01T08:18:09Z</time>
      </trkpt>
      <trkpt lat="48.82266" lon="2.9382">
        <ele>90</ele>
        <time>2019-09-01T08:18:18Z</time>
      </trkpt>
      <trkpt lat="48.82239" lon="2.9387">
        <ele>90</ele>
        <time>2019-09-01T08:18:33Z</time>
      </trkpt>
      <trkpt lat="48.82223" lon="2.93858">
        <ele>89</ele>
        <time>2019-09-01T08:18:38Z</time>
      </trkpt>
      <trkpt lat="48.82198" lon="2.93821">
        <ele>86</ele>
        <time>2019-09-01T08:18:44Z</time>
      </trkpt>
      <trkpt lat="48.8216" lon="2.93753">
        <ele>81</ele>
        <time>2019-09-01T08:18:57Z</time>
      </trkpt>
      <trkpt lat="48.8215" lon="2.93725">
        <ele>78</ele>
        <time>2019-09-01T08:19:02Z</time>
      </trkpt>
      <trkpt lat="48.8214" lon="2.93699">
        <ele>77</ele>
        <time>2019-09-01T08:19:06Z</time>
      </trkpt>
      <trkpt lat="48.82128" lon="2.93629">
        <ele>72</ele>
        <time>2019-09-01T08:19:15Z</time>
      </trkpt>
      <trkpt lat="48.8214" lon="2.93464">
        <ele>63</ele>
        <time>2019-09-01T08:19:32Z</time>
      </trkpt>
      <trkpt lat="48.82151" lon="2.93412">
        <ele>61</ele>
        <time>2019-09-01T08:19:37Z</time>
      </trkpt>
      <trkpt lat="48.82154" lon="2.93393">
        <ele>61</ele>
        <time>2019-09-01T08:19:39Z</time>
      </trkpt>
      <trkpt lat="48.82151" lon="2.93354">
        <ele>61</ele>
        <time>2019-09-01T08:19:45Z</time>
      </trkpt>
      <trkpt lat="48.82136" lon="2.9333">
        <ele>60</ele>
        <time>2019-09-01T08:19:49Z</time>
      </trkpt>
      <trkpt lat="48.82073" lon="2.93235">
        <ele>60</ele>
        <time>2019-09-01T08:20:04Z</time>
      </trkpt>
      <trkpt lat="48.82048" lon="2.93216">
        <ele>60</ele>
        <time>2019-09-01T08:20:14Z</time>
      </trkpt>
      <trkpt lat="48.8204" lon="2.93202">
        <ele>60</ele>
        <time>2019-09-01T08:20:25Z</time>
      </trkpt>
      <trkpt lat="48.82033" lon="2.93195">
        <ele>61</ele>
        <time>2019-09-01T08:20:39Z</time>
      </trkpt>
      <trkpt lat="48.81993" lon="2.93227">
        <ele>63</ele>
        <time>2019-09-01T08:20:50Z</time>
      </trkpt>
      <trkpt lat="48.81959" lon="2.93262">
        <ele>61</ele>
        <time>2019-09-01T08:21:01Z</time>
      </trkpt>
      <trkpt lat="48.81918" lon="2.93277">
        <ele>62</ele>
        <time>2019-09-01T08:21:13Z</time>
      </trkpt>
      <trkpt lat="48.8191" lon="2.93279">
        <ele>65</ele>
        <time>2019-09-01T08:21:16Z</time>
      </trkpt>
      <trkpt lat="48.81901" lon="2.93287">
        <ele>65</ele>
        <time>2019-09-01T08:21:20Z</time>
      </trkpt>
      <trkpt lat="48.8187" lon="2.93315">
        <ele>65</ele>
        <time>2019-09-01T08:21:34Z</time>
      </trkpt>
      <trkpt lat="48.81846" lon="2.93342">
        <ele>64</ele>
        <time>2019-09-01T08:21:45Z</time>
      </trkpt>
      <trkpt lat="48.81814" lon="2.93366">
        <ele>66</ele>
        <time>2019-09-01T08:21:57Z</time>
      </trkpt>
      <trkpt lat="48.81782" lon="2.93379">
        <ele>66</ele>
        <time>2019-09-01T08:22:09Z</time>
      </trkpt>
      <trkpt lat="48.81746" lon="2.9339">
        <ele>70</ele>
        <time>2019-09-01T08:22:24Z</time>
      </trkpt>
      <trkpt lat="48.81725" lon="2.93396">
        <ele>70</ele>
        <time>2019-09-01T08:22:36Z</time>
      </trkpt>
      <trkpt lat="48.81703" lon="2.93381">
        <ele>72</ele>
        <time>2019-09-01T08:22:48Z</time>
      </trkpt>
      <trkpt lat="48.81687" lon="2.93372">
        <ele>73</ele>
        <time>2019-09-01T08:22:59Z</time>
      </trkpt>
      <trkpt lat="48.81669" lon="2.93358">
        <ele>74</ele>
        <time>2019-09-01T08:23:11Z</time>
      </trkpt>
      <trkpt lat="48.81668" lon="2.93358">
        <ele>74</ele>
        <time>2019-09-01T08:23:12Z</time>
      </trkpt>
      <trkpt lat="48.81654" lon="2.93349">
        <ele>78</ele>
        <time>2019-09-01T08:23:24Z</time>
      </trkpt>
      <trkpt lat="48.81635" lon="2.93349">
        <ele>79</ele>
        <time>2019-09-01T08:23:35Z</time>
      </trkpt>
      <trkpt lat="48.8161" lon="2.93359">
        <ele>81</ele>
        <time>2019-09-01T08:23:48Z</time>
      </trkpt>
      <trkpt lat="48.81575" lon="2.93377">
        <ele>87</ele>
        <time>2019-09-01T08:24:07Z</time>
      </trkpt>
      <trkpt lat="48.81554" lon="2.93386">
        <ele>88</ele>
        <time>2019-09-01T08:24:21Z</time>
      </trkpt>
      <trkpt lat="48.81529" lon="2.93391">
        <ele>89</ele>
        <time>2019-09-01T08:24:33Z</time>
      </trkpt>
      <trkpt lat="48.81509" lon="2.93402">
        <ele>89</ele>
        <time>2019-09-01T08:24:45Z</time>
      </trkpt>
      <trkpt lat="48.81497" lon="2.93406">
        <ele>92</ele>
        <time>2019-09-01T08:24:54Z</time>
      </trkpt>
      <trkpt lat="48.81475" lon="2.93395">
        <ele>95</ele>
        <time>2019-09-01T08:25:09Z</time>
      </trkpt>
      <trkpt lat="48.81466" lon="2.93385">
        <ele>96</ele>
        <time>2019-09-01T08:25:24Z</time>
      </trkpt>
      <trkpt lat="48.81466" lon="2.93386">
        <ele>96</ele>
        <time>2019-09-01T08:25:44Z</time>
      </trkpt>
      <trkpt lat="48.81454" lon="2.93386">
        <ele>96</ele>
        <time>2019-09-01T08:26:00Z</time>
      </trkpt>
      <trkpt lat="48.81427" lon="2.93376">
        <ele>98</ele>
        <time>2019-09-01T08:26:16Z</time>
      </trkpt>
      <trkpt lat="48.81407" lon="2.93349">
        <ele>103</ele>
        <time>2019-09-01T08:26:34Z</time>
      </trkpt>
      <trkpt lat="48.81389" lon="2.93324">
        <ele>105</ele>
        <time>2019-09-01T08:26:51Z</time>
      </trkpt>
      <trkpt lat="48.8138" lon="2.93289">
        <ele>106</ele>
        <time>2019-09-01T08:27:08Z</time>
      </trkpt>
      <trkpt lat="48.81368" lon="2.93255">
        <ele>107</ele>
        <time>2019-09-01T08:27:22Z</time>
      </trkpt>
      <trkpt lat="48.81348" lon="2.93247">
        <ele>108</ele>
        <time>2019-09-01T08:27:35Z</time>
      </trkpt>
      <trkpt lat="48.81328" lon="2.93256">
        <ele>110</ele>
        <time>2019-09-01T08:27:49Z</time>
      </trkpt>
      <trkpt lat="48.81309" lon="2.93265">
        <ele>112</ele>
        <time>2019-09-01T08:28:05Z</time>
      </trkpt>
      <trkpt lat="48.81289" lon="2.93273">
        <ele>114</ele>
        <time>2019-09-01T08:28:16Z</time>
      </trkpt>
      <trkpt lat="48.8128" lon="2.93234">
        <ele>114</ele>
        <time>2019-09-01T08:28:28Z</time>
      </trkpt>
      <trkpt lat="48.81252" lon="2.93194">
        <ele>114</ele>
        <time>2019-09-01T08:28:42Z</time>
      </trkpt>
      <trkpt lat="48.81206" lon="2.93177">
        <ele>120</ele>
        <time>2019-09-01T08:28:56Z</time>
      </trkpt>
      <trkpt lat="48.81174" lon="2.9317">
        <ele>122</ele>
        <time>2019-09-01T08:29:09Z</time>
      </trkpt>
      <trkpt lat="48.81139" lon="2.93138">
        <ele>122</ele>
        <time>2019-09-01T08:29:22Z</time>
      </trkpt>
      <trkpt lat="48.811" lon="2.93114">
        <ele>123</ele>
        <time>2019-09-01T08:29:36Z</time>
      </trkpt>
      <trkpt lat="48.81055" lon="2.93104">
        <ele>125</ele>
        <time>2019-09-01T08:29:52Z</time>
      </trkpt>
      <trkpt lat="48.81019" lon="2.93098">
        <ele>126</ele>
        <time>2019-09-01T08:30:04Z</time>
      </trkpt>
      <trkpt lat="48.8097" lon="2.93078">
        <ele>126</ele>
        <time>2019-09-01T08:30:18Z</time>
      </trkpt>
      <trkpt lat="48.80924" lon="2.93072">
        <ele>127</ele>
        <time>2019-09-01T08:30:30Z</time>
      </trkpt>
      <trkpt lat="48.80887" lon="2.93069">
        <ele>127</ele>
        <time>2019-09-01T08:30:39Z</time>
      </trkpt>
      <trkpt lat="48.80851" lon="2.93061">
        <ele>127</ele>
        <time>2019-09-01T08:30:47Z</time>
      </trkpt>
      <trkpt lat="48.80823" lon="2.93056">
        <ele>126</ele>
        <time>2019-09-01T08:30:54Z</time>
      </trkpt>
      <trkpt lat="48.80817" lon="2.93036">
        <ele>125</ele>
        <time>2019-09-01T08:30:58Z</time>
      </trkpt>
      <trkpt lat="48.80829" lon="2.92944">
        <ele>123</ele>
        <time>2019-09-01T08:31:07Z</time>
      </trkpt>
      <trkpt lat="48.80836" lon="2.92831">
        <ele>114</ele>
        <time>2019-09-01T08:31:17Z</time>
      </trkpt>
      <trkpt lat="48.80836" lon="2.92788">
        <ele>111</ele>
        <time>2019-09-01T08:31:21Z</time>
      </trkpt>
      <trkpt lat="48.80849" lon="2.92696">
        <ele>105</ele>
        <time>2019-09-01T08:31:32Z</time>
      </trkpt>
      <trkpt lat="48.8086" lon="2.92575">
        <ele>100</ele>
        <time>2019-09-01T08:31:43Z</time>
      </trkpt>
      <trkpt lat="48.8086" lon="2.92537">
        <ele>99</ele>
        <time>2019-09-01T08:31:47Z</time>
      </trkpt>
      <trkpt lat="48.80857" lon="2.92399">
        <ele>95</ele>
        <time>2019-09-01T08:32:01Z</time>
      </trkpt>
      <trkpt lat="48.80856" lon="2.9239">
        <ele>95</ele>
        <time>2019-09-01T08:32:02Z</time>
      </trkpt>
      <trkpt lat="48.80838" lon="2.92351">
        <ele>95</ele>
        <time>2019-09-01T08:32:11Z</time>
      </trkpt>
      <trkpt lat="48.80805" lon="2.92324">
        <ele>96</ele>
        <time>2019-09-01T08:32:23Z</time>
      </trkpt>
      <trkpt lat="48.80771" lon="2.92278">
        <ele>96</ele>
        <time>2019-09-01T08:32:36Z</time>
      </trkpt>
      <trkpt lat="48.8075" lon="2.92253">
        <ele>97</ele>
        <time>2019-09-01T08:32:44Z</time>
      </trkpt>
      <trkpt lat="48.80712" lon="2.92208">
        <ele>99</ele>
        <time>2019-09-01T08:32:56Z</time>
      </trkpt>
      <trkpt lat="48.80684" lon="2.92171">
        <ele>100</ele>
        <time>2019-09-01T08:33:06Z</time>
      </trkpt>
      <trkpt lat="48.80646" lon="2.92128">
        <ele>104</ele>
        <time>2019-09-01T08:33:19Z</time>
      </trkpt>
      <trkpt lat="48.8061" lon="2.92074">
        <ele>101</ele>
        <time>2019-09-01T08:33:35Z</time>
      </trkpt>
      <trkpt lat="48.80576" lon="2.92072">
        <ele>106</ele>
        <time>2019-09-01T08:33:51Z</time>
      </trkpt>
      <trkpt lat="48.80545" lon="2.9208">
        <ele>108</ele>
        <time>2019-09-01T08:34:07Z</time>
      </trkpt>
      <trkpt lat="48.80528" lon="2.92088">
        <ele>115</ele>
        <time>2019-09-01T08:34:21Z</time>
      </trkpt>
      <trkpt lat="48.80503" lon="2.92098">
        <ele>116</ele>
        <time>2019-09-01T08:34:38Z</time>
      </trkpt>
      <trkpt lat="48.80484" lon="2.92104">
        <ele>120</ele>
        <time>2019-09-01T08:34:53Z</time>
      </trkpt>
      <trkpt lat="48.80456" lon="2.92098">
        <ele>122</ele>
        <time>2019-09-01T08:35:12Z</time>
      </trkpt>
      <trkpt lat="48.80429" lon="2.92086">
        <ele>124</ele>
        <time>2019-09-01T08:35:31Z</time>
      </trkpt>
      <trkpt lat="48.80411" lon="2.9208">
        <ele>125</ele>
        <time>2019-09-01T08:35:42Z</time>
      </trkpt>
      <trkpt lat="48.80393" lon="2.92071">
        <ele>126</ele>
        <time>2019-09-01T08:35:58Z</time>
      </trkpt>
      <trkpt lat="48.80362" lon="2.92056">
        <ele>126</ele>
        <time>2019-09-01T08:36:16Z</time>
      </trkpt>
      <trkpt lat="48.80329" lon="2.92051">
        <ele>128</ele>
        <time>2019-09-01T08:36:26Z</time>
      </trkpt>
      <trkpt lat="48.80304" lon="2.92043">
        <ele>128</ele>
        <time>2019-09-01T08:36:35Z</time>
      </trkpt>
      <trkpt lat="48.80275" lon="2.92034">
        <ele>129</ele>
        <time>2019-09-01T08:36:45Z</time>
      </trkpt>
      <trkpt lat="48.80245" lon="2.92032">
        <ele>129</ele>
        <time>2019-09-01T08:36:55Z</time>
      </trkpt>
      <trkpt lat="48.80215" lon="2.92027">
        <ele>129</ele>
        <time>2019-09-01T08:37:05Z</time>
      </trkpt>
      <trkpt lat="48.80194" lon="2.92023">
        <ele>129</ele>
        <time>2019-09-01T08:37:18Z</time>
      </trkpt>
      <trkpt lat="48.80194" lon="2.92022">
        <ele>129</ele>
        <time>2019-09-01T08:37:34Z</time>
      </trkpt>
      <trkpt lat="48.80195" lon="2.92022">
        <ele>130</ele>
        <time>2019-09-01T08:37:52Z</time>
      </trkpt>
      <trkpt lat="48.80201" lon="2.9202">
        <ele>130</ele>
        <time>2019-09-01T08:38:02Z</time>
      </trkpt>
      <trkpt lat="48.80202" lon="2.92018">
        <ele>130</ele>
        <time>2019-09-01T08:38:14Z</time>
      </trkpt>
      <trkpt lat="48.80204" lon="2.92019">
        <ele>130</ele>
        <time>2019-09-01T08:38:33Z</time>
      </trkpt>
      <trkpt lat="48.80205" lon="2.92019">
        <ele>130</ele>
        <time>2019-09-01T08:38:58Z</time>
      </trkpt>
      <trkpt lat="48.80204" lon="2.92019">
        <ele>130</ele>
        <time>2019-09-01T08:39:13Z</time>
      </trkpt>
      <trkpt lat="48.80204" lon="2.92019">
        <ele>130</ele>
        <time>2019-09-01T08:39:31Z</time>
      </trkpt>
      <trkpt lat="48.80204" lon="2.9202">
        <ele>129</ele>
        <time>2019-09-01T08:39:50Z</time>
      </trkpt>
      <trkpt lat="48.80205" lon="2.9202">
        <ele>129</ele>
        <time>2019-09-01T08:40:10Z</time>
      </trkpt>
      <trkpt lat="48.80205" lon="2.9202">
        <ele>129</ele>
        <time>2019-09-01T08:40:32Z</time>
      </trkpt>
      <trkpt lat="48.80205" lon="2.92021">
        <ele>129</ele>
        <time>2019-09-01T08:40:51Z</time>
      </trkpt>
      <trkpt lat="48.80205" lon="2.92021">
        <ele>129</ele>
        <time>2019-09-01T08:41:14Z</time>
      </trkpt>
      <trkpt lat="48.80205" lon="2.9202">
        <ele>129</ele>
        <time>2019-09-01T08:41:34Z</time>
      </trkpt>
      <trkpt lat="48.80205" lon="2.92019">
        <ele>130</ele>
        <time>2019-09-01T08:42:01Z</time>
      </trkpt>
      <trkpt lat="48.80205" lon="2.92019">
        <ele>130</ele>
        <time>2019-09-01T08:42:22Z</time>
      </trkpt>
      <trkpt lat="48.80203" lon="2.92021">
        <ele>129</ele>
        <time>2019-09-01T08:42:35Z</time>
      </trkpt>
      <trkpt lat="48.802" lon="2.92024">
        <ele>129</ele>
        <time>2019-09-01T08:42:40Z</time>
      </trkpt>
      <trkpt lat="48.80197" lon="2.92021">
        <ele>130</ele>
        <time>2019-09-01T08:42:52Z</time>
      </trkpt>
      <trkpt lat="48.80197" lon="2.9202">
        <ele>130</ele>
        <time>2019-09-01T08:43:08Z</time>
      </trkpt>
      <trkpt lat="48.80199" lon="2.92021">
        <ele>129</ele>
        <time>2019-09-01T08:43:24Z</time>
      </trkpt>
      <trkpt lat="48.80197" lon="2.92022">
        <ele>129</ele>
        <time>2019-09-01T08:43:42Z</time>
      </trkpt>
      <trkpt lat="48.80196" lon="2.92022">
        <ele>129</ele>
        <time>2019-09-01T08:44:04Z</time>
      </trkpt>
      <trkpt lat="48.80196" lon="2.92021">
        <ele>130</ele>
        <time>2019-09-01T08:44:25Z</time>
      </trkpt>
      <trkpt lat="48.80198" lon="2.9202">
        <ele>130</ele>
        <time>2019-09-01T08:44:45Z</time>
      </trkpt>
      <trkpt lat="48.80199" lon="2.92019">
        <ele>130</ele>
        <time>2019-09-01T08:45:00Z</time>
      </trkpt>
      <trkpt lat="48.80198" lon="2.92017">
        <ele>130</ele>
        <time>2019-09-01T08:45:14Z</time>
      </trkpt>
      <trkpt lat="48.80199" lon="2.92017">
        <ele>130</ele>
        <time>2019-09-01T08:45:34Z</time>
      </trkpt>
      <trkpt lat="48.802" lon="2.92017">
        <ele>130</ele>
        <time>2019-09-01T08:45:55Z</time>
      </trkpt>
      <trkpt lat="48.802" lon="2.92019">
        <ele>130</ele>
        <time>2019-09-01T08:46:13Z</time>
      </trkpt>
      <trkpt lat="48.80198" lon="2.92016">
        <ele>130</ele>
        <time>2019-09-01T08:46:31Z</time>
      </trkpt>
      <trkpt lat="48.80197" lon="2.92017">
        <ele>130</ele>
        <time>2019-09-01T08:46:37Z</time>
      </trkpt>
      <trkpt lat="48.80178" lon="2.92022">
        <ele>130</ele>
        <time>2019-09-01T08:46:48Z</time>
      </trkpt>
      <trkpt lat="48.8015" lon="2.92016">
        <ele>129</ele>
        <time>2019-09-01T08:46:59Z</time>
      </trkpt>
      <trkpt lat="48.80113" lon="2.91998">
        <ele>129</ele>
        <time>2019-09-01T08:47:11Z</time>
      </trkpt>
      <trkpt lat="48.80109" lon="2.91988">
        <ele>129</ele>
        <time>2019-09-01T08:47:13Z</time>
      </trkpt>
      <trkpt lat="48.80104" lon="2.91954">
        <ele>129</ele>
        <time>2019-09-01T08:47:18Z</time>
      </trkpt>
      <trkpt lat="48.801" lon="2.91924">
        <ele>129</ele>
        <time>2019-09-01T08:47:22Z</time>
      </trkpt>
      <trkpt lat="48.80091" lon="2.91864">
        <ele>130</ele>
        <time>2019-09-01T08:47:30Z</time>
      </trkpt>
      <trkpt lat="48.80075" lon="2.91756">
        <ele>130</ele>
        <time>2019-09-01T08:47:45Z</time>
      </trkpt>
      <trkpt lat="48.80055" lon="2.91658">
        <ele>125</ele>
        <time>2019-09-01T08:47:59Z</time>
      </trkpt>
      <trkpt lat="48.80045" lon="2.91612">
        <ele>124</ele>
        <time>2019-09-01T08:48:06Z</time>
      </trkpt>
      <trkpt lat="48.80034" lon="2.91581">
        <ele>122</ele>
        <time>2019-09-01T08:48:11Z</time>
      </trkpt>
      <trkpt lat="48.79998" lon="2.91509">
        <ele>120</ele>
        <time>2019-09-01T08:48:22Z</time>
      </trkpt>
      <trkpt lat="48.79992" lon="2.91492">
        <ele>119</ele>
        <time>2019-09-01T08:48:24Z</time>
      </trkpt>
      <trkpt lat="48.7997" lon="2.91441">
        <ele>117</ele>
        <time>2019-09-01T08:48:31Z</time>
      </trkpt>
      <trkpt lat="48.79964" lon="2.91416">
        <ele>115</ele>
        <time>2019-09-01T08:48:34Z</time>
      </trkpt>
      <trkpt lat="48.79968" lon="2.91375">
        <ele>114</ele>
        <time>2019-09-01T08:48:41Z</time>
      </trkpt>
      <trkpt lat="48.79968" lon="2.91362">
        <ele>114</ele>
        <time>2019-09-01T08:48:43Z</time>
      </trkpt>
      <trkpt lat="48.79978" lon="2.91254">
        <ele>108</ele>
        <time>2019-09-01T08:48:55Z</time>
      </trkpt>
      <trkpt lat="48.79983" lon="2.91222">
        <ele>105</ele>
        <time>2019-09-01T08:48:59Z</time>
      </trkpt>
      <trkpt lat="48.79982" lon="2.91199">
        <ele>103</ele>
        <time>2019-09-01T08:49:02Z</time>
      </trkpt>
      <trkpt lat="48.79968" lon="2.91156">
        <ele>100</ele>
        <time>2019-09-01T08:49:09Z</time>
      </trkpt>
      <trkpt lat="48.79957" lon="2.91133">
        <ele>100</ele>
        <time>2019-09-01T08:49:13Z</time>
      </trkpt>
      <trkpt lat="48.7995" lon="2.91116">
        <ele>99</ele>
        <time>2019-09-01T08:49:16Z</time>
      </trkpt>
      <trkpt lat="48.79945" lon="2.91018">
        <ele>97</ele>
        <time>2019-09-01T08:49:29Z</time>
      </trkpt>
      <trkpt lat="48.79949" lon="2.90989">
        <ele>96</ele>
        <time>2019-09-01T08:49:33Z</time>
      </trkpt>
      <trkpt lat="48.79982" lon="2.9091">
        <ele>94</ele>
        <time>2019-09-01T08:49:43Z</time>
      </trkpt>
      <trkpt lat="48.79984" lon="2.90888">
        <ele>92</ele>
        <time>2019-09-01T08:49:47Z</time>
      </trkpt>
      <trkpt lat="48.79964" lon="2.90775">
        <ele>83</ele>
        <time>2019-09-01T08:49:59Z</time>
      </trkpt>
      <trkpt lat="48.79952" lon="2.90706">
        <ele>77</ele>
        <time>2019-09-01T08:50:06Z</time>
      </trkpt>
      <trkpt lat="48.7996" lon="2.90674">
        <ele>76</ele>
        <time>2019-09-01T08:50:11Z</time>
      </trkpt>
      <trkpt lat="48.79987" lon="2.90609">
        <ele>74</ele>
        <time>2019-09-01T08:50:20Z</time>
      </trkpt>
      <trkpt lat="48.79996" lon="2.90577">
        <ele>72</ele>
        <time>2019-09-01T08:50:24Z</time>
      </trkpt>
      <trkpt lat="48.80017" lon="2.90497">
        <ele>71</ele>
        <time>2019-09-01T08:50:34Z</time>
      </trkpt>
      <trkpt lat="48.80051" lon="2.90386">
        <ele>71</ele>
        <time>2019-09-01T08:50:48Z</time>
      </trkpt>
      <trkpt lat="48.80064" lon="2.9035">
        <ele>70</ele>
        <time>2019-09-01T08:50:53Z</time>
      </trkpt>
      <trkpt lat="48.80077" lon="2.90312">
        <ele>70</ele>
        <time>2019-09-01T08:51:02Z</time>
      </trkpt>
      <trkpt lat="48.80075" lon="2.90309">
        <ele>70</ele>
        <time>2019-09-01T08:51:03Z</time>
      </trkpt>
      <trkpt lat="48.80051" lon="2.90262">
        <ele>71</ele>
        <time>2019-09-01T08:51:17Z</time>
      </trkpt>
      <trkpt lat="48.80024" lon="2.90209">
        <ele>72</ele>
        <time>2019-09-01T08:51:32Z</time>
      </trkpt>
      <trkpt lat="48.79999" lon="2.90158">
        <ele>74</ele>
        <time>2019-09-01T08:51:47Z</time>
      </trkpt>
      <trkpt lat="48.79982" lon="2.90123">
        <ele>76</ele>
        <time>2019-09-01T08:51:58Z</time>
      </trkpt>
      <trkpt lat="48.7996" lon="2.9008">
        <ele>78</ele>
        <time>2019-09-01T08:52:10Z</time>
      </trkpt>
      <trkpt lat="48.79947" lon="2.9004">
        <ele>78</ele>
        <time>2019-09-01T08:52:22Z</time>
      </trkpt>
      <trkpt lat="48.79937" lon="2.89992">
        <ele>79</ele>
        <time>2019-09-01T08:52:34Z</time>
      </trkpt>
      <trkpt lat="48.79924" lon="2.89945">
        <ele>79</ele>
        <time>2019-09-01T08:52:46Z</time>
      </trkpt>
      <trkpt lat="48.79915" lon="2.8991">
        <ele>83</ele>
        <time>2019-09-01T08:52:54Z</time>
      </trkpt>
      <trkpt lat="48.79937" lon="2.89887">
        <ele>80</ele>
        <time>2019-09-01T08:53:01Z</time>
      </trkpt>
      <trkpt lat="48.79959" lon="2.89886">
        <ele>79</ele>
        <time>2019-09-01T08:53:04Z</time>
      </trkpt>
      <trkpt lat="48.80009" lon="2.89897">
        <ele>75</ele>
        <time>2019-09-01T08:53:11Z</time>
      </trkpt>
      <trkpt lat="48.80027" lon="2.89906">
        <ele>75</ele>
        <time>2019-09-01T08:53:14Z</time>
      </trkpt>
      <trkpt lat="48.80052" lon="2.89925">
        <ele>75</ele>
        <time>2019-09-01T08:53:19Z</time>
      </trkpt>
      <trkpt lat="48.80094" lon="2.89939">
        <ele>78</ele>
        <time>2019-09-01T08:53:32Z</time>
      </trkpt>
      <trkpt lat="48.80121" lon="2.89938">
        <ele>79</ele>
        <time>2019-09-01T08:53:46Z</time>
      </trkpt>
      <trkpt lat="48.80146" lon="2.89937">
        <ele>80</ele>
        <time>2019-09-01T08:54:00Z</time>
      </trkpt>
      <trkpt lat="48.8017" lon="2.89938">
        <ele>84</ele>
        <time>2019-09-01T08:54:16Z</time>
      </trkpt>
      <trkpt lat="48.80211" lon="2.89944">
        <ele>85</ele>
        <time>2019-09-01T08:54:34Z</time>
      </trkpt>
      <trkpt lat="48.80248" lon="2.89951">
        <ele>86</ele>
        <time>2019-09-01T08:54:50Z</time>
      </trkpt>
      <trkpt lat="48.8029" lon="2.89959">
        <ele>88</ele>
        <time>2019-09-01T08:55:06Z</time>
      </trkpt>
      <trkpt lat="48.80377" lon="2.89965">
        <ele>87</ele>
        <time>2019-09-01T08:55:20Z</time>
      </trkpt>
      <trkpt lat="48.80446" lon="2.89949">
        <ele>84</ele>
        <time>2019-09-01T08:55:32Z</time>
      </trkpt>
      <trkpt lat="48.80466" lon="2.89943">
        <ele>84</ele>
        <time>2019-09-01T08:55:36Z</time>
      </trkpt>
      <trkpt lat="48.80548" lon="2.89941">
        <ele>81</ele>
        <time>2019-09-01T08:55:51Z</time>
      </trkpt>
      <trkpt lat="48.80627" lon="2.89919">
        <ele>79</ele>
        <time>2019-09-01T08:56:06Z</time>
      </trkpt>
      <trkpt lat="48.80701" lon="2.89907">
        <ele>82</ele>
        <time>2019-09-01T08:56:20Z</time>
      </trkpt>
      <trkpt lat="48.80767" lon="2.89887">
        <ele>80</ele>
        <time>2019-09-01T08:56:32Z</time>
      </trkpt>
      <trkpt lat="48.80862" lon="2.89867">
        <ele>76</ele>
        <time>2019-09-01T08:56:48Z</time>
      </trkpt>
      <trkpt lat="48.80933" lon="2.89835">
        <ele>75</ele>
        <time>2019-09-01T08:57:01Z</time>
      </trkpt>
      <trkpt lat="48.80953" lon="2.89836">
        <ele>73</ele>
        <time>2019-09-01T08:57:05Z</time>
      </trkpt>
      <trkpt lat="48.80963" lon="2.89842">
        <ele>73</ele>
        <time>2019-09-01T08:57:07Z</time>
      </trkpt>
      <trkpt lat="48.80987" lon="2.89847">
        <ele>73</ele>
        <time>2019-09-01T08:57:12Z</time>
      </trkpt>
      <trkpt lat="48.81075" lon="2.89829">
        <ele>73</ele>
        <time>2019-09-01T08:57:28Z</time>
      </trkpt>
      <trkpt lat="48.81081" lon="2.89828">
        <ele>72</ele>
        <time>2019-09-01T08:57:29Z</time>
      </trkpt>
      <trkpt lat="48.81099" lon="2.89829">
        <ele>73</ele>
        <time>2019-09-01T08:57:32Z</time>
      </trkpt>
      <trkpt lat="48.81124" lon="2.8983">
        <ele>74</ele>
        <time>2019-09-01T08:57:36Z</time>
      </trkpt>
      <trkpt lat="48.81134" lon="2.89834">
        <ele>70</ele>
        <time>2019-09-01T08:57:38Z</time>
      </trkpt>
      <trkpt lat="48.81146" lon="2.89839">
        <ele>70</ele>
        <time>2019-09-01T08:57:40Z</time>
      </trkpt>
      <trkpt lat="48.81201" lon="2.89866">
        <ele>71</ele>
        <time>2019-09-01T08:57:54Z</time>
      </trkpt>
      <trkpt lat="48.81231" lon="2.89867">
        <ele>73</ele>
        <time>2019-09-01T08:58:06Z</time>
      </trkpt>
      <trkpt lat="48.81261" lon="2.89852">
        <ele>78</ele>
        <time>2019-09-01T08:58:21Z</time>
      </trkpt>
      <trkpt lat="48.8129" lon="2.89858">
        <ele>79</ele>
        <time>2019-09-01T08:58:33Z</time>
      </trkpt>
      <trkpt lat="48.81332" lon="2.89888">
        <ele>78</ele>
        <time>2019-09-01T08:58:47Z</time>
      </trkpt>
      <trkpt lat="48.8138" lon="2.89928">
        <ele>77</ele>
        <time>2019-09-01T08:59:00Z</time>
      </trkpt>
      <trkpt lat="48.81411" lon="2.89947">
        <ele>77</ele>
        <time>2019-09-01T08:59:09Z</time>
      </trkpt>
      <trkpt lat="48.81463" lon="2.89972">
        <ele>81</ele>
        <time>2019-09-01T08:59:23Z</time>
      </trkpt>
      <trkpt lat="48.81509" lon="2.89997">
        <ele>84</ele>
        <time>2019-09-01T08:59:36Z</time>
      </trkpt>
      <trkpt lat="48.81549" lon="2.90027">
        <ele>82</ele>
        <time>2019-09-01T08:59:48Z</time>
      </trkpt>
      <trkpt lat="48.81592" lon="2.90077">
        <ele>85</ele>
        <time>2019-09-01T09:00:01Z</time>
      </trkpt>
      <trkpt lat="48.81614" lon="2.90105">
        <ele>82</ele>
        <time>2019-09-01T09:00:08Z</time>
      </trkpt>
      <trkpt lat="48.81627" lon="2.90123">
        <ele>82</ele>
        <time>2019-09-01T09:00:12Z</time>
      </trkpt>
      <trkpt lat="48.81668" lon="2.90193">
        <ele>79</ele>
        <time>2019-09-01T09:00:26Z</time>
      </trkpt>
      <trkpt lat="48.81702" lon="2.90239">
        <ele>77</ele>
        <time>2019-09-01T09:00:36Z</time>
      </trkpt>
      <trkpt lat="48.8176" lon="2.90295">
        <ele>76</ele>
        <time>2019-09-01T09:00:51Z</time>
      </trkpt>
      <trkpt lat="48.81797" lon="2.9033">
        <ele>77</ele>
        <time>2019-09-01T09:01:02Z</time>
      </trkpt>
      <trkpt lat="48.81851" lon="2.9035">
        <ele>75</ele>
        <time>2019-09-01T09:01:16Z</time>
      </trkpt>
      <trkpt lat="48.81912" lon="2.90364">
        <ele>74</ele>
        <time>2019-09-01T09:01:28Z</time>
      </trkpt>
      <trkpt lat="48.81933" lon="2.90366">
        <ele>74</ele>
        <time>2019-09-01T09:01:32Z</time>
      </trkpt>
      <trkpt lat="48.81954" lon="2.90369">
        <ele>73</ele>
        <time>2019-09-01T09:01:36Z</time>
      </trkpt>
      <trkpt lat="48.82053" lon="2.90372">
        <ele>70</ele>
        <time>2019-09-01T09:01:52Z</time>
      </trkpt>
      <trkpt lat="48.82078" lon="2.90365">
        <ele>69</ele>
        <time>2019-09-01T09:01:59Z</time>
      </trkpt>
      <trkpt lat="48.82086" lon="2.90318">
        <ele>71</ele>
        <time>2019-09-01T09:02:12Z</time>
      </trkpt>
      <trkpt lat="48.82097" lon="2.90259">
        <ele>74</ele>
        <time>2019-09-01T09:02:29Z</time>
      </trkpt>
      <trkpt lat="48.82109" lon="2.90206">
        <ele>78</ele>
        <time>2019-09-01T09:02:46Z</time>
      </trkpt>
      <trkpt lat="48.82119" lon="2.90159">
        <ele>83</ele>
        <time>2019-09-01T09:03:03Z</time>
      </trkpt>
      <trkpt lat="48.82127" lon="2.90118">
        <ele>84</ele>
        <time>2019-09-01T09:03:17Z</time>
      </trkpt>
      <trkpt lat="48.82138" lon="2.90078">
        <ele>88</ele>
        <time>2019-09-01T09:03:32Z</time>
      </trkpt>
      <trkpt lat="48.82146" lon="2.90042">
        <ele>89</ele>
        <time>2019-09-01T09:03:46Z</time>
      </trkpt>
      <trkpt lat="48.82153" lon="2.90006">
        <ele>90</ele>
        <time>2019-09-01T09:04:01Z</time>
      </trkpt>
      <trkpt lat="48.82159" lon="2.89981">
        <ele>93</ele>
        <time>2019-09-01T09:04:15Z</time>
      </trkpt>
      <trkpt lat="48.82164" lon="2.89985">
        <ele>92</ele>
        <time>2019-09-01T09:04:24Z</time>
      </trkpt>
      <trkpt lat="48.82168" lon="2.89987">
        <ele>92</ele>
        <time>2019-09-01T09:04:27Z</time>
      </trkpt>
      <trkpt lat="48.82189" lon="2.9001">
        <ele>88</ele>
        <time>2019-09-01T09:04:40Z</time>
      </trkpt>
      <trkpt lat="48.82194" lon="2.9003">
        <ele>87</ele>
        <time>2019-09-01T09:04:44Z</time>
      </trkpt>
      <trkpt lat="48.82197" lon="2.90033">
        <ele>87</ele>
        <time>2019-09-01T09:04:46Z</time>
      </trkpt>
      <trkpt lat="48.82232" lon="2.90026">
        <ele>88</ele>
        <time>2019-09-01T09:04:59Z</time>
      </trkpt>
      <trkpt lat="48.82273" lon="2.90011">
        <ele>89</ele>
        <time>2019-09-01T09:05:12Z</time>
      </trkpt>
      <trkpt lat="48.82286" lon="2.9001">
        <ele>89</ele>
        <time>2019-09-01T09:05:16Z</time>
      </trkpt>
      <trkpt lat="48.82328" lon="2.9004">
        <ele>89</ele>
        <time>2019-09-01T09:05:27Z</time>
      </trkpt>
      <trkpt lat="48.8235" lon="2.90035">
        <ele>92</ele>
        <time>2019-09-01T09:05:33Z</time>
      </trkpt>
      <trkpt lat="48.82366" lon="2.90064">
        <ele>90</ele>
        <time>2019-09-01T09:05:38Z</time>
      </trkpt>
      <trkpt lat="48.82376" lon="2.9011">
        <ele>79</ele>
        <time>2019-09-01T09:05:44Z</time>
      </trkpt>
      <trkpt lat="48.82392" lon="2.90116">
        <ele>79</ele>
        <time>2019-09-01T09:05:50Z</time>
      </trkpt>
      <trkpt lat="48.82438" lon="2.90101">
        <ele>81</ele>
        <time>2019-09-01T09:06:03Z</time>
      </trkpt>
      <trkpt lat="48.82454" lon="2.90105">
        <ele>80</ele>
        <time>2019-09-01T09:06:07Z</time>
      </trkpt>
      <trkpt lat="48.82466" lon="2.90116">
        <ele>79</ele>
        <time>2019-09-01T09:06:10Z</time>
      </trkpt>
      <trkpt lat="48.82497" lon="2.90108">
        <ele>81</ele>
        <time>2019-09-01T09:06:24Z</time>
      </trkpt>
      <trkpt lat="48.825" lon="2.90097">
        <ele>83</ele>
        <time>2019-09-01T09:06:40Z</time>
      </trkpt>
      <trkpt lat="48.82495" lon="2.90066">
        <ele>90</ele>
        <time>2019-09-01T09:06:56Z</time>
      </trkpt>
      <trkpt lat="48.82488" lon="2.90019">
        <ele>94</ele>
        <time>2019-09-01T09:07:15Z</time>
      </trkpt>
      <trkpt lat="48.82481" lon="2.89989">
        <ele>100</ele>
        <time>2019-09-01T09:07:34Z</time>
      </trkpt>
      <trkpt lat="48.82483" lon="2.89976">
        <ele>101</ele>
        <time>2019-09-01T09:07:50Z</time>
      </trkpt>
      <trkpt lat="48.82485" lon="2.89972">
        <ele>101</ele>
        <time>2019-09-01T09:08:11Z</time>
      </trkpt>
      <trkpt lat="48.82494" lon="2.89946">
        <ele>102</ele>
        <time>2019-09-01T09:08:28Z</time>
      </trkpt>
      <trkpt lat="48.82501" lon="2.8993">
        <ele>102</ele>
        <time>2019-09-01T09:08:43Z</time>
      </trkpt>
      <trkpt lat="48.82505" lon="2.8993">
        <ele>101</ele>
        <time>2019-09-01T09:08:59Z</time>
      </trkpt>
      <trkpt lat="48.82519" lon="2.89924">
        <ele>101</ele>
        <time>2019-09-01T09:09:21Z</time>
      </trkpt>
      <trkpt lat="48.82552" lon="2.89902">
        <ele>102</ele>
        <time>2019-09-01T09:09:35Z</time>
      </trkpt>
      <trkpt lat="48.82569" lon="2.89887">
        <ele>102</ele>
        <time>2019-09-01T09:09:44Z</time>
      </trkpt>
      <trkpt lat="48.82583" lon="2.89891">
        <ele>99</ele>
        <time>2019-09-01T09:09:49Z</time>
      </trkpt>
      <trkpt lat="48.82633" lon="2.89888">
        <ele>98</ele>
        <time>2019-09-01T09:10:01Z</time>
      </trkpt>
      <trkpt lat="48.82672" lon="2.89877">
        <ele>96</ele>
        <time>2019-09-01T09:10:08Z</time>
      </trkpt>
      <trkpt lat="48.82681" lon="2.89876">
        <ele>96</ele>
        <time>2019-09-01T09:10:10Z</time>
      </trkpt>
      <trkpt lat="48.82733" lon="2.89857">
        <ele>95</ele>
        <time>2019-09-01T09:10:24Z</time>
      </trkpt>
      <trkpt lat="48.82732" lon="2.89855">
        <ele>95</ele>
        <time>2019-09-01T09:10:25Z</time>
      </trkpt>
      <trkpt lat="48.82701" lon="2.89825">
        <ele>97</ele>
        <time>2019-09-01T09:10:40Z</time>
      </trkpt>
      <trkpt lat="48.82663" lon="2.89792">
        <ele>102</ele>
        <time>2019-09-01T09:10:55Z</time>
      </trkpt>
      <trkpt lat="48.82643" lon="2.89764">
        <ele>103</ele>
        <time>2019-09-01T09:11:06Z</time>
      </trkpt>
      <trkpt lat="48.82627" lon="2.89735">
        <ele>107</ele>
        <time>2019-09-01T09:11:18Z</time>
      </trkpt>
      <trkpt lat="48.82617" lon="2.89715">
        <ele>108</ele>
        <time>2019-09-01T09:11:26Z</time>
      </trkpt>
      <trkpt lat="48.8263" lon="2.89692">
        <ele>109</ele>
        <time>2019-09-01T09:11:36Z</time>
      </trkpt>
      <trkpt lat="48.82674" lon="2.89642">
        <ele>106</ele>
        <time>2019-09-01T09:11:50Z</time>
      </trkpt>
      <trkpt lat="48.82714" lon="2.89591">
        <ele>106</ele>
        <time>2019-09-01T09:12:02Z</time>
      </trkpt>
      <trkpt lat="48.82741" lon="2.89515">
        <ele>107</ele>
        <time>2019-09-01T09:12:14Z</time>
      </trkpt>
      <trkpt lat="48.82788" lon="2.89407">
        <ele>104</ele>
        <time>2019-09-01T09:12:30Z</time>
      </trkpt>
      <trkpt lat="48.82833" lon="2.89314">
        <ele>104</ele>
        <time>2019-09-01T09:12:43Z</time>
      </trkpt>
      <trkpt lat="48.82851" lon="2.89311">
        <ele>101</ele>
        <time>2019-09-01T09:12:50Z</time>
      </trkpt>
      <trkpt lat="48.82861" lon="2.89306">
        <ele>101</ele>
        <time>2019-09-01T09:12:52Z</time>
      </trkpt>
      <trkpt lat="48.82887" lon="2.89279">
        <ele>101</ele>
        <time>2019-09-01T09:13:01Z</time>
      </trkpt>
      <trkpt lat="48.82923" lon="2.89285">
        <ele>99</ele>
        <time>2019-09-01T09:13:14Z</time>
      </trkpt>
      <trkpt lat="48.82973" lon="2.89308">
        <ele>99</ele>
        <time>2019-09-01T09:13:28Z</time>
      </trkpt>
      <trkpt lat="48.83024" lon="2.89316">
        <ele>100</ele>
        <time>2019-09-01T09:13:41Z</time>
      </trkpt>
      <trkpt lat="48.83067" lon="2.89326">
        <ele>101</ele>
        <time>2019-09-01T09:13:54Z</time>
      </trkpt>
      <trkpt lat="48.83114" lon="2.89336">
        <ele>103</ele>
        <time>2019-09-01T09:14:10Z</time>
      </trkpt>
      <trkpt lat="48.83154" lon="2.89348">
        <ele>104</ele>
        <time>2019-09-01T09:14:24Z</time>
      </trkpt>
      <trkpt lat="48.8319" lon="2.89371">
        <ele>105</ele>
        <time>2019-09-01T09:14:38Z</time>
      </trkpt>
      <trkpt lat="48.83223" lon="2.89394">
        <ele>105</ele>
        <time>2019-09-01T09:14:50Z</time>
      </trkpt>
      <trkpt lat="48.83256" lon="2.89418">
        <ele>104</ele>
        <time>2019-09-01T09:15:00Z</time>
      </trkpt>
      <trkpt lat="48.83298" lon="2.89447">
        <ele>103</ele>
        <time>2019-09-01T09:15:11Z</time>
      </trkpt>
      <trkpt lat="48.83348" lon="2.89484">
        <ele>104</ele>
        <time>2019-09-01T09:15:25Z</time>
      </trkpt>
      <trkpt lat="48.83385" lon="2.89513">
        <ele>103</ele>
        <time>2019-09-01T09:15:37Z</time>
      </trkpt>
      <trkpt lat="48.83426" lon="2.89541">
        <ele>105</ele>
        <time>2019-09-01T09:15:51Z</time>
      </trkpt>
      <trkpt lat="48.83467" lon="2.89551">
        <ele>105</ele>
        <time>2019-09-01T09:16:02Z</time>
      </trkpt>
      <trkpt lat="48.83513" lon="2.89556">
        <ele>107</ele>
        <time>2019-09-01T09:16:13Z</time>
      </trkpt>
      <trkpt lat="48.83557" lon="2.89568">
        <ele>107</ele>
        <time>2019-09-01T09:16:26Z</time>
      </trkpt>
      <trkpt lat="48.83601" lon="2.89578">
        <ele>107</ele>
        <time>2019-09-01T09:16:39Z</time>
      </trkpt>
      <trkpt lat="48.83653" lon="2.8959">
        <ele>107</ele>
        <time>2019-09-01T09:16:54Z</time>
      </trkpt>
      <trkpt lat="48.83695" lon="2.89593">
        <ele>106</ele>
        <time>2019-09-01T09:17:07Z</time>
      </trkpt>
      <trkpt lat="48.83704" lon="2.89595">
        <ele>106</ele>
        <time>2019-09-01T09:17:09Z</time>
      </trkpt>
      <trkpt lat="48.83728" lon="2.89596">
        <ele>106</ele>
        <time>2019-09-01T09:17:14Z</time>
      </trkpt>
      <trkpt lat="48.83783" lon="2.896">
        <ele>105</ele>
        <time>2019-09-01T09:17:26Z</time>
      </trkpt>
      <trkpt lat="48.83796" lon="2.89603">
        <ele>105</ele>
        <time>2019-09-01T09:17:29Z</time>
      </trkpt>
      <trkpt lat="48.83855" lon="2.89637">
        <ele>104</ele>
        <time>2019-09-01T09:17:44Z</time>
      </trkpt>
      <trkpt lat="48.83867" lon="2.89645">
        <ele>104</ele>
        <time>2019-09-01T09:17:47Z</time>
      </trkpt>
      <trkpt lat="48.83914" lon="2.89667">
        <ele>104</ele>
        <time>2019-09-01T09:17:59Z</time>
      </trkpt>
      <trkpt lat="48.8399" lon="2.89657">
        <ele>103</ele>
        <time>2019-09-01T09:18:16Z</time>
      </trkpt>
      <trkpt lat="48.8401" lon="2.89653">
        <ele>103</ele>
        <time>2019-09-01T09:18:20Z</time>
      </trkpt>
      <trkpt lat="48.84025" lon="2.89651">
        <ele>103</ele>
        <time>2019-09-01T09:18:23Z</time>
      </trkpt>
      <trkpt lat="48.84034" lon="2.89652">
        <ele>103</ele>
        <time>2019-09-01T09:18:25Z</time>
      </trkpt>
      <trkpt lat="48.8408" lon="2.89675">
        <ele>103</ele>
        <time>2019-09-01T09:18:36Z</time>
      </trkpt>
      <trkpt lat="48.84126" lon="2.89683">
        <ele>106</ele>
        <time>2019-09-01T09:18:51Z</time>
      </trkpt>
      <trkpt lat="48.84139" lon="2.89683">
        <ele>106</ele>
        <time>2019-09-01T09:18:56Z</time>
      </trkpt>
      <trkpt lat="48.84144" lon="2.89697">
        <ele>107</ele>
        <time>2019-09-01T09:19:01Z</time>
      </trkpt>
      <trkpt lat="48.84138" lon="2.89764">
        <ele>109</ele>
        <time>2019-09-01T09:19:17Z</time>
      </trkpt>
      <trkpt lat="48.8413" lon="2.89835">
        <ele>109</ele>
        <time>2019-09-01T09:19:31Z</time>
      </trkpt>
      <trkpt lat="48.84127" lon="2.89907">
        <ele>109</ele>
        <time>2019-09-01T09:19:42Z</time>
      </trkpt>
      <trkpt lat="48.84146" lon="2.89935">
        <ele>109</ele>
        <time>2019-09-01T09:19:51Z</time>
      </trkpt>
      <trkpt lat="48.84139" lon="2.9001">
        <ele>108</ele>
        <time>2019-09-01T09:20:03Z</time>
      </trkpt>
      <trkpt lat="48.84132" lon="2.9005">
        <ele>107</ele>
        <time>2019-09-01T09:20:08Z</time>
      </trkpt>
      <trkpt lat="48.84131" lon="2.90065">
        <ele>107</ele>
        <time>2019-09-01T09:20:10Z</time>
      </trkpt>
      <trkpt lat="48.84147" lon="2.90081">
        <ele>109</ele>
        <time>2019-09-01T09:20:17Z</time>
      </trkpt>
      <trkpt lat="48.8419" lon="2.901">
        <ele>112</ele>
        <time>2019-09-01T09:20:31Z</time>
      </trkpt>
      <trkpt lat="48.84221" lon="2.9009">
        <ele>114</ele>
        <time>2019-09-01T09:20:46Z</time>
      </trkpt>
      <trkpt lat="48.84249" lon="2.90072">
        <ele>115</ele>
        <time>2019-09-01T09:21:02Z</time>
      </trkpt>
      <trkpt lat="48.8428" lon="2.90052">
        <ele>119</ele>
        <time>2019-09-01T09:21:17Z</time>
      </trkpt>
      <trkpt lat="48.84298" lon="2.90045">
        <ele>120</ele>
        <time>2019-09-01T09:21:35Z</time>
      </trkpt>
      <trkpt lat="48.84299" lon="2.90049">
        <ele>120</ele>
        <time>2019-09-01T09:21:58Z</time>
      </trkpt>
      <trkpt lat="48.843" lon="2.9005">
        <ele>120</ele>
        <time>2019-09-01T09:22:21Z</time>
      </trkpt>
      <trkpt lat="48.84313" lon="2.90039">
        <ele>120</ele>
        <time>2019-09-01T09:22:37Z</time>
      </trkpt>
      <trkpt lat="48.84332" lon="2.90024">
        <ele>121</ele>
        <time>2019-09-01T09:22:50Z</time>
      </trkpt>
      <trkpt lat="48.84342" lon="2.90018">
        <ele>125</ele>
        <time>2019-09-01T09:22:57Z</time>
      </trkpt>
      <trkpt lat="48.84351" lon="2.90025">
        <ele>125</ele>
        <time>2019-09-01T09:23:02Z</time>
      </trkpt>
      <trkpt lat="48.84356" lon="2.90103">
        <ele>124</ele>
        <time>2019-09-01T09:23:17Z</time>
      </trkpt>
      <trkpt lat="48.84362" lon="2.90154">
        <ele>122</ele>
        <time>2019-09-01T09:23:25Z</time>
      </trkpt>
      <trkpt lat="48.84341" lon="2.90183">
        <ele>118</ele>
        <time>2019-09-01T09:23:34Z</time>
      </trkpt>
      <trkpt lat="48.84335" lon="2.90191">
        <ele>118</ele>
        <time>2019-09-01T09:23:36Z</time>
      </trkpt>
      <trkpt lat="48.84332" lon="2.90211">
        <ele>115</ele>
        <time>2019-09-01T09:23:39Z</time>
      </trkpt>
      <trkpt lat="48.84324" lon="2.9024">
        <ele>114</ele>
        <time>2019-09-01T09:23:43Z</time>
      </trkpt>
      <trkpt lat="48.84305" lon="2.90278">
        <ele>109</ele>
        <time>2019-09-01T09:23:49Z</time>
      </trkpt>
      <trkpt lat="48.84302" lon="2.90295">
        <ele>108</ele>
        <time>2019-09-01T09:23:51Z</time>
      </trkpt>
      <trkpt lat="48.84302" lon="2.90348">
        <ele>102</ele>
        <time>2019-09-01T09:24:00Z</time>
      </trkpt>
      <trkpt lat="48.8431" lon="2.90359">
        <ele>102</ele>
        <time>2019-09-01T09:24:04Z</time>
      </trkpt>
      <trkpt lat="48.84328" lon="2.90403">
        <ele>101</ele>
        <time>2019-09-01T09:24:14Z</time>
      </trkpt>
      <trkpt lat="48.84346" lon="2.90456">
        <ele>101</ele>
        <time>2019-09-01T09:24:25Z</time>
      </trkpt>
      <trkpt lat="48.84355" lon="2.90469">
        <ele>101</ele>
        <time>2019-09-01T09:24:28Z</time>
      </trkpt>
      <trkpt lat="48.84367" lon="2.90482">
        <ele>101</ele>
        <time>2019-09-01T09:24:33Z</time>
      </trkpt>
      <trkpt lat="48.84384" lon="2.90509">
        <ele>96</ele>
        <time>2019-09-01T09:24:41Z</time>
      </trkpt>
      <trkpt lat="48.84396" lon="2.90538">
        <ele>95</ele>
        <time>2019-09-01T09:24:51Z</time>
      </trkpt>
      <trkpt lat="48.84398" lon="2.90539">
        <ele>95</ele>
        <time>2019-09-01T09:24:52Z</time>
      </trkpt>
      <trkpt lat="48.84426" lon="2.90538">
        <ele>102</ele>
        <time>2019-09-01T09:25:05Z</time>
      </trkpt>
      <trkpt lat="48.8445" lon="2.90551">
        <ele>102</ele>
        <time>2019-09-01T09:25:19Z</time>
      </trkpt>
      <trkpt lat="48.84458" lon="2.90554">
        <ele>103</ele>
        <time>2019-09-01T09:25:24Z</time>
      </trkpt>
      <trkpt lat="48.84475" lon="2.90567">
        <ele>103</ele>
        <time>2019-09-01T09:25:37Z</time>
      </trkpt>
      <trkpt lat="48.84504" lon="2.90581">
        <ele>106</ele>
        <time>2019-09-01T09:25:55Z</time>
      </trkpt>
      <trkpt lat="48.84523" lon="2.90592">
        <ele>105</ele>
        <time>2019-09-01T09:26:09Z</time>
      </trkpt>
      <trkpt lat="48.84548" lon="2.90604">
        <ele>106</ele>
        <time>2019-09-01T09:26:25Z</time>
      </trkpt>
      <trkpt lat="48.84559" lon="2.90615">
        <ele>107</ele>
        <time>2019-09-01T09:26:33Z</time>
      </trkpt>
      <trkpt lat="48.84577" lon="2.90625">
        <ele>107</ele>
        <time>2019-09-01T09:26:43Z</time>
      </trkpt>
      <trkpt lat="48.84584" lon="2.90626">
        <ele>112</ele>
        <time>2019-09-01T09:26:47Z</time>
      </trkpt>
      <trkpt lat="48.8459" lon="2.90626">
        <ele>112</ele>
        <time>2019-09-01T09:26:51Z</time>
      </trkpt>
      <trkpt lat="48.84598" lon="2.90622">
        <ele>113</ele>
        <time>2019-09-01T09:26:57Z</time>
      </trkpt>
      <trkpt lat="48.84616" lon="2.90613">
        <ele>114</ele>
        <time>2019-09-01T09:27:13Z</time>
      </trkpt>
      <trkpt lat="48.84627" lon="2.90602">
        <ele>114</ele>
        <time>2019-09-01T09:27:26Z</time>
      </trkpt>
      <trkpt lat="48.84635" lon="2.90597">
        <ele>115</ele>
        <time>2019-09-01T09:27:34Z</time>
      </trkpt>
      <trkpt lat="48.84654" lon="2.90588">
        <ele>117</ele>
        <time>2019-09-01T09:27:51Z</time>
      </trkpt>
      <trkpt lat="48.84663" lon="2.90575">
        <ele>119</ele>
        <time>2019-09-01T09:28:04Z</time>
      </trkpt>
      <trkpt lat="48.84675" lon="2.90558">
        <ele>122</ele>
        <time>2019-09-01T09:28:19Z</time>
      </trkpt>
      <trkpt lat="48.84681" lon="2.90552">
        <ele>123</ele>
        <time>2019-09-01T09:28:31Z</time>
      </trkpt>
      <trkpt lat="48.84688" lon="2.90547">
        <ele>123</ele>
        <time>2019-09-01T09:28:45Z</time>
      </trkpt>
      <trkpt lat="48.84689" lon="2.90549">
        <ele>123</ele>
        <time>2019-09-01T09:29:07Z</time>
      </trkpt>
      <trkpt lat="48.8469" lon="2.90549">
        <ele>123</ele>
        <time>2019-09-01T09:29:25Z</time>
      </trkpt>
      <trkpt lat="48.84693" lon="2.90544">
        <ele>123</ele>
        <time>2019-09-01T09:29:29Z</time>
      </trkpt>
      <trkpt lat="48.84711" lon="2.90524">
        <ele>124</ele>
        <time>2019-09-01T09:29:43Z</time>
      </trkpt>
      <trkpt lat="48.84726" lon="2.90498">
        <ele>127</ele>
        <time>2019-09-01T09:29:55Z</time>
      </trkpt>
      <trkpt lat="48.8473" lon="2.90493">
        <ele>127</ele>
        <time>2019-09-01T09:29:58Z</time>
      </trkpt>
      <trkpt lat="48.84737" lon="2.90481">
        <ele>128</ele>
        <time>2019-09-01T09:30:04Z</time>
      </trkpt>
      <trkpt lat="48.84746" lon="2.90469">
        <ele>128</ele>
        <time>2019-09-01T09:30:09Z</time>
      </trkpt>
      <trkpt lat="48.84755" lon="2.90453">
        <ele>128</ele>
        <time>2019-09-01T09:30:15Z</time>
      </trkpt>
      <trkpt lat="48.84774" lon="2.9041">
        <ele>129</ele>
        <time>2019-09-01T09:30:28Z</time>
      </trkpt>
      <trkpt lat="48.84776" lon="2.90407">
        <ele>129</ele>
        <time>2019-09-01T09:30:29Z</time>
      </trkpt>
      <trkpt lat="48.84778" lon="2.90395">
        <ele>129</ele>
        <time>2019-09-01T09:30:32Z</time>
      </trkpt>
      <trkpt lat="48.84764" lon="2.90388">
        <ele>129</ele>
        <time>2019-09-01T09:30:38Z</time>
      </trkpt>
      <trkpt lat="48.84732" lon="2.90371">
        <ele>129</ele>
        <time>2019-09-01T09:30:50Z</time>
      </trkpt>
      <trkpt lat="48.84703" lon="2.90354">
        <ele>129</ele>
        <time>2019-09-01T09:31:00Z</time>
      </trkpt>
      <trkpt lat="48.84682" lon="2.90341">
        <ele>130</ele>
        <time>2019-09-01T09:31:08Z</time>
      </trkpt>
      <trkpt lat="48.8468" lon="2.90303">
        <ele>131</ele>
        <time>2019-09-01T09:31:17Z</time>
      </trkpt>
      <trkpt lat="48.84669" lon="2.90259">
        <ele>132</ele>
        <time>2019-09-01T09:31:28Z</time>
      </trkpt>
      <trkpt lat="48.84652" lon="2.9023">
        <ele>133</ele>
        <time>2019-09-01T09:31:37Z</time>
      </trkpt>
      <trkpt lat="48.84627" lon="2.90186">
        <ele>133</ele>
        <time>2019-09-01T09:31:49Z</time>
      </trkpt>
      <trkpt lat="48.84605" lon="2.90142">
        <ele>134</ele>
        <time>2019-09-01T09:31:59Z</time>
      </trkpt>
      <trkpt lat="48.84587" lon="2.90102">
        <ele>134</ele>
        <time>2019-09-01T09:32:08Z</time>
      </trkpt>
      <trkpt lat="48.84576" lon="2.90075">
        <ele>134</ele>
        <time>2019-09-01T09:32:14Z</time>
      </trkpt>
      <trkpt lat="48.84592" lon="2.9005">
        <ele>134</ele>
        <time>2019-09-01T09:32:21Z</time>
      </trkpt>
      <trkpt lat="48.84613" lon="2.90034">
        <ele>134</ele>
        <time>2019-09-01T09:32:27Z</time>
      </trkpt>
      <trkpt lat="48.84627" lon="2.90023">
        <ele>134</ele>
        <time>2019-09-01T09:32:31Z</time>
      </trkpt>
      <trkpt lat="48.84643" lon="2.90014">
        <ele>133</ele>
        <time>2019-09-01T09:32:36Z</time>
      </trkpt>
      <trkpt lat="48.84644" lon="2.89964">
        <ele>133</ele>
        <time>2019-09-01T09:32:45Z</time>
      </trkpt>
      <trkpt lat="48.84642" lon="2.89958">
        <ele>133</ele>
        <time>2019-09-01T09:32:46Z</time>
      </trkpt>
      <trkpt lat="48.84636" lon="2.89926">
        <ele>132</ele>
        <time>2019-09-01T09:32:51Z</time>
      </trkpt>
      <trkpt lat="48.84633" lon="2.899">
        <ele>132</ele>
        <time>2019-09-01T09:32:55Z</time>
      </trkpt>
      <trkpt lat="48.84629" lon="2.89874">
        <ele>132</ele>
        <time>2019-09-01T09:32:59Z</time>
      </trkpt>
      <trkpt lat="48.84644" lon="2.89835">
        <ele>132</ele>
        <time>2019-09-01T09:33:08Z</time>
      </trkpt>
      <trkpt lat="48.84704" lon="2.89815">
        <ele>129</ele>
        <time>2019-09-01T09:33:23Z</time>
      </trkpt>
      <trkpt lat="48.84722" lon="2.89808">
        <ele>128</ele>
        <time>2019-09-01T09:33:27Z</time>
      </trkpt>
      <trkpt lat="48.84737" lon="2.89824">
        <ele>128</ele>
        <time>2019-09-01T09:33:33Z</time>
      </trkpt>
      <trkpt lat="48.84751" lon="2.89825">
        <ele>126</ele>
        <time>2019-09-01T09:33:37Z</time>
      </trkpt>
      <trkpt lat="48.84823" lon="2.89817">
        <ele>121</ele>
        <time>2019-09-01T09:33:47Z</time>
      </trkpt>
      <trkpt lat="48.84915" lon="2.89834">
        <ele>115</ele>
        <time>2019-09-01T09:34:00Z</time>
      </trkpt>
      <trkpt lat="48.84922" lon="2.89802">
        <ele>112</ele>
        <time>2019-09-01T09:34:08Z</time>
      </trkpt>
      <trkpt lat="48.84923" lon="2.89788">
        <ele>112</ele>
        <time>2019-09-01T09:34:11Z</time>
      </trkpt>
      <trkpt lat="48.8492" lon="2.89781">
        <ele>112</ele>
        <time>2019-09-01T09:34:19Z</time>
      </trkpt>
      <trkpt lat="48.84922" lon="2.89769">
        <ele>112</ele>
        <time>2019-09-01T09:34:23Z</time>
      </trkpt>
      <trkpt lat="48.84922" lon="2.89724">
        <ele>111</ele>
        <time>2019-09-01T09:34:33Z</time>
      </trkpt>
      <trkpt lat="48.84924" lon="2.8965">
        <ele>111</ele>
        <time>2019-09-01T09:34:46Z</time>
      </trkpt>
      <trkpt lat="48.84924" lon="2.89641">
        <ele>111</ele>
        <time>2019-09-01T09:34:48Z</time>
      </trkpt>
      <trkpt lat="48.84914" lon="2.89632">
        <ele>113</ele>
        <time>2019-09-01T09:34:52Z</time>
      </trkpt>
      <trkpt lat="48.84875" lon="2.89625">
        <ele>114</ele>
        <time>2019-09-01T09:35:05Z</time>
      </trkpt>
      <trkpt lat="48.84848" lon="2.89622">
        <ele>114</ele>
        <time>2019-09-01T09:35:18Z</time>
      </trkpt>
      <trkpt lat="48.84827" lon="2.89611">
        <ele>117</ele>
        <time>2019-09-01T09:35:29Z</time>
      </trkpt>
      <trkpt lat="48.84832" lon="2.89579">
        <ele>115</ele>
        <time>2019-09-01T09:35:38Z</time>
      </trkpt>
      <trkpt lat="48.84847" lon="2.89508">
        <ele>114</ele>
        <time>2019-09-01T09:35:51Z</time>
      </trkpt>
      <trkpt lat="48.84863" lon="2.89446">
        <ele>115</ele>
        <time>2019-09-01T09:36:02Z</time>
      </trkpt>
      <trkpt lat="48.8488" lon="2.89388">
        <ele>117</ele>
        <time>2019-09-01T09:36:14Z</time>
      </trkpt>
      <trkpt lat="48.84889" lon="2.89355">
        <ele>117</ele>
        <time>2019-09-01T09:36:23Z</time>
      </trkpt>
      <trkpt lat="48.8491" lon="2.89335">
        <ele>116</ele>
        <time>2019-09-01T09:36:30Z</time>
      </trkpt>
      <trkpt lat="48.84967" lon="2.89334">
        <ele>112</ele>
        <time>2019-09-01T09:36:41Z</time>
      </trkpt>
      <trkpt lat="48.84982" lon="2.89333">
        <ele>112</ele>
        <time>2019-09-01T09:36:50Z</time>
      </trkpt>
      <trkpt lat="48.84984" lon="2.8933">
        <ele>112</ele>
        <time>2019-09-01T09:36:59Z</time>
      </trkpt>
      <trkpt lat="48.84975" lon="2.89336">
        <ele>112</ele>
        <time>2019-09-01T09:37:04Z</time>
      </trkpt>
      <trkpt lat="48.84944" lon="2.89335">
        <ele>113</ele>
        <time>2019-09-01T09:37:15Z</time>
      </trkpt>
      <trkpt lat="48.84922" lon="2.89336">
        <ele>114</ele>
        <time>2019-09-01T09:37:23Z</time>
      </trkpt>
      <trkpt lat="48.84925" lon="2.89295">
        <ele>114</ele>
        <time>2019-09-01T09:37:32Z</time>
      </trkpt>
      <trkpt lat="48.84928" lon="2.89262">
        <ele>115</ele>
        <time>2019-09-01T09:37:38Z</time>
      </trkpt>
      <trkpt lat="48.8492" lon="2.89252">
        <ele>116</ele>
        <time>2019-09-01T09:37:43Z</time>
      </trkpt>
      <trkpt lat="48.84906" lon="2.89248">
        <ele>119</ele>
        <time>2019-09-01T09:37:49Z</time>
      </trkpt>
      <trkpt lat="48.84892" lon="2.89244">
        <ele>120</ele>
        <time>2019-09-01T09:37:55Z</time>
      </trkpt>
      <trkpt lat="48.84896" lon="2.89205">
        <ele>121</ele>
        <time>2019-09-01T09:38:05Z</time>
      </trkpt>
      <trkpt lat="48.84912" lon="2.89163">
        <ele>121</ele>
        <time>2019-09-01T09:38:17Z</time>
      </trkpt>
      <trkpt lat="48.84927" lon="2.89123">
        <ele>120</ele>
        <time>2019-09-01T09:38:29Z</time>
      </trkpt>
      <trkpt lat="48.84939" lon="2.89082">
        <ele>122</ele>
        <time>2019-09-01T09:38:41Z</time>
      </trkpt>
      <trkpt lat="48.84946" lon="2.8904">
        <ele>122</ele>
        <time>2019-09-01T09:38:51Z</time>
      </trkpt>
      <trkpt lat="48.84947" lon="2.89034">
        <ele>122</ele>
        <time>2019-09-01T09:38:53Z</time>
      </trkpt>
      <trkpt lat="48.84928" lon="2.89017">
        <ele>123</ele>
        <time>2019-09-01T09:39:03Z</time>
      </trkpt>
      <trkpt lat="48.84924" lon="2.89013">
        <ele>124</ele>
        <time>2019-09-01T09:39:05Z</time>
      </trkpt>
      <trkpt lat="48.84903" lon="2.89001">
        <ele>125</ele>
        <time>2019-09-01T09:39:16Z</time>
      </trkpt>
      <trkpt lat="48.849" lon="2.88991">
        <ele>126</ele>
        <time>2019-09-01T09:39:20Z</time>
      </trkpt>
      <trkpt lat="48.84908" lon="2.88957">
        <ele>127</ele>
        <time>2019-09-01T09:39:31Z</time>
      </trkpt>
      <trkpt lat="48.84911" lon="2.88913">
        <ele>127</ele>
        <time>2019-09-01T09:39:42Z</time>
      </trkpt>
      <trkpt lat="48.84926" lon="2.88871">
        <ele>125</ele>
        <time>2019-09-01T09:39:52Z</time>
      </trkpt>
      <trkpt lat="48.8496" lon="2.88815">
        <ele>126</ele>
        <time>2019-09-01T09:40:04Z</time>
      </trkpt>
      <trkpt lat="48.84976" lon="2.88755">
        <ele>126</ele>
        <time>2019-09-01T09:40:16Z</time>
      </trkpt>
      <trkpt lat="48.84995" lon="2.88694">
        <ele>127</ele>
        <time>2019-09-01T09:40:27Z</time>
      </trkpt>
      <trkpt lat="48.85015" lon="2.88631">
        <ele>126</ele>
        <time>2019-09-01T09:40:39Z</time>
      </trkpt>
      <trkpt lat="48.85019" lon="2.88622">
        <ele>126</ele>
        <time>2019-09-01T09:40:41Z</time>
      </trkpt>
      <trkpt lat="48.85036" lon="2.88582">
        <ele>127</ele>
        <time>2019-09-01T09:40:49Z</time>
      </trkpt>
      <trkpt lat="48.8505" lon="2.88543">
        <ele>127</ele>
        <time>2019-09-01T09:40:57Z</time>
      </trkpt>
      <trkpt lat="48.85075" lon="2.88469">
        <ele>127</ele>
        <time>2019-09-01T09:41:11Z</time>
      </trkpt>
      <trkpt lat="48.85077" lon="2.88458">
        <ele>127</ele>
        <time>2019-09-01T09:41:13Z</time>
      </trkpt>
      <trkpt lat="48.85082" lon="2.88435">
        <ele>127</ele>
        <time>2019-09-01T09:41:17Z</time>
      </trkpt>
      <trkpt lat="48.85085" lon="2.88416">
        <ele>127</ele>
        <time>2019-09-01T09:41:20Z</time>
      </trkpt>
      <trkpt lat="48.8509" lon="2.88389">
        <ele>126</ele>
        <time>2019-09-01T09:41:24Z</time>
      </trkpt>
      <trkpt lat="48.85092" lon="2.88325">
        <ele>127</ele>
        <time>2019-09-01T09:41:33Z</time>
      </trkpt>
      <trkpt lat="48.8509" lon="2.88265">
        <ele>127</ele>
        <time>2019-09-01T09:41:42Z</time>
      </trkpt>
      <trkpt lat="48.85089" lon="2.8824">
        <ele>126</ele>
        <time>2019-09-01T09:41:46Z</time>
      </trkpt>
      <trkpt lat="48.85086" lon="2.88196">
        <ele>126</ele>
        <time>2019-09-01T09:41:53Z</time>
      </trkpt>
      <trkpt lat="48.85087" lon="2.88167">
        <ele>127</ele>
        <time>2019-09-01T09:41:57Z</time>
      </trkpt>
      <trkpt lat="48.85085" lon="2.88142">
        <ele>126</ele>
        <time>2019-09-01T09:42:01Z</time>
      </trkpt>
      <trkpt lat="48.85083" lon="2.88111">
        <ele>130</ele>
        <time>2019-09-01T09:42:06Z</time>
      </trkpt>
      <trkpt lat="48.85079" lon="2.8807">
        <ele>131</ele>
        <time>2019-09-01T09:42:13Z</time>
      </trkpt>
      <trkpt lat="48.85123" lon="2.88061">
        <ele>127</ele>
        <time>2019-09-01T09:42:24Z</time>
      </trkpt>
      <trkpt lat="48.85207" lon="2.88081">
        <ele>121</ele>
        <time>2019-09-01T09:42:37Z</time>
      </trkpt>
      <trkpt lat="48.85275" lon="2.88101">
        <ele>115</ele>
        <time>2019-09-01T09:42:47Z</time>
      </trkpt>
      <trkpt lat="48.85314" lon="2.88068">
        <ele>114</ele>
        <time>2019-09-01T09:42:55Z</time>
      </trkpt>
      <trkpt lat="48.85318" lon="2.88032">
        <ele>115</ele>
        <time>2019-09-01T09:43:00Z</time>
      </trkpt>
      <trkpt lat="48.85319" lon="2.8801">
        <ele>115</ele>
        <time>2019-09-01T09:43:03Z</time>
      </trkpt>
      <trkpt lat="48.85337" lon="2.88008">
        <ele>112</ele>
        <time>2019-09-01T09:43:08Z</time>
      </trkpt>
      <trkpt lat="48.85419" lon="2.88054">
        <ele>103</ele>
        <time>2019-09-01T09:43:21Z</time>
      </trkpt>
      <trkpt lat="48.85509" lon="2.8811">
        <ele>96</ele>
        <time>2019-09-01T09:43:33Z</time>
      </trkpt>
      <trkpt lat="48.85563" lon="2.88149">
        <ele>92</ele>
        <time>2019-09-01T09:43:39Z</time>
      </trkpt>
      <trkpt lat="48.8563" lon="2.88167">
        <ele>84</ele>
        <time>2019-09-01T09:43:49Z</time>
      </trkpt>
      <trkpt lat="48.85626" lon="2.8817">
        <ele>83</ele>
        <time>2019-09-01T09:43:54Z</time>
      </trkpt>
      <trkpt lat="48.85617" lon="2.88194">
        <ele>84</ele>
        <time>2019-09-01T09:44:04Z</time>
      </trkpt>
      <trkpt lat="48.85607" lon="2.88232">
        <ele>85</ele>
        <time>2019-09-01T09:44:15Z</time>
      </trkpt>
      <trkpt lat="48.85601" lon="2.88269">
        <ele>85</ele>
        <time>2019-09-01T09:44:24Z</time>
      </trkpt>
      <trkpt lat="48.85591" lon="2.88315">
        <ele>85</ele>
        <time>2019-09-01T09:44:35Z</time>
      </trkpt>
      <trkpt lat="48.85566" lon="2.88362">
        <ele>90</ele>
        <time>2019-09-01T09:44:48Z</time>
      </trkpt>
      <trkpt lat="48.85542" lon="2.88403">
        <ele>91</ele>
        <time>2019-09-01T09:44:58Z</time>
      </trkpt>
      <trkpt lat="48.8552" lon="2.88479">
        <ele>89</ele>
        <time>2019-09-01T09:45:09Z</time>
      </trkpt>
      <trkpt lat="48.85491" lon="2.8856">
        <ele>90</ele>
        <time>2019-09-01T09:45:24Z</time>
      </trkpt>
      <trkpt lat="48.85479" lon="2.88586">
        <ele>87</ele>
        <time>2019-09-01T09:45:29Z</time>
      </trkpt>
      <trkpt lat="48.85445" lon="2.88624">
        <ele>89</ele>
        <time>2019-09-01T09:45:40Z</time>
      </trkpt>
      <trkpt lat="48.85408" lon="2.88658">
        <ele>93</ele>
        <time>2019-09-01T09:45:52Z</time>
      </trkpt>
      <trkpt lat="48.85395" lon="2.8867">
        <ele>93</ele>
        <time>2019-09-01T09:45:57Z</time>
      </trkpt>
      <trkpt lat="48.85405" lon="2.88673">
        <ele>92</ele>
        <time>2019-09-01T09:46:03Z</time>
      </trkpt>
      <trkpt lat="48.85413" lon="2.88664">
        <ele>92</ele>
        <time>2019-09-01T09:46:05Z</time>
      </trkpt>
      <trkpt lat="48.85422" lon="2.88657">
        <ele>90</ele>
        <time>2019-09-01T09:46:07Z</time>
      </trkpt>
      <trkpt lat="48.85439" lon="2.88651">
        <ele>89</ele>
        <time>2019-09-01T09:46:10Z</time>
      </trkpt>
      <trkpt lat="48.8545" lon="2.88661">
        <ele>88</ele>
        <time>2019-09-01T09:46:14Z</time>
      </trkpt>
      <trkpt lat="48.85442" lon="2.88701">
        <ele>87</ele>
        <time>2019-09-01T09:46:22Z</time>
      </trkpt>
      <trkpt lat="48.85438" lon="2.8872">
        <ele>87</ele>
        <time>2019-09-01T09:46:25Z</time>
      </trkpt>
      <trkpt lat="48.85427" lon="2.88766">
        <ele>87</ele>
        <time>2019-09-01T09:46:34Z</time>
      </trkpt>
      <trkpt lat="48.8543" lon="2.88792">
        <ele>86</ele>
        <time>2019-09-01T09:46:39Z</time>
      </trkpt>
      <trkpt lat="48.85423" lon="2.88838">
        <ele>88</ele>
        <time>2019-09-01T09:46:46Z</time>
      </trkpt>
      <trkpt lat="48.85418" lon="2.88861">
        <ele>87</ele>
        <time>2019-09-01T09:46:49Z</time>
      </trkpt>
      <trkpt lat="48.85413" lon="2.889">
        <ele>90</ele>
        <time>2019-09-01T09:46:55Z</time>
      </trkpt>
      <trkpt lat="48.85408" lon="2.88921">
        <ele>89</ele>
        <time>2019-09-01T09:46:58Z</time>
      </trkpt>
      <trkpt lat="48.854" lon="2.88955">
        <ele>89</ele>
        <time>2019-09-01T09:47:03Z</time>
      </trkpt>
      <trkpt lat="48.85395" lon="2.8898">
        <ele>88</ele>
        <time>2019-09-01T09:47:07Z</time>
      </trkpt>
      <trkpt lat="48.85375" lon="2.89054">
        <ele>86</ele>
        <time>2019-09-01T09:47:19Z</time>
      </trkpt>
      <trkpt lat="48.8536" lon="2.89108">
        <ele>86</ele>
        <time>2019-09-01T09:47:30Z</time>
      </trkpt>
      <trkpt lat="48.85345" lon="2.89146">
        <ele>88</ele>
        <time>2019-09-01T09:47:42Z</time>
      </trkpt>
      <trkpt lat="48.8534" lon="2.89181">
        <ele>89</ele>
        <time>2019-09-01T09:47:52Z</time>
      </trkpt>
      <trkpt lat="48.85335" lon="2.8922">
        <ele>88</ele>
        <time>2019-09-01T09:48:02Z</time>
      </trkpt>
      <trkpt lat="48.8533" lon="2.8925">
        <ele>91</ele>
        <time>2019-09-01T09:48:11Z</time>
      </trkpt>
      <trkpt lat="48.85322" lon="2.89261">
        <ele>93</ele>
        <time>2019-09-01T09:48:17Z</time>
      </trkpt>
      <trkpt lat="48.85321" lon="2.89285">
        <ele>94</ele>
        <time>2019-09-01T09:48:23Z</time>
      </trkpt>
      <trkpt lat="48.85322" lon="2.89301">
        <ele>94</ele>
        <time>2019-09-01T09:48:26Z</time>
      </trkpt>
      <trkpt lat="48.85321" lon="2.89327">
        <ele>93</ele>
        <time>2019-09-01T09:48:30Z</time>
      </trkpt>
      <trkpt lat="48.85317" lon="2.89348">
        <ele>94</ele>
        <time>2019-09-01T09:48:33Z</time>
      </trkpt>
      <trkpt lat="48.85313" lon="2.89375">
        <ele>95</ele>
        <time>2019-09-01T09:48:37Z</time>
      </trkpt>
      <trkpt lat="48.85309" lon="2.89407">
        <ele>94</ele>
        <time>2019-09-01T09:48:42Z</time>
      </trkpt>
      <trkpt lat="48.85294" lon="2.89459">
        <ele>95</ele>
        <time>2019-09-01T09:48:52Z</time>
      </trkpt>
      <trkpt lat="48.85285" lon="2.89495">
        <ele>95</ele>
        <time>2019-09-01T09:49:00Z</time>
      </trkpt>
      <trkpt lat="48.85278" lon="2.89527">
        <ele>93</ele>
        <time>2019-09-01T09:49:06Z</time>
      </trkpt>
      <trkpt lat="48.85248" lon="2.89585">
        <ele>93</ele>
        <time>2019-09-01T09:49:16Z</time>
      </trkpt>
      <trkpt lat="48.85226" lon="2.89606">
        <ele>94</ele>
        <time>2019-09-01T09:49:21Z</time>
      </trkpt>
      <trkpt lat="48.85189" lon="2.8961">
        <ele>95</ele>
        <time>2019-09-01T09:49:32Z</time>
      </trkpt>
      <trkpt lat="48.85173" lon="2.89613">
        <ele>96</ele>
        <time>2019-09-01T09:49:38Z</time>
      </trkpt>
      <trkpt lat="48.85168" lon="2.89622">
        <ele>95</ele>
        <time>2019-09-01T09:49:42Z</time>
      </trkpt>
      <trkpt lat="48.85174" lon="2.89645">
        <ele>95</ele>
        <time>2019-09-01T09:49:47Z</time>
      </trkpt>
      <trkpt lat="48.85174" lon="2.89672">
        <ele>94</ele>
        <time>2019-09-01T09:49:52Z</time>
      </trkpt>
      <trkpt lat="48.85179" lon="2.89686">
        <ele>94</ele>
        <time>2019-09-01T09:49:56Z</time>
      </trkpt>
      <trkpt lat="48.8518" lon="2.89694">
        <ele>93</ele>
        <time>2019-09-01T09:49:58Z</time>
      </trkpt>
      <trkpt lat="48.8519" lon="2.89709">
        <ele>93</ele>
        <time>2019-09-01T09:50:04Z</time>
      </trkpt>
      <trkpt lat="48.85189" lon="2.89749">
        <ele>94</ele>
        <time>2019-09-01T09:50:11Z</time>
      </trkpt>
      <trkpt lat="48.85195" lon="2.89759">
        <ele>96</ele>
        <time>2019-09-01T09:50:15Z</time>
      </trkpt>
      <trkpt lat="48.85238" lon="2.89758">
        <ele>93</ele>
        <time>2019-09-01T09:50:26Z</time>
      </trkpt>
      <trkpt lat="48.85244" lon="2.89763">
        <ele>93</ele>
        <time>2019-09-01T09:50:28Z</time>
      </trkpt>
      <trkpt lat="48.85249" lon="2.89789">
        <ele>95</ele>
        <time>2019-09-01T09:50:35Z</time>
      </trkpt>
      <trkpt lat="48.8525" lon="2.89807">
        <ele>92</ele>
        <time>2019-09-01T09:50:40Z</time>
      </trkpt>
      <trkpt lat="48.8526" lon="2.89846">
        <ele>95</ele>
        <time>2019-09-01T09:50:51Z</time>
      </trkpt>
      <trkpt lat="48.85262" lon="2.8985">
        <ele>95</ele>
        <time>2019-09-01T09:50:52Z</time>
      </trkpt>
      <trkpt lat="48.85273" lon="2.89878">
        <ele>95</ele>
        <time>2019-09-01T09:51:03Z</time>
      </trkpt>
      <trkpt lat="48.85273" lon="2.89878">
        <ele>95</ele>
        <time>2019-09-01T09:51:15Z</time>
      </trkpt>
      <trkpt lat="48.85287" lon="2.89897">
        <ele>95</ele>
        <time>2019-09-01T09:51:21Z</time>
      </trkpt>
      <trkpt lat="48.85288" lon="2.89948">
        <ele>98</ele>
        <time>2019-09-01T09:51:33Z</time>
      </trkpt>
      <trkpt lat="48.85284" lon="2.89962">
        <ele>98</ele>
        <time>2019-09-01T09:51:37Z</time>
      </trkpt>
      <trkpt lat="48.85271" lon="2.89989">
        <ele>100</ele>
        <time>2019-09-01T09:51:48Z</time>
      </trkpt>
      <trkpt lat="48.85267" lon="2.90007">
        <ele>102</ele>
        <time>2019-09-01T09:51:56Z</time>
      </trkpt>
      <trkpt lat="48.85261" lon="2.90016">
        <ele>102</ele>
        <time>2019-09-01T09:52:01Z</time>
      </trkpt>
      <trkpt lat="48.85254" lon="2.90018">
        <ele>102</ele>
        <time>2019-09-01T09:52:06Z</time>
      </trkpt>
      <trkpt lat="48.85245" lon="2.90059">
        <ele>105</ele>
        <time>2019-09-01T09:52:19Z</time>
      </trkpt>
      <trkpt lat="48.85244" lon="2.90062">
        <ele>105</ele>
        <time>2019-09-01T09:52:20Z</time>
      </trkpt>
      <trkpt lat="48.85245" lon="2.90069">
        <ele>104</ele>
        <time>2019-09-01T09:52:22Z</time>
      </trkpt>
      <trkpt lat="48.85253" lon="2.90083">
        <ele>104</ele>
        <time>2019-09-01T09:52:26Z</time>
      </trkpt>
      <trkpt lat="48.85305" lon="2.90141">
        <ele>101</ele>
        <time>2019-09-01T09:52:39Z</time>
      </trkpt>
      <trkpt lat="48.85333" lon="2.90172">
        <ele>101</ele>
        <time>2019-09-01T09:52:45Z</time>
      </trkpt>
      <trkpt lat="48.85386" lon="2.90233">
        <ele>95</ele>
        <time>2019-09-01T09:52:56Z</time>
      </trkpt>
      <trkpt lat="48.85402" lon="2.90271">
        <ele>94</ele>
        <time>2019-09-01T09:53:02Z</time>
      </trkpt>
      <trkpt lat="48.85412" lon="2.90366">
        <ele>94</ele>
        <time>2019-09-01T09:53:12Z</time>
      </trkpt>
      <trkpt lat="48.85418" lon="2.90544">
        <ele>72</ele>
        <time>2019-09-01T09:53:25Z</time>
      </trkpt>
      <trkpt lat="48.85418" lon="2.90566">
        <ele>73</ele>
        <time>2019-09-01T09:53:27Z</time>
      </trkpt>
      <trkpt lat="48.85422" lon="2.90608">
        <ele>70</ele>
        <time>2019-09-01T09:53:32Z</time>
      </trkpt>
      <trkpt lat="48.85421" lon="2.9074">
        <ele>66</ele>
        <time>2019-09-01T09:53:45Z</time>
      </trkpt>
      <trkpt lat="48.85448" lon="2.9088">
        <ele>58</ele>
        <time>2019-09-01T09:53:59Z</time>
      </trkpt>
      <trkpt lat="48.85472" lon="2.9098">
        <ele>56</ele>
        <time>2019-09-01T09:54:10Z</time>
      </trkpt>
      <trkpt lat="48.8548" lon="2.90992">
        <ele>55</ele>
        <time>2019-09-01T09:54:13Z</time>
      </trkpt>
      <trkpt lat="48.85505" lon="2.90995">
        <ele>52</ele>
        <time>2019-09-01T09:54:18Z</time>
      </trkpt>
      <trkpt lat="48.85535" lon="2.90991">
        <ele>51</ele>
        <time>2019-09-01T09:54:25Z</time>
      </trkpt>
      <trkpt lat="48.85558" lon="2.91015">
        <ele>51</ele>
        <time>2019-09-01T09:54:31Z</time>
      </trkpt>
      <trkpt lat="48.85563" lon="2.91031">
        <ele>51</ele>
        <time>2019-09-01T09:54:33Z</time>
      </trkpt>
      <trkpt lat="48.85572" lon="2.91049">
        <ele>52</ele>
        <time>2019-09-01T09:54:36Z</time>
      </trkpt>
      <trkpt lat="48.85583" lon="2.91064">
        <ele>51</ele>
        <time>2019-09-01T09:54:39Z</time>
      </trkpt>
      <trkpt lat="48.85616" lon="2.911">
        <ele>51</ele>
        <time>2019-09-01T09:54:48Z</time>
      </trkpt>
      <trkpt lat="48.85631" lon="2.91139">
        <ele>51</ele>
        <time>2019-09-01T09:54:56Z</time>
      </trkpt>
      <trkpt lat="48.85634" lon="2.91154">
        <ele>51</ele>
        <time>2019-09-01T09:54:58Z</time>
      </trkpt>
      <trkpt lat="48.85653" lon="2.91216">
        <ele>52</ele>
        <time>2019-09-01T09:55:07Z</time>
      </trkpt>
      <trkpt lat="48.85658" lon="2.91229">
        <ele>52</ele>
        <time>2019-09-01T09:55:09Z</time>
      </trkpt>
      <trkpt lat="48.85677" lon="2.91286">
        <ele>53</ele>
        <time>2019-09-01T09:55:20Z</time>
      </trkpt>
      <trkpt lat="48.85687" lon="2.913">
        <ele>52</ele>
        <time>2019-09-01T09:55:23Z</time>
      </trkpt>
      <trkpt lat="48.85723" lon="2.91344">
        <ele>52</ele>
        <time>2019-09-01T09:55:33Z</time>
      </trkpt>
      <trkpt lat="48.85731" lon="2.91351">
        <ele>52</ele>
        <time>2019-09-01T09:55:35Z</time>
      </trkpt>
      <trkpt lat="48.85766" lon="2.9136">
        <ele>52</ele>
        <time>2019-09-01T09:55:43Z</time>
      </trkpt>
      <trkpt lat="48.85774" lon="2.9136">
        <ele>52</ele>
        <time>2019-09-01T09:55:45Z</time>
      </trkpt>
      <trkpt lat="48.85792" lon="2.91362">
        <ele>52</ele>
        <time>2019-09-01T09:55:49Z</time>
      </trkpt>
      <trkpt lat="48.85805" lon="2.91364">
        <ele>52</ele>
        <time>2019-09-01T09:55:52Z</time>
      </trkpt>
      <trkpt lat="48.85821" lon="2.91377">
        <ele>52</ele>
        <time>2019-09-01T09:55:56Z</time>
      </trkpt>
      <trkpt lat="48.85843" lon="2.91399">
        <ele>52</ele>
        <time>2019-09-01T09:56:03Z</time>
      </trkpt>
      <trkpt lat="48.8584" lon="2.91404">
        <ele>52</ele>
        <time>2019-09-01T09:56:08Z</time>
      </trkpt>
      <trkpt lat="48.85831" lon="2.91396">
        <ele>51</ele>
        <time>2019-09-01T09:56:13Z</time>
      </trkpt>
      <trkpt lat="48.85827" lon="2.91397">
        <ele>51</ele>
        <time>2019-09-01T09:56:25Z</time>
      </trkpt>
      <trkpt lat="48.85827" lon="2.91396">
        <ele>51</ele>
        <time>2019-09-01T09:56:30Z</time>
      </trkpt>
      <trkpt lat="48.85822" lon="2.91399">
        <ele>51</ele>
        <time>2019-09-01T09:56:44Z</time>
      </trkpt>
      <trkpt lat="48.85821" lon="2.91398">
        <ele>51</ele>
        <time>2019-09-01T09:57:03Z</time>
      </trkpt>
      <trkpt lat="48.85827" lon="2.91397">
        <ele>51</ele>
        <time>2019-09-01T09:57:17Z</time>
      </trkpt>
      <trkpt lat="48.85832" lon="2.91399">
        <ele>51</ele>
        <time>2019-09-01T09:57:24Z</time>
      </trkpt>
      <trkpt lat="48.85846" lon="2.914">
        <ele>52</ele>
        <time>2019-09-01T09:57:35Z</time>
      </trkpt>
      <trkpt lat="48.85856" lon="2.91398">
        <ele>52</ele>
        <time>2019-09-01T09:57:42Z</time>
      </trkpt>
      <trkpt lat="48.85861" lon="2.91403">
        <ele>52</ele>
        <time>2019-09-01T09:57:46Z</time>
      </trkpt>
      <trkpt lat="48.85869" lon="2.91415">
        <ele>52</ele>
        <time>2019-09-01T09:57:52Z</time>
      </trkpt>
      <trkpt lat="48.85871" lon="2.91414">
        <ele>52</ele>
        <time>2019-09-01T09:57:54Z</time>
      </trkpt>
      <trkpt lat="48.85876" lon="2.91393">
        <ele>53</ele>
        <time>2019-09-01T09:58:06Z</time>
      </trkpt>
      <trkpt lat="48.85876" lon="2.91391">
        <ele>53</ele>
        <time>2019-09-01T09:58:07Z</time>
      </trkpt>
      <trkpt lat="48.85879" lon="2.91387">
        <ele>53</ele>
        <time>2019-09-01T09:58:10Z</time>
      </trkpt>
      <trkpt lat="48.85884" lon="2.91383">
        <ele>53</ele>
        <time>2019-09-01T09:58:15Z</time>
      </trkpt>
      <trkpt lat="48.85885" lon="2.91382">
        <ele>53</ele>
        <time>2019-09-01T09:58:26Z</time>
      </trkpt>
      <trkpt lat="48.85886" lon="2.9138">
        <ele>53</ele>
        <time>2019-09-01T09:58:44Z</time>
      </trkpt>
      <trkpt lat="48.85885" lon="2.9138">
        <ele>53</ele>
        <time>2019-09-01T09:58:58Z</time>
      </trkpt>
      <trkpt lat="48.85885" lon="2.91381">
        <ele>53</ele>
        <time>2019-09-01T09:59:18Z</time>
      </trkpt>
      <trkpt lat="48.85885" lon="2.91382">
        <ele>53</ele>
        <time>2019-09-01T09:59:44Z</time>
      </trkpt>
      <trkpt lat="48.85885" lon="2.91382">
        <ele>53</ele>
        <time>2019-09-01T09:59:46Z</time>
      </trkpt>
    </trkseg>
  </trk>
</gpx>